PWSweather.com
Personal Weather Stations
Station Observations
DL5ARK
SonnebergDE

SonnebergDE

Lat: 50.34904861, Lon: 11.18112087

Elevation: 1214

Station Type: Selfmade

http://www.sumbarg.de

High Low Average
Temperature 46.4°F8.0°C 34.7°F1.5°C 39.5°F4.2°C
Dew Point 44.7°F7.1°C 35.6°F2.0°C 40.6°F4.8°C
Winds 13.8 mph 22.2 kmh Calm Calm 5.0 mph W8.0 kmh W
Wind Gusts 13.9 mph22.4 kmh -- 5.0 mph8.0 kmh
Humidity 89% 74% 82%
Pressure 29.64 in1003.7 mb 29.45 in997.3 mb -
Precipitation 0.12 in3.0 mm - -
Hour Temp Dew Point Humidity Winds Wind Gusts Pressure Precip Precip Rate Daily Precip Total
12:00 AM 37.9°F3.3°C 38.5°F3.6°C 79% 8.9 mph NNW14.3 kmh NNW 9.0 mph14.5 kmh 29.41 in995.9 mb 0.00 in0.0 mm 0.00 in0.0 mm 0.00 in0.0 mm
12:01 AM 37.9°F3.3°C 38.3°F3.5°C 79% 9.2 mph NNW14.8 kmh NNW 9.2 mph14.8 kmh 29.41 in995.9 mb 0.00 in0.0 mm 0.00 in0.0 mm 0.00 in0.0 mm
12:03 AM 37.9°F3.3°C 38.5°F3.6°C 79% 4.9 mph 7.9 kmh 4.9 mph7.9 kmh 29.41 in995.9 mb 0.00 in0.0 mm 0.00 in0.0 mm 0.00 in0.0 mm
12:04 AM 37.9°F3.3°C 38.5°F3.6°C 79% 3.0 mph WNW4.8 kmh WNW 3.0 mph4.8 kmh 29.41 in995.9 mb 0.00 in0.0 mm 0.00 in0.0 mm 0.00 in0.0 mm
12:06 AM 37.7°F3.2°C 38.9°F3.8°C 79% 2.8 mph NW4.5 kmh NW 2.9 mph4.7 kmh 29.42 in996.3 mb 0.00 in0.0 mm 0.00 in0.0 mm 0.00 in0.0 mm
12:07 AM 37.7°F3.2°C 38.7°F3.7°C 79% 3.7 mph W6.0 kmh W 3.7 mph6.0 kmh 29.42 in996.3 mb 0.00 in0.0 mm 0.00 in0.0 mm 0.00 in0.0 mm
12:09 AM 37.7°F3.2°C 38.8°F3.8°C 80% 3.2 mph W5.1 kmh W 3.3 mph5.3 kmh 29.42 in996.3 mb 0.00 in0.0 mm 0.00 in0.0 mm 0.00 in0.0 mm
12:10 AM 37.6°F3.1°C 38.6°F3.7°C 79% 2.7 mph W4.3 kmh W 2.7 mph4.3 kmh 29.43 in996.6 mb 0.00 in0.0 mm 0.00 in0.0 mm 0.00 in0.0 mm
12:12 AM 37.7°F3.2°C 38.7°F3.7°C 79% 7.7 mph W12.4 kmh W 7.7 mph12.4 kmh 29.43 in996.6 mb 0.00 in0.0 mm 0.00 in0.0 mm 0.00 in0.0 mm
12:13 AM 37.7°F3.2°C 38.3°F3.5°C 79% 9.2 mph W14.8 kmh W 9.3 mph15.0 kmh 29.43 in996.6 mb 0.00 in0.0 mm 0.00 in0.0 mm 0.00 in0.0 mm
12:16 AM 37.7°F3.2°C 38.5°F3.6°C 79% 5.7 mph W9.2 kmh W 5.7 mph9.2 kmh 29.43 in996.6 mb 0.00 in0.0 mm 0.00 in0.0 mm 0.00 in0.0 mm
12:18 AM 37.6°F3.1°C 38.4°F3.6°C 79% 5.7 mph W9.2 kmh W 5.7 mph9.2 kmh 29.43 in996.6 mb 0.00 in0.0 mm 0.00 in0.0 mm 0.00 in0.0 mm
12:19 AM 37.6°F3.1°C 38.4°F3.6°C 79% 4.4 mph WNW7.1 kmh WNW 4.4 mph7.1 kmh 29.43 in996.6 mb 0.00 in0.0 mm 0.00 in0.0 mm 0.00 in0.0 mm
12:21 AM 37.5°F3.1°C 38.2°F3.4°C 78% 11.3 mph W18.2 kmh W 11.3 mph18.2 kmh 29.43 in996.6 mb 0.00 in0.0 mm 0.00 in0.0 mm 0.00 in0.0 mm
12:22 AM 37.6°F3.1°C 38.1°F3.4°C 79% 9.4 mph W15.1 kmh W 9.4 mph15.1 kmh 29.43 in996.6 mb 0.00 in0.0 mm 0.00 in0.0 mm 0.00 in0.0 mm
12:24 AM 37.5°F3.1°C 38.0°F3.3°C 78% 11.3 mph NNW18.2 kmh NNW 11.3 mph18.2 kmh 29.43 in996.6 mb 0.00 in0.0 mm 0.00 in0.0 mm 0.00 in0.0 mm
12:25 AM 37.5°F3.1°C 38.3°F3.5°C 78% 11.5 mph WSW18.5 kmh WSW 11.6 mph18.7 kmh 29.43 in996.6 mb 0.00 in0.0 mm 0.00 in0.0 mm 0.00 in0.0 mm
12:27 AM 37.4°F3.0°C 37.9°F3.3°C 78% 8.9 mph W14.3 kmh W 9.0 mph14.5 kmh 29.43 in996.6 mb 0.00 in0.0 mm 0.00 in0.0 mm 0.00 in0.0 mm
12:28 AM 37.5°F3.1°C 38.0°F3.3°C 78% 11.5 mph NW18.5 kmh NW 11.5 mph18.5 kmh 29.43 in996.6 mb 0.00 in0.0 mm 0.00 in0.0 mm 0.00 in0.0 mm
12:30 AM 37.3°F2.9°C 37.9°F3.3°C 78% 5.7 mph W9.2 kmh W 5.7 mph9.2 kmh 29.43 in996.6 mb 0.00 in0.0 mm 0.00 in0.0 mm 0.00 in0.0 mm
12:31 AM 37.4°F3.0°C 38.1°F3.4°C 79% 7.0 mph W11.3 kmh W 7.0 mph11.3 kmh 29.43 in996.6 mb 0.00 in0.0 mm 0.00 in0.0 mm 0.00 in0.0 mm
12:33 AM 37.3°F2.9°C 38.0°F3.3°C 79% 6.1 mph W9.8 kmh W 6.1 mph9.8 kmh 29.44 in997.0 mb 0.00 in0.0 mm 0.00 in0.0 mm 0.00 in0.0 mm
12:34 AM 37.3°F2.9°C 38.2°F3.4°C 78% 7.3 mph W11.7 kmh W 7.5 mph12.1 kmh 29.43 in996.6 mb 0.00 in0.0 mm 0.00 in0.0 mm 0.00 in0.0 mm
12:36 AM 37.3°F2.9°C 37.9°F3.3°C 78% 6.9 mph WNW11.1 kmh WNW 6.9 mph11.1 kmh 29.44 in997.0 mb 0.00 in0.0 mm 0.00 in0.0 mm 0.00 in0.0 mm
12:37 AM 37.3°F2.9°C 38.0°F3.3°C 79% 4.2 mph W6.8 kmh W 4.2 mph6.8 kmh 29.44 in997.0 mb 0.00 in0.0 mm 0.00 in0.0 mm 0.00 in0.0 mm
12:39 AM 37.2°F2.9°C 37.9°F3.3°C 78% 14.3 mph W23.0 kmh W 14.4 mph23.2 kmh 29.45 in997.3 mb 0.00 in0.0 mm 0.00 in0.0 mm 0.00 in0.0 mm
12:40 AM 37.2°F2.9°C 37.8°F3.2°C 78% 10.4 mph WNW16.7 kmh WNW 10.8 mph17.4 kmh 29.44 in997.0 mb 0.00 in0.0 mm 0.00 in0.0 mm 0.00 in0.0 mm
12:42 AM 37.2°F2.9°C 37.9°F3.3°C 79% 6.0 mph WNW9.7 kmh WNW 6.1 mph9.8 kmh 29.45 in997.3 mb 0.00 in0.0 mm 0.00 in0.0 mm 0.00 in0.0 mm
12:43 AM 37.2°F2.9°C 37.9°F3.3°C 78% 10.6 mph W17.1 kmh W 10.7 mph17.2 kmh 29.45 in997.3 mb 0.00 in0.0 mm 0.00 in0.0 mm 0.00 in0.0 mm
12:45 AM 37.1°F2.8°C 38.0°F3.3°C 78% 9.7 mph W15.6 kmh W 9.8 mph15.8 kmh 29.45 in997.3 mb 0.00 in0.0 mm 0.00 in0.0 mm 0.00 in0.0 mm
12:46 AM 37.1°F2.8°C 37.9°F3.3°C 78% 10.2 mph WNW16.4 kmh WNW 10.2 mph16.4 kmh 29.45 in997.3 mb 0.00 in0.0 mm 0.00 in0.0 mm 0.00 in0.0 mm
12:48 AM 36.7°F2.6°C 38.0°F3.3°C 78% 6.5 mph W10.5 kmh W 6.5 mph10.5 kmh 29.45 in997.3 mb 0.00 in0.0 mm 0.00 in0.0 mm 0.00 in0.0 mm
12:49 AM 36.7°F2.6°C 37.7°F3.2°C 78% 7.2 mph NW11.6 kmh NW 7.3 mph11.7 kmh 29.45 in997.3 mb 0.00 in0.0 mm 0.00 in0.0 mm 0.00 in0.0 mm
12:51 AM 36.6°F2.6°C 37.5°F3.1°C 77% 8.5 mph W13.7 kmh W 8.6 mph13.8 kmh 29.45 in997.3 mb 0.00 in0.0 mm 0.00 in0.0 mm 0.00 in0.0 mm
12:52 AM 36.6°F2.6°C 37.3°F2.9°C 78% 7.5 mph W12.1 kmh W 7.7 mph12.4 kmh 29.45 in997.3 mb 0.00 in0.0 mm 0.00 in0.0 mm 0.00 in0.0 mm
12:54 AM 36.5°F2.5°C 37.7°F3.2°C 78% 6.9 mph W11.1 kmh W 6.9 mph11.1 kmh 29.45 in997.3 mb 0.00 in0.0 mm 0.00 in0.0 mm 0.00 in0.0 mm
12:55 AM 36.5°F2.5°C 37.6°F3.1°C 78% 5.6 mph W9.0 kmh W 5.6 mph9.0 kmh 29.45 in997.3 mb 0.00 in0.0 mm 0.00 in0.0 mm 0.00 in0.0 mm
12:57 AM 36.5°F2.5°C 37.5°F3.1°C 78% 4.4 mph WNW7.1 kmh WNW 4.5 mph7.2 kmh 29.45 in997.3 mb 0.00 in0.0 mm 0.00 in0.0 mm 0.00 in0.0 mm
12:58 AM 36.4°F2.4°C 37.4°F3.0°C 78% 5.1 mph NW8.2 kmh NW 5.1 mph8.2 kmh 29.45 in997.3 mb 0.00 in0.0 mm 0.00 in0.0 mm 0.00 in0.0 mm
01:00 AM 36.5°F2.5°C 37.4°F3.0°C 78% 0.4 mph WSW0.6 kmh WSW 0.4 mph0.6 kmh 29.45 in997.3 mb 0.00 in0.0 mm 0.00 in0.0 mm 0.00 in0.0 mm
01:01 AM 36.5°F2.5°C 37.4°F3.0°C 78% 0.5 mph W0.8 kmh W 0.5 mph0.8 kmh 29.45 in997.3 mb 0.00 in0.0 mm 0.00 in0.0 mm 0.00 in0.0 mm
01:03 AM 36.6°F2.6°C 37.5°F3.1°C 78% 3.2 mph WNW5.1 kmh WNW 3.3 mph5.3 kmh 29.45 in997.3 mb 0.00 in0.0 mm 0.00 in0.0 mm 0.00 in0.0 mm
01:04 AM 36.6°F2.6°C 37.8°F3.2°C 79% 2.9 mph WSW4.7 kmh WSW 3.0 mph4.8 kmh 29.45 in997.3 mb 0.00 in0.0 mm 0.00 in0.0 mm 0.00 in0.0 mm
01:06 AM 36.6°F2.6°C 37.8°F3.2°C 79% 2.8 mph W4.5 kmh W 2.9 mph4.7 kmh 29.45 in997.3 mb 0.00 in0.0 mm 0.00 in0.0 mm 0.00 in0.0 mm
01:07 AM 36.6°F2.6°C 37.7°F3.2°C 79% 5.4 mph WNW8.7 kmh WNW 5.4 mph8.7 kmh 29.45 in997.3 mb 0.00 in0.0 mm 0.00 in0.0 mm 0.00 in0.0 mm
01:09 AM 36.5°F2.5°C 37.8°F3.2°C 79% 7.3 mph WSW11.7 kmh WSW 7.3 mph11.7 kmh 29.45 in997.3 mb 0.00 in0.0 mm 0.00 in0.0 mm 0.00 in0.0 mm
01:10 AM 36.6°F2.6°C 37.6°F3.1°C 78% 6.8 mph WSW10.9 kmh WSW 6.8 mph10.9 kmh 29.46 in997.6 mb 0.00 in0.0 mm 0.00 in0.0 mm 0.00 in0.0 mm
01:12 AM 36.6°F2.6°C 37.7°F3.2°C 79% 6.9 mph W11.1 kmh W 6.9 mph11.1 kmh 29.46 in997.6 mb 0.00 in0.0 mm 0.00 in0.0 mm 0.00 in0.0 mm
01:13 AM 36.6°F2.6°C 37.6°F3.1°C 79% 6.5 mph W10.5 kmh W 6.6 mph10.6 kmh 29.46 in997.6 mb 0.00 in0.0 mm 0.00 in0.0 mm 0.00 in0.0 mm
01:15 AM 36.4°F2.4°C 38.0°F3.3°C 79% 8.3 mph NW13.4 kmh NW 8.3 mph13.4 kmh 29.46 in997.6 mb 0.00 in0.0 mm 0.00 in0.0 mm 0.00 in0.0 mm
01:16 AM 36.4°F2.4°C 37.6°F3.1°C 79% 6.1 mph WSW9.8 kmh WSW 6.1 mph9.8 kmh 29.46 in997.6 mb 0.00 in0.0 mm 0.00 in0.0 mm 0.00 in0.0 mm
01:18 AM 36.1°F2.3°C 37.3°F2.9°C 79% 2.8 mph W4.5 kmh W 2.9 mph4.7 kmh 29.46 in997.6 mb 0.00 in0.0 mm 0.00 in0.0 mm 0.00 in0.0 mm
01:19 AM 36.1°F2.3°C 37.1°F2.8°C 78% 2.8 mph WNW4.5 kmh WNW 2.8 mph4.5 kmh 29.45 in997.3 mb 0.00 in0.0 mm 0.00 in0.0 mm 0.00 in0.0 mm
01:21 AM 35.7°F2.1°C 36.9°F2.7°C 78% 2.4 mph W3.9 kmh W 2.4 mph3.9 kmh 29.45 in997.3 mb 0.00 in0.0 mm 0.00 in0.0 mm 0.00 in0.0 mm
01:22 AM 35.7°F2.1°C 37.2°F2.9°C 78% 2.6 mph W4.2 kmh W 2.7 mph4.3 kmh 29.45 in997.3 mb 0.00 in0.0 mm 0.00 in0.0 mm 0.00 in0.0 mm
01:24 AM 35.6°F2.0°C 37.0°F2.8°C 78% 3.6 mph WSW5.8 kmh WSW 3.6 mph5.8 kmh 29.45 in997.3 mb 0.00 in0.0 mm 0.00 in0.0 mm 0.00 in0.0 mm
01:27 AM 35.7°F2.1°C 36.8°F2.7°C 78% 7.3 mph NNW11.7 kmh NNW 7.3 mph11.7 kmh 29.45 in997.3 mb 0.00 in0.0 mm 0.00 in0.0 mm 0.00 in0.0 mm
01:28 AM 35.7°F2.1°C 37.0°F2.8°C 77% 8.9 mph W14.3 kmh W 8.9 mph14.3 kmh 29.45 in997.3 mb 0.00 in0.0 mm 0.00 in0.0 mm 0.00 in0.0 mm
01:30 AM 35.6°F2.0°C 36.7°F2.6°C 77% 5.7 mph WSW9.2 kmh WSW 5.7 mph9.2 kmh 29.45 in997.3 mb 0.00 in0.0 mm 0.00 in0.0 mm 0.00 in0.0 mm
01:31 AM 35.6°F2.0°C 36.6°F2.6°C 77% 6.8 mph W10.9 kmh W 6.9 mph11.1 kmh 29.45 in997.3 mb 0.00 in0.0 mm 0.00 in0.0 mm 0.00 in0.0 mm
01:33 AM 35.2°F1.8°C 36.5°F2.5°C 77% 10.3 mph W16.6 kmh W 10.4 mph16.7 kmh 29.46 in997.6 mb 0.00 in0.0 mm 0.00 in0.0 mm 0.00 in0.0 mm
01:34 AM 35.2°F1.8°C 36.8°F2.7°C 77% 6.8 mph WNW10.9 kmh WNW 6.9 mph11.1 kmh 29.46 in997.6 mb 0.00 in0.0 mm 0.00 in0.0 mm 0.00 in0.0 mm
01:36 AM 34.9°F1.6°C 36.7°F2.6°C 77% 6.1 mph W9.8 kmh W 6.1 mph9.8 kmh 29.46 in997.6 mb 0.00 in0.0 mm 0.00 in0.0 mm 0.00 in0.0 mm
01:37 AM 34.9°F1.6°C 36.6°F2.6°C 77% 6.7 mph WSW10.8 kmh WSW 6.8 mph10.9 kmh 29.46 in997.6 mb 0.00 in0.0 mm 0.00 in0.0 mm 0.00 in0.0 mm
01:39 AM 35.3°F1.8°C 36.6°F2.6°C 77% 5.3 mph W8.5 kmh W 5.3 mph8.5 kmh 29.46 in997.6 mb 0.00 in0.0 mm 0.00 in0.0 mm 0.00 in0.0 mm
01:40 AM 35.2°F1.8°C 36.5°F2.5°C 77% 5.2 mph WNW8.4 kmh WNW 5.2 mph8.4 kmh 29.46 in997.6 mb 0.00 in0.0 mm 0.00 in0.0 mm 0.00 in0.0 mm
01:42 AM 35.3°F1.8°C 36.3°F2.4°C 77% 2.4 mph W3.9 kmh W 2.4 mph3.9 kmh 29.46 in997.6 mb 0.00 in0.0 mm 0.00 in0.0 mm 0.00 in0.0 mm
01:43 AM 35.3°F1.8°C 36.4°F2.4°C 77% 1.4 mph W2.3 kmh W 1.4 mph2.3 kmh 29.46 in997.6 mb 0.00 in0.0 mm 0.00 in0.0 mm 0.00 in0.0 mm
01:45 AM 35.3°F1.8°C 36.6°F2.6°C 77% Calm Calm -- 29.47 in998.0 mb 0.00 in0.0 mm 0.00 in0.0 mm 0.00 in0.0 mm
01:46 AM 35.3°F1.8°C 36.5°F2.5°C 77% Calm Calm -- 29.46 in997.6 mb 0.00 in0.0 mm 0.00 in0.0 mm 0.00 in0.0 mm
01:48 AM 35.0°F1.7°C 36.3°F2.4°C 77% 1.2 mph W1.9 kmh W 1.2 mph1.9 kmh 29.47 in998.0 mb 0.00 in0.0 mm 0.00 in0.0 mm 0.00 in0.0 mm
01:49 AM 35.0°F1.7°C 36.4°F2.4°C 77% 2.3 mph W3.7 kmh W 2.3 mph3.7 kmh 29.47 in998.0 mb 0.00 in0.0 mm 0.00 in0.0 mm 0.00 in0.0 mm
01:51 AM 34.7°F1.5°C 36.4°F2.4°C 77% 2.0 mph W3.2 kmh W 2.0 mph3.2 kmh 29.47 in998.0 mb 0.00 in0.0 mm 0.00 in0.0 mm 0.00 in0.0 mm
01:52 AM 34.7°F1.5°C 36.0°F2.2°C 77% 2.8 mph WNW4.5 kmh WNW 2.8 mph4.5 kmh 29.47 in998.0 mb 0.00 in0.0 mm 0.00 in0.0 mm 0.00 in0.0 mm
01:54 AM 34.9°F1.6°C 36.4°F2.4°C 77% 4.4 mph WSW7.1 kmh WSW 4.4 mph7.1 kmh 29.47 in998.0 mb 0.00 in0.0 mm 0.00 in0.0 mm 0.00 in0.0 mm
01:55 AM 35.0°F1.7°C 36.3°F2.4°C 77% 4.4 mph W7.1 kmh W 4.4 mph7.1 kmh 29.47 in998.0 mb 0.00 in0.0 mm 0.00 in0.0 mm 0.00 in0.0 mm
01:57 AM 35.2°F1.8°C 36.4°F2.4°C 78% 4.4 mph W7.1 kmh W 4.4 mph7.1 kmh 29.46 in997.6 mb 0.00 in0.0 mm 0.00 in0.0 mm 0.00 in0.0 mm
01:58 AM 35.2°F1.8°C 36.2°F2.3°C 77% 4.2 mph W6.8 kmh W 4.4 mph7.1 kmh 29.46 in997.6 mb 0.00 in0.0 mm 0.00 in0.0 mm 0.00 in0.0 mm
02:00 AM 35.2°F1.8°C 36.2°F2.3°C 77% 4.8 mph WSW7.7 kmh WSW 4.9 mph7.9 kmh 29.46 in997.6 mb 0.00 in0.0 mm 0.00 in0.0 mm 0.00 in0.0 mm
02:01 AM 35.3°F1.8°C 36.4°F2.4°C 78% 5.1 mph WSW8.2 kmh WSW 5.1 mph8.2 kmh 29.46 in997.6 mb 0.00 in0.0 mm 0.00 in0.0 mm 0.00 in0.0 mm
02:03 AM 35.2°F1.8°C 36.1°F2.3°C 77% 4.0 mph W6.4 kmh W 4.1 mph6.6 kmh 29.46 in997.6 mb 0.00 in0.0 mm 0.00 in0.0 mm 0.00 in0.0 mm
02:04 AM 35.2°F1.8°C 35.9°F2.2°C 77% 3.9 mph W6.3 kmh W 4.1 mph6.6 kmh 29.46 in997.6 mb 0.00 in0.0 mm 0.00 in0.0 mm 0.00 in0.0 mm
02:06 AM 35.0°F1.7°C 36.1°F2.3°C 77% 2.8 mph WSW4.5 kmh WSW 2.8 mph4.5 kmh 29.46 in997.6 mb 0.00 in0.0 mm 0.00 in0.0 mm 0.00 in0.0 mm
02:07 AM 35.0°F1.7°C 36.2°F2.3°C 77% 5.9 mph WSW9.5 kmh WSW 5.9 mph9.5 kmh 29.46 in997.6 mb 0.00 in0.0 mm 0.00 in0.0 mm 0.00 in0.0 mm
02:09 AM 35.0°F1.7°C 36.0°F2.2°C 77% 4.4 mph NW7.1 kmh NW 4.4 mph7.1 kmh 29.46 in997.6 mb 0.00 in0.0 mm 0.00 in0.0 mm 0.00 in0.0 mm
02:10 AM 35.0°F1.7°C 36.1°F2.3°C 77% 3.5 mph WSW5.6 kmh WSW 3.5 mph5.6 kmh 29.46 in997.6 mb 0.00 in0.0 mm 0.00 in0.0 mm 0.00 in0.0 mm
02:12 AM 35.0°F1.7°C 36.1°F2.3°C 77% 5.9 mph WSW9.5 kmh WSW 5.9 mph9.5 kmh 29.46 in997.6 mb 0.00 in0.0 mm 0.00 in0.0 mm 0.00 in0.0 mm
02:13 AM 35.0°F1.7°C 36.2°F2.3°C 77% 4.6 mph W7.4 kmh W 4.8 mph7.7 kmh 29.46 in997.6 mb 0.00 in0.0 mm 0.00 in0.0 mm 0.00 in0.0 mm
02:15 AM 35.2°F1.8°C 35.8°F2.1°C 77% 3.2 mph W5.1 kmh W 3.2 mph5.1 kmh 29.46 in997.6 mb 0.00 in0.0 mm 0.00 in0.0 mm 0.00 in0.0 mm
02:16 AM 35.0°F1.7°C 36.0°F2.2°C 77% 2.8 mph W4.5 kmh W 3.0 mph4.8 kmh 29.46 in997.6 mb 0.00 in0.0 mm 0.00 in0.0 mm 0.00 in0.0 mm
02:18 AM 35.3°F1.8°C 35.9°F2.2°C 77% 2.8 mph W4.5 kmh W 2.8 mph4.5 kmh 29.46 in997.6 mb 0.00 in0.0 mm 0.00 in0.0 mm 0.00 in0.0 mm
02:19 AM 35.3°F1.8°C 36.0°F2.2°C 77% 2.5 mph W4.0 kmh W 2.5 mph4.0 kmh 29.46 in997.6 mb 0.00 in0.0 mm 0.00 in0.0 mm 0.00 in0.0 mm
02:21 AM 35.5°F1.9°C 36.1°F2.3°C 77% 4.4 mph W7.1 kmh W 4.5 mph7.2 kmh 29.47 in998.0 mb 0.00 in0.0 mm 0.00 in0.0 mm 0.00 in0.0 mm
02:22 AM 35.5°F1.9°C 35.9°F2.2°C 77% 6.0 mph W9.7 kmh W 6.0 mph9.7 kmh 29.46 in997.6 mb 0.00 in0.0 mm 0.00 in0.0 mm 0.00 in0.0 mm
02:24 AM 35.4°F1.9°C 35.9°F2.2°C 77% 5.6 mph W9.0 kmh W 5.6 mph9.0 kmh 29.47 in998.0 mb 0.00 in0.0 mm 0.00 in0.0 mm 0.00 in0.0 mm
02:25 AM 35.5°F1.9°C 35.8°F2.1°C 77% 5.5 mph W8.9 kmh W 5.5 mph8.9 kmh 29.47 in998.0 mb 0.00 in0.0 mm 0.00 in0.0 mm 0.00 in0.0 mm
02:27 AM 35.4°F1.9°C 36.0°F2.2°C 77% 2.4 mph NNW3.9 kmh NNW 2.4 mph3.9 kmh 29.47 in998.0 mb 0.00 in0.0 mm 0.00 in0.0 mm 0.00 in0.0 mm
02:28 AM 35.4°F1.9°C 35.9°F2.2°C 77% 3.0 mph W4.8 kmh W 3.0 mph4.8 kmh 29.47 in998.0 mb 0.00 in0.0 mm 0.00 in0.0 mm 0.00 in0.0 mm
02:30 AM 35.3°F1.8°C 36.0°F2.2°C 77% 2.4 mph WNW3.9 kmh WNW 2.4 mph3.9 kmh 29.47 in998.0 mb 0.00 in0.0 mm 0.00 in0.0 mm 0.00 in0.0 mm
02:31 AM 35.3°F1.8°C 35.9°F2.2°C 77% 4.2 mph WNW6.8 kmh WNW 4.2 mph6.8 kmh 29.47 in998.0 mb 0.00 in0.0 mm 0.00 in0.0 mm 0.00 in0.0 mm
02:33 AM 35.4°F1.9°C 35.8°F2.1°C 77% 5.6 mph SW9.0 kmh SW 5.6 mph9.0 kmh 29.47 in998.0 mb 0.00 in0.0 mm 0.00 in0.0 mm 0.00 in0.0 mm
02:34 AM 35.5°F1.9°C 35.6°F2.0°C 77% 6.1 mph W9.8 kmh W 6.1 mph9.8 kmh 29.47 in998.0 mb 0.00 in0.0 mm 0.00 in0.0 mm 0.00 in0.0 mm
02:36 AM 34.9°F1.6°C 36.0°F2.2°C 77% 6.0 mph W9.7 kmh W 6.1 mph9.8 kmh 29.47 in998.0 mb 0.00 in0.0 mm 0.00 in0.0 mm 0.00 in0.0 mm
02:37 AM 34.9°F1.6°C 35.9°F2.2°C 77% 4.5 mph WNW7.2 kmh WNW 4.8 mph7.7 kmh 29.47 in998.0 mb 0.00 in0.0 mm 0.00 in0.0 mm 0.00 in0.0 mm
02:39 AM 35.2°F1.8°C 35.8°F2.1°C 77% 4.4 mph WNW7.1 kmh WNW 4.4 mph7.1 kmh 29.47 in998.0 mb 0.00 in0.0 mm 0.00 in0.0 mm 0.00 in0.0 mm
02:40 AM 35.2°F1.8°C 35.7°F2.1°C 77% 5.8 mph WNW9.3 kmh WNW 5.9 mph9.5 kmh 29.47 in998.0 mb 0.00 in0.0 mm 0.00 in0.0 mm 0.00 in0.0 mm
02:42 AM 35.2°F1.8°C 35.8°F2.1°C 77% 4.4 mph W7.1 kmh W 4.4 mph7.1 kmh 29.47 in998.0 mb 0.00 in0.0 mm 0.00 in0.0 mm 0.00 in0.0 mm
02:43 AM 35.2°F1.8°C 35.7°F2.1°C 77% 4.3 mph W6.9 kmh W 4.3 mph6.9 kmh 29.47 in998.0 mb 0.00 in0.0 mm 0.00 in0.0 mm 0.00 in0.0 mm
02:45 AM 35.3°F1.8°C 36.1°F2.3°C 78% 3.6 mph W5.8 kmh W 3.6 mph5.8 kmh 29.47 in998.0 mb 0.00 in0.0 mm 0.00 in0.0 mm 0.00 in0.0 mm
02:46 AM 35.3°F1.8°C 35.9°F2.2°C 78% 4.6 mph WNW7.4 kmh WNW 4.6 mph7.4 kmh 29.47 in998.0 mb 0.00 in0.0 mm 0.00 in0.0 mm 0.00 in0.0 mm
02:48 AM 35.4°F1.9°C 36.1°F2.3°C 78% 0.8 mph WSW1.3 kmh WSW 0.8 mph1.3 kmh 29.47 in998.0 mb 0.00 in0.0 mm 0.00 in0.0 mm 0.00 in0.0 mm
02:49 AM 35.4°F1.9°C 36.2°F2.3°C 78% 0.5 mph SW0.8 kmh SW 0.5 mph0.8 kmh 29.47 in998.0 mb 0.00 in0.0 mm 0.00 in0.0 mm 0.00 in0.0 mm
02:51 AM 35.4°F1.9°C 36.0°F2.2°C 78% 4.9 mph W7.9 kmh W 4.9 mph7.9 kmh 29.47 in998.0 mb 0.00 in0.0 mm 0.00 in0.0 mm 0.00 in0.0 mm
02:52 AM 35.4°F1.9°C 35.8°F2.1°C 78% 4.2 mph WNW6.8 kmh WNW 4.2 mph6.8 kmh 29.47 in998.0 mb 0.00 in0.0 mm 0.00 in0.0 mm 0.00 in0.0 mm
02:54 AM 35.6°F2.0°C 36.1°F2.3°C 78% 5.7 mph W9.2 kmh W 5.7 mph9.2 kmh 29.47 in998.0 mb 0.00 in0.0 mm 0.00 in0.0 mm 0.00 in0.0 mm
02:55 AM 35.5°F1.9°C 36.1°F2.3°C 79% 6.1 mph WSW9.8 kmh WSW 6.1 mph9.8 kmh 29.47 in998.0 mb 0.00 in0.0 mm 0.00 in0.0 mm 0.00 in0.0 mm
02:57 AM 35.6°F2.0°C 36.2°F2.3°C 78% 8.3 mph W13.4 kmh W 8.4 mph13.5 kmh 29.47 in998.0 mb 0.00 in0.0 mm 0.00 in0.0 mm 0.00 in0.0 mm
02:58 AM 35.6°F2.0°C 36.2°F2.3°C 78% 6.8 mph W10.9 kmh W 6.8 mph10.9 kmh 29.47 in998.0 mb 0.00 in0.0 mm 0.00 in0.0 mm 0.00 in0.0 mm
03:00 AM 35.5°F1.9°C 36.2°F2.3°C 78% 4.0 mph WNW6.4 kmh WNW 4.0 mph6.4 kmh 29.47 in998.0 mb 0.00 in0.0 mm 0.00 in0.0 mm 0.00 in0.0 mm
03:01 AM 35.5°F1.9°C 36.0°F2.2°C 78% 4.6 mph WNW7.4 kmh WNW 4.6 mph7.4 kmh 29.47 in998.0 mb 0.00 in0.0 mm 0.00 in0.0 mm 0.00 in0.0 mm
03:03 AM 35.5°F1.9°C 36.3°F2.4°C 78% 7.5 mph W12.1 kmh W 7.6 mph12.2 kmh 29.47 in998.0 mb 0.00 in0.0 mm 0.00 in0.0 mm 0.00 in0.0 mm
03:04 AM 35.6°F2.0°C 36.2°F2.3°C 79% 5.8 mph WNW9.3 kmh WNW 5.9 mph9.5 kmh 29.47 in998.0 mb 0.00 in0.0 mm 0.00 in0.0 mm 0.00 in0.0 mm
03:06 AM 35.8°F2.1°C 36.4°F2.4°C 79% 5.3 mph SW8.5 kmh SW 5.3 mph8.5 kmh 29.47 in998.0 mb 0.00 in0.0 mm 0.00 in0.0 mm 0.00 in0.0 mm
03:07 AM 35.8°F2.1°C 35.8°F2.1°C 78% 6.2 mph SW10.0 kmh SW 6.2 mph10.0 kmh 29.47 in998.0 mb 0.00 in0.0 mm 0.00 in0.0 mm 0.00 in0.0 mm
03:09 AM 35.8°F2.1°C 36.2°F2.3°C 79% 2.8 mph SW4.5 kmh SW 2.9 mph4.7 kmh 29.47 in998.0 mb 0.00 in0.0 mm 0.00 in0.0 mm 0.00 in0.0 mm
03:10 AM 35.8°F2.1°C 36.2°F2.3°C 79% 3.3 mph SW5.3 kmh SW 3.3 mph5.3 kmh 29.47 in998.0 mb 0.00 in0.0 mm 0.00 in0.0 mm 0.00 in0.0 mm
03:12 AM 35.7°F2.1°C 36.2°F2.3°C 79% 2.0 mph NNW3.2 kmh NNW 2.0 mph3.2 kmh 29.47 in998.0 mb 0.00 in0.0 mm 0.00 in0.0 mm 0.00 in0.0 mm
03:13 AM 35.7°F2.1°C 36.3°F2.4°C 79% 2.3 mph SW3.7 kmh SW 2.3 mph3.7 kmh 29.47 in998.0 mb 0.00 in0.0 mm 0.00 in0.0 mm 0.00 in0.0 mm
03:15 AM 35.6°F2.0°C 36.1°F2.3°C 79% 3.6 mph SW5.8 kmh SW 3.7 mph6.0 kmh 29.47 in998.0 mb 0.00 in0.0 mm 0.00 in0.0 mm 0.00 in0.0 mm
03:16 AM 35.6°F2.0°C 36.1°F2.3°C 79% 3.5 mph SW5.6 kmh SW 3.7 mph6.0 kmh 29.47 in998.0 mb 0.00 in0.0 mm 0.00 in0.0 mm 0.00 in0.0 mm
03:18 AM 35.5°F1.9°C 36.3°F2.4°C 79% 1.6 mph WSW2.6 kmh WSW 1.6 mph2.6 kmh 29.47 in998.0 mb 0.00 in0.0 mm 0.00 in0.0 mm 0.00 in0.0 mm
03:19 AM 35.5°F1.9°C 36.3°F2.4°C 79% 1.2 mph SW1.9 kmh SW 1.3 mph2.1 kmh 29.47 in998.0 mb 0.00 in0.0 mm 0.00 in0.0 mm 0.00 in0.0 mm
03:21 AM 35.4°F1.9°C 36.5°F2.5°C 79% 1.6 mph SW2.6 kmh SW 1.6 mph2.6 kmh 29.47 in998.0 mb 0.00 in0.0 mm 0.00 in0.0 mm 0.00 in0.0 mm
03:22 AM 35.5°F1.9°C 36.5°F2.5°C 79% 0.7 mph SW1.1 kmh SW 0.7 mph1.1 kmh 29.47 in998.0 mb 0.00 in0.0 mm 0.00 in0.0 mm 0.00 in0.0 mm
03:24 AM 35.5°F1.9°C 36.4°F2.4°C 80% 4.0 mph SW6.4 kmh SW 4.1 mph6.6 kmh 29.47 in998.0 mb 0.00 in0.0 mm 0.00 in0.0 mm 0.00 in0.0 mm
03:25 AM 35.5°F1.9°C 36.2°F2.3°C 79% 3.4 mph SW5.5 kmh SW 3.5 mph5.6 kmh 29.47 in998.0 mb 0.00 in0.0 mm 0.00 in0.0 mm 0.00 in0.0 mm
03:27 AM 35.5°F1.9°C 36.3°F2.4°C 80% 4.8 mph SW7.7 kmh SW 4.8 mph7.7 kmh 29.47 in998.0 mb 0.00 in0.0 mm 0.00 in0.0 mm 0.00 in0.0 mm
03:28 AM 35.5°F1.9°C 36.5°F2.5°C 80% 4.4 mph WSW7.1 kmh WSW 4.4 mph7.1 kmh 29.47 in998.0 mb 0.00 in0.0 mm 0.00 in0.0 mm 0.00 in0.0 mm
03:30 AM 35.5°F1.9°C 36.9°F2.7°C 81% 3.6 mph W5.8 kmh W 3.6 mph5.8 kmh 29.47 in998.0 mb 0.00 in0.0 mm 0.00 in0.0 mm 0.00 in0.0 mm
03:33 AM 35.5°F1.9°C 36.7°F2.6°C 81% 1.6 mph SW2.6 kmh SW 1.6 mph2.6 kmh 29.47 in998.0 mb 0.00 in0.0 mm 0.00 in0.0 mm 0.00 in0.0 mm
03:34 AM 35.5°F1.9°C 36.7°F2.6°C 81% 1.8 mph SW2.9 kmh SW 1.9 mph3.1 kmh 29.47 in998.0 mb 0.00 in0.0 mm 0.00 in0.0 mm 0.00 in0.0 mm
03:36 AM 35.5°F1.9°C 36.9°F2.7°C 81% 4.0 mph WSW6.4 kmh WSW 4.0 mph6.4 kmh 29.47 in998.0 mb 0.00 in0.0 mm 0.00 in0.0 mm 0.00 in0.0 mm
03:37 AM 35.5°F1.9°C 36.8°F2.7°C 81% 3.6 mph SW5.8 kmh SW 3.7 mph6.0 kmh 29.47 in998.0 mb 0.00 in0.0 mm 0.00 in0.0 mm 0.00 in0.0 mm
03:39 AM 35.7°F2.1°C 37.2°F2.9°C 82% 4.5 mph SW7.2 kmh SW 4.5 mph7.2 kmh 29.47 in998.0 mb 0.00 in0.0 mm 0.00 in0.0 mm 0.00 in0.0 mm
03:40 AM 35.7°F2.1°C 37.1°F2.8°C 82% 3.2 mph WSW5.1 kmh WSW 3.2 mph5.1 kmh 29.47 in998.0 mb 0.00 in0.0 mm 0.00 in0.0 mm 0.00 in0.0 mm
03:42 AM 35.7°F2.1°C 37.1°F2.8°C 82% 4.8 mph W7.7 kmh W 4.9 mph7.9 kmh 29.46 in997.6 mb 0.00 in0.0 mm 0.00 in0.0 mm 0.00 in0.0 mm
03:43 AM 35.7°F2.1°C 37.3°F2.9°C 82% 5.4 mph W8.7 kmh W 5.4 mph8.7 kmh 29.46 in997.6 mb 0.00 in0.0 mm 0.00 in0.0 mm 0.00 in0.0 mm
03:45 AM 35.9°F2.2°C 37.3°F2.9°C 82% 4.9 mph SW7.9 kmh SW 4.9 mph7.9 kmh 29.46 in997.6 mb 0.00 in0.0 mm 0.00 in0.0 mm 0.00 in0.0 mm
03:46 AM 35.9°F2.2°C 37.3°F2.9°C 82% 3.9 mph SW6.3 kmh SW 3.9 mph6.3 kmh 29.47 in998.0 mb 0.00 in0.0 mm 0.00 in0.0 mm 0.00 in0.0 mm
03:48 AM 35.9°F2.2°C 36.7°F2.6°C 81% 6.0 mph WNW9.7 kmh WNW 6.1 mph9.8 kmh 29.46 in997.6 mb 0.00 in0.0 mm 0.00 in0.0 mm 0.00 in0.0 mm
03:49 AM 35.9°F2.2°C 37.4°F3.0°C 82% 6.3 mph W10.1 kmh W 6.3 mph10.1 kmh 29.46 in997.6 mb 0.00 in0.0 mm 0.00 in0.0 mm 0.00 in0.0 mm
03:51 AM 35.9°F2.2°C 37.3°F2.9°C 82% 4.0 mph SW6.4 kmh SW 4.0 mph6.4 kmh 29.46 in997.6 mb 0.00 in0.0 mm 0.00 in0.0 mm 0.00 in0.0 mm
03:52 AM 35.9°F2.2°C 37.4°F3.0°C 82% 2.3 mph SW3.7 kmh SW 2.3 mph3.7 kmh 29.46 in997.6 mb 0.00 in0.0 mm 0.00 in0.0 mm 0.00 in0.0 mm
03:54 AM 35.9°F2.2°C 37.2°F2.9°C 82% 4.0 mph NNW6.4 kmh NNW 4.0 mph6.4 kmh 29.46 in997.6 mb 0.00 in0.0 mm 0.00 in0.0 mm 0.00 in0.0 mm
03:55 AM 35.9°F2.2°C 37.4°F3.0°C 82% 2.5 mph NNW4.0 kmh NNW 2.7 mph4.3 kmh 29.46 in997.6 mb 0.00 in0.0 mm 0.00 in0.0 mm 0.00 in0.0 mm
03:57 AM 35.9°F2.2°C 37.3°F2.9°C 82% 2.8 mph W4.5 kmh W 2.9 mph4.7 kmh 29.46 in997.6 mb 0.00 in0.0 mm 0.00 in0.0 mm 0.00 in0.0 mm
03:58 AM 35.9°F2.2°C 37.2°F2.9°C 82% 3.4 mph W5.5 kmh W 3.5 mph5.6 kmh 29.46 in997.6 mb 0.00 in0.0 mm 0.00 in0.0 mm 0.00 in0.0 mm
04:01 AM 36.1°F2.3°C 37.5°F3.1°C 83% 3.6 mph SW5.8 kmh SW 3.6 mph5.8 kmh 29.46 in997.6 mb 0.00 in0.0 mm 0.00 in0.0 mm 0.00 in0.0 mm
04:03 AM 35.9°F2.2°C 37.6°F3.1°C 83% 2.8 mph WSW4.5 kmh WSW 2.8 mph4.5 kmh 29.46 in997.6 mb 0.00 in0.0 mm 0.00 in0.0 mm 0.00 in0.0 mm
04:04 AM 35.9°F2.2°C 37.5°F3.1°C 82% 3.7 mph W6.0 kmh W 3.8 mph6.1 kmh 29.46 in997.6 mb 0.00 in0.0 mm 0.00 in0.0 mm 0.00 in0.0 mm
04:06 AM 35.9°F2.2°C 37.6°F3.1°C 83% 3.6 mph SW5.8 kmh SW 3.7 mph6.0 kmh 29.46 in997.6 mb 0.00 in0.0 mm 0.00 in0.0 mm 0.00 in0.0 mm
04:07 AM 35.9°F2.2°C 37.8°F3.2°C 83% 3.9 mph SW6.3 kmh SW 3.9 mph6.3 kmh 29.46 in997.6 mb 0.00 in0.0 mm 0.00 in0.0 mm 0.00 in0.0 mm
04:09 AM 35.8°F2.1°C 37.7°F3.2°C 83% 6.0 mph SW9.7 kmh SW 6.0 mph9.7 kmh 29.46 in997.6 mb 0.00 in0.0 mm 0.00 in0.0 mm 0.00 in0.0 mm
04:10 AM 35.8°F2.1°C 37.5°F3.1°C 83% 4.9 mph SSW7.9 kmh SSW 4.9 mph7.9 kmh 29.46 in997.6 mb 0.00 in0.0 mm 0.00 in0.0 mm 0.00 in0.0 mm
04:12 AM 35.7°F2.1°C 37.8°F3.2°C 84% 3.2 mph SW5.1 kmh SW 3.3 mph5.3 kmh 29.46 in997.6 mb 0.00 in0.0 mm 0.00 in0.0 mm 0.00 in0.0 mm
04:13 AM 35.8°F2.1°C 37.8°F3.2°C 84% 3.6 mph W5.8 kmh W 3.6 mph5.8 kmh 29.46 in997.6 mb 0.00 in0.0 mm 0.00 in0.0 mm 0.00 in0.0 mm
04:15 AM 35.7°F2.1°C 38.0°F3.3°C 84% 6.5 mph W10.5 kmh W 6.5 mph10.5 kmh 29.46 in997.6 mb 0.00 in0.0 mm 0.00 in0.0 mm 0.00 in0.0 mm
04:16 AM 35.7°F2.1°C 38.0°F3.3°C 84% 9.1 mph WSW14.6 kmh WSW 9.3 mph15.0 kmh 29.46 in997.6 mb 0.00 in0.0 mm 0.00 in0.0 mm 0.00 in0.0 mm
04:18 AM 35.7°F2.1°C 38.0°F3.3°C 84% 0.8 mph NNW1.3 kmh NNW 0.8 mph1.3 kmh 29.46 in997.6 mb 0.00 in0.0 mm 0.00 in0.0 mm 0.00 in0.0 mm
04:19 AM 35.7°F2.1°C 38.0°F3.3°C 84% 0.2 mph W0.3 kmh W 0.2 mph0.3 kmh 29.46 in997.6 mb 0.00 in0.0 mm 0.00 in0.0 mm 0.00 in0.0 mm
04:21 AM 35.7°F2.1°C 37.8°F3.2°C 84% 2.4 mph W3.9 kmh W 2.5 mph4.0 kmh 29.46 in997.6 mb 0.00 in0.0 mm 0.00 in0.0 mm 0.00 in0.0 mm
04:22 AM 35.7°F2.1°C 37.9°F3.3°C 84% 3.7 mph WNW6.0 kmh WNW 3.7 mph6.0 kmh 29.46 in997.6 mb 0.00 in0.0 mm 0.00 in0.0 mm 0.00 in0.0 mm
04:24 AM 35.7°F2.1°C 38.0°F3.3°C 85% 2.4 mph W3.9 kmh W 2.4 mph3.9 kmh 29.46 in997.6 mb 0.00 in0.0 mm 0.00 in0.0 mm 0.00 in0.0 mm
04:25 AM 35.7°F2.1°C 38.0°F3.3°C 85% 2.3 mph SW3.7 kmh SW 2.3 mph3.7 kmh 29.47 in998.0 mb 0.00 in0.0 mm 0.00 in0.0 mm 0.00 in0.0 mm
04:27 AM 35.7°F2.1°C 37.8°F3.2°C 84% 4.8 mph W7.7 kmh W 4.8 mph7.7 kmh 29.47 in998.0 mb 0.00 in0.0 mm 0.00 in0.0 mm 0.00 in0.0 mm
04:28 AM 35.7°F2.1°C 37.8°F3.2°C 84% 5.4 mph W8.7 kmh W 5.5 mph8.9 kmh 29.46 in997.6 mb 0.00 in0.0 mm 0.00 in0.0 mm 0.00 in0.0 mm
04:30 AM 35.7°F2.1°C 37.9°F3.3°C 85% 7.9 mph SW12.7 kmh SW 8.0 mph12.9 kmh 29.46 in997.6 mb 0.00 in0.0 mm 0.00 in0.0 mm 0.00 in0.0 mm
04:31 AM 35.7°F2.1°C 38.2°F3.4°C 85% 8.6 mph SW13.8 kmh SW 8.7 mph14.0 kmh 29.47 in998.0 mb 0.00 in0.0 mm 0.00 in0.0 mm 0.00 in0.0 mm
04:33 AM 35.8°F2.1°C 37.8°F3.2°C 85% 2.8 mph NNW4.5 kmh NNW 2.9 mph4.7 kmh 29.47 in998.0 mb 0.00 in0.0 mm 0.00 in0.0 mm 0.00 in0.0 mm
04:34 AM 35.8°F2.1°C 37.8°F3.2°C 85% 5.5 mph NNW8.9 kmh NNW 5.5 mph8.9 kmh 29.46 in997.6 mb 0.00 in0.0 mm 0.00 in0.0 mm 0.00 in0.0 mm
04:36 AM 35.8°F2.1°C 37.9°F3.3°C 85% 3.2 mph SW5.1 kmh SW 3.3 mph5.3 kmh 29.47 in998.0 mb 0.00 in0.0 mm 0.00 in0.0 mm 0.00 in0.0 mm
04:37 AM 35.8°F2.1°C 37.9°F3.3°C 85% 4.1 mph W6.6 kmh W 4.3 mph6.9 kmh 29.46 in997.6 mb 0.00 in0.0 mm 0.00 in0.0 mm 0.00 in0.0 mm
04:39 AM 35.8°F2.1°C 38.1°F3.4°C 84% 4.8 mph WSW7.7 kmh WSW 4.8 mph7.7 kmh 29.47 in998.0 mb 0.00 in0.0 mm 0.00 in0.0 mm 0.00 in0.0 mm
04:40 AM 35.9°F2.2°C 38.0°F3.3°C 84% 4.7 mph SW7.6 kmh SW 4.7 mph7.6 kmh 29.47 in998.0 mb 0.00 in0.0 mm 0.00 in0.0 mm 0.00 in0.0 mm
04:42 AM 35.9°F2.2°C 37.8°F3.2°C 84% 4.4 mph WSW7.1 kmh WSW 4.5 mph7.2 kmh 29.46 in997.6 mb 0.00 in0.0 mm 0.00 in0.0 mm 0.00 in0.0 mm
04:43 AM 35.9°F2.2°C 38.0°F3.3°C 84% 5.0 mph SW8.0 kmh SW 5.1 mph8.2 kmh 29.46 in997.6 mb 0.00 in0.0 mm 0.00 in0.0 mm 0.00 in0.0 mm
04:45 AM 35.9°F2.2°C 37.9°F3.3°C 84% 3.2 mph WSW5.1 kmh WSW 3.3 mph5.3 kmh 29.46 in997.6 mb 0.00 in0.0 mm 0.00 in0.0 mm 0.00 in0.0 mm
04:46 AM 35.9°F2.2°C 37.6°F3.1°C 84% 5.1 mph SW8.2 kmh SW 5.1 mph8.2 kmh 29.46 in997.6 mb 0.00 in0.0 mm 0.00 in0.0 mm 0.00 in0.0 mm
04:48 AM 36.2°F2.3°C 37.4°F3.0°C 83% 11.3 mph NNW18.2 kmh NNW 11.4 mph18.3 kmh 29.46 in997.6 mb 0.00 in0.0 mm 0.00 in0.0 mm 0.00 in0.0 mm
04:49 AM 36.2°F2.3°C 37.6°F3.1°C 83% 9.4 mph W15.1 kmh W 9.4 mph15.1 kmh 29.46 in997.6 mb 0.00 in0.0 mm 0.00 in0.0 mm 0.00 in0.0 mm
04:51 AM 36.1°F2.3°C 37.9°F3.3°C 84% 11.7 mph NNW18.8 kmh NNW 11.8 mph19.0 kmh 29.46 in997.6 mb 0.00 in0.0 mm 0.00 in0.0 mm 0.00 in0.0 mm
04:52 AM 36.1°F2.3°C 37.9°F3.3°C 84% 7.1 mph NNW11.4 kmh NNW 7.5 mph12.1 kmh 29.46 in997.6 mb 0.00 in0.0 mm 0.00 in0.0 mm 0.00 in0.0 mm
04:54 AM 36.2°F2.3°C 37.5°F3.1°C 83% 4.9 mph SW7.9 kmh SW 4.9 mph7.9 kmh 29.46 in997.6 mb 0.00 in0.0 mm 0.00 in0.0 mm 0.00 in0.0 mm
04:55 AM 36.2°F2.3°C 38.0°F3.3°C 84% 6.4 mph WSW10.3 kmh WSW 6.4 mph10.3 kmh 29.46 in997.6 mb 0.00 in0.0 mm 0.00 in0.0 mm 0.00 in0.0 mm
04:57 AM 36.2°F2.3°C 37.9°F3.3°C 84% 9.2 mph W14.8 kmh W 9.2 mph14.8 kmh 29.46 in997.6 mb 0.00 in0.0 mm 0.00 in0.0 mm 0.00 in0.0 mm
04:58 AM 36.2°F2.3°C 37.8°F3.2°C 83% 8.2 mph W13.2 kmh W 8.5 mph13.7 kmh 29.46 in997.6 mb 0.00 in0.0 mm 0.00 in0.0 mm 0.00 in0.0 mm
05:00 AM 36.4°F2.4°C 37.8°F3.2°C 84% 10.4 mph W16.7 kmh W 10.5 mph16.9 kmh 29.46 in997.6 mb 0.00 in0.0 mm 0.00 in0.0 mm 0.00 in0.0 mm
05:01 AM 36.4°F2.4°C 37.8°F3.2°C 84% 10.8 mph W17.4 kmh W 10.8 mph17.4 kmh 29.46 in997.6 mb 0.00 in0.0 mm 0.00 in0.0 mm 0.00 in0.0 mm
05:03 AM 36.3°F2.4°C 37.8°F3.2°C 84% 6.8 mph W10.9 kmh W 6.8 mph10.9 kmh 29.47 in998.0 mb 0.00 in0.0 mm 0.00 in0.0 mm 0.00 in0.0 mm
05:04 AM 36.4°F2.4°C 37.8°F3.2°C 83% 6.8 mph WSW10.9 kmh WSW 6.8 mph10.9 kmh 29.47 in998.0 mb 0.00 in0.0 mm 0.00 in0.0 mm 0.00 in0.0 mm
05:06 AM 36.4°F2.4°C 37.8°F3.2°C 83% 8.9 mph W14.3 kmh W 9.0 mph14.5 kmh 29.47 in998.0 mb 0.00 in0.0 mm 0.00 in0.0 mm 0.00 in0.0 mm
05:07 AM 36.3°F2.4°C 37.5°F3.1°C 82% 8.2 mph W13.2 kmh W 8.2 mph13.2 kmh 29.46 in997.6 mb 0.00 in0.0 mm 0.00 in0.0 mm 0.00 in0.0 mm
05:09 AM 36.4°F2.4°C 37.8°F3.2°C 83% 4.0 mph SW6.4 kmh SW 4.1 mph6.6 kmh 29.47 in998.0 mb 0.00 in0.0 mm 0.00 in0.0 mm 0.00 in0.0 mm
05:10 AM 36.4°F2.4°C 37.6°F3.1°C 83% 4.1 mph W6.6 kmh W 4.3 mph6.9 kmh 29.47 in998.0 mb 0.00 in0.0 mm 0.00 in0.0 mm 0.00 in0.0 mm
05:12 AM 36.4°F2.4°C 38.0°F3.3°C 84% 10.5 mph NNW16.9 kmh NNW 10.6 mph17.1 kmh 29.47 in998.0 mb 0.00 in0.0 mm 0.00 in0.0 mm 0.00 in0.0 mm
05:13 AM 36.4°F2.4°C 37.7°F3.2°C 83% 7.6 mph WSW12.2 kmh WSW 7.8 mph12.6 kmh 29.47 in998.0 mb 0.00 in0.0 mm 0.00 in0.0 mm 0.00 in0.0 mm
05:15 AM 36.4°F2.4°C 38.0°F3.3°C 83% 7.2 mph SSW11.6 kmh SSW 7.2 mph11.6 kmh 29.47 in998.0 mb 0.00 in0.0 mm 0.00 in0.0 mm 0.00 in0.0 mm
05:16 AM 36.4°F2.4°C 37.8°F3.2°C 83% 8.3 mph W13.4 kmh W 8.3 mph13.4 kmh 29.47 in998.0 mb 0.00 in0.0 mm 0.00 in0.0 mm 0.00 in0.0 mm
05:18 AM 36.5°F2.5°C 38.0°F3.3°C 83% 10.1 mph SW16.3 kmh SW 10.2 mph16.4 kmh 29.47 in998.0 mb 0.00 in0.0 mm 0.00 in0.0 mm 0.00 in0.0 mm
05:19 AM 36.5°F2.5°C 37.8°F3.2°C 83% 8.3 mph WNW13.4 kmh WNW 8.3 mph13.4 kmh 29.47 in998.0 mb 0.00 in0.0 mm 0.00 in0.0 mm 0.00 in0.0 mm
05:21 AM 36.5°F2.5°C 37.5°F3.1°C 82% 6.0 mph W9.7 kmh W 6.0 mph9.7 kmh 29.47 in998.0 mb 0.00 in0.0 mm 0.00 in0.0 mm 0.00 in0.0 mm
05:22 AM 36.5°F2.5°C 38.0°F3.3°C 83% 4.6 mph W7.4 kmh W 4.9 mph7.9 kmh 29.47 in998.0 mb 0.00 in0.0 mm 0.00 in0.0 mm 0.00 in0.0 mm
05:24 AM 36.5°F2.5°C 37.9°F3.3°C 83% 7.3 mph W11.7 kmh W 7.3 mph11.7 kmh 29.48 in998.3 mb 0.00 in0.0 mm 0.00 in0.0 mm 0.00 in0.0 mm
05:25 AM 36.5°F2.5°C 37.9°F3.3°C 83% 5.9 mph W9.5 kmh W 6.2 mph10.0 kmh 29.48 in998.3 mb 0.00 in0.0 mm 0.00 in0.0 mm 0.00 in0.0 mm
05:27 AM 36.6°F2.6°C 37.9°F3.3°C 83% 12.5 mph W20.1 kmh W 12.6 mph20.3 kmh 29.48 in998.3 mb 0.00 in0.0 mm 0.00 in0.0 mm 0.00 in0.0 mm
05:28 AM 36.6°F2.6°C 38.0°F3.3°C 83% 12.4 mph W20.0 kmh W 12.4 mph20.0 kmh 29.48 in998.3 mb 0.00 in0.0 mm 0.00 in0.0 mm 0.00 in0.0 mm
05:30 AM 36.6°F2.6°C 37.9°F3.3°C 83% 3.6 mph SW5.8 kmh SW 3.7 mph6.0 kmh 29.48 in998.3 mb 0.00 in0.0 mm 0.00 in0.0 mm 0.00 in0.0 mm
05:31 AM 36.6°F2.6°C 38.0°F3.3°C 83% 4.4 mph SW7.1 kmh SW 4.4 mph7.1 kmh 29.48 in998.3 mb 0.00 in0.0 mm 0.00 in0.0 mm 0.00 in0.0 mm
05:33 AM 36.7°F2.6°C 37.7°F3.2°C 83% 5.7 mph WSW9.2 kmh WSW 5.7 mph9.2 kmh 29.48 in998.3 mb 0.00 in0.0 mm 0.00 in0.0 mm 0.00 in0.0 mm
05:34 AM 36.7°F2.6°C 37.8°F3.2°C 83% 7.3 mph WSW11.7 kmh WSW 7.4 mph11.9 kmh 29.48 in998.3 mb 0.00 in0.0 mm 0.00 in0.0 mm 0.00 in0.0 mm
05:36 AM 36.7°F2.6°C 37.9°F3.3°C 83% 5.2 mph WSW8.4 kmh WSW 5.2 mph8.4 kmh 29.48 in998.3 mb 0.00 in0.0 mm 0.00 in0.0 mm 0.00 in0.0 mm
05:37 AM 36.6°F2.6°C 38.0°F3.3°C 83% 4.3 mph WSW6.9 kmh WSW 4.5 mph7.2 kmh 29.49 in998.6 mb 0.00 in0.0 mm 0.00 in0.0 mm 0.00 in0.0 mm
05:39 AM 36.7°F2.6°C 37.8°F3.2°C 83% 10.1 mph W16.3 kmh W 10.2 mph16.4 kmh 29.49 in998.6 mb 0.00 in0.0 mm 0.00 in0.0 mm 0.00 in0.0 mm
05:40 AM 36.7°F2.6°C 38.0°F3.3°C 83% 10.5 mph W16.9 kmh W 10.5 mph16.9 kmh 29.49 in998.6 mb 0.00 in0.0 mm 0.00 in0.0 mm 0.00 in0.0 mm
05:42 AM 36.7°F2.6°C 38.0°F3.3°C 83% 11.1 mph W17.9 kmh W 11.1 mph17.9 kmh 29.48 in998.3 mb 0.00 in0.0 mm 0.00 in0.0 mm 0.00 in0.0 mm
05:43 AM 36.7°F2.6°C 38.1°F3.4°C 83% 10.5 mph WNW16.9 kmh WNW 10.7 mph17.2 kmh 29.49 in998.6 mb 0.00 in0.0 mm 0.00 in0.0 mm 0.00 in0.0 mm
05:45 AM 36.7°F2.6°C 38.0°F3.3°C 83% 7.9 mph NW12.7 kmh NW 8.0 mph12.9 kmh 29.49 in998.6 mb 0.00 in0.0 mm 0.00 in0.0 mm 0.00 in0.0 mm
05:46 AM 36.7°F2.6°C 38.1°F3.4°C 83% 10.9 mph W17.5 kmh W 11.1 mph17.9 kmh 29.49 in998.6 mb 0.00 in0.0 mm 0.00 in0.0 mm 0.00 in0.0 mm
05:48 AM 36.7°F2.6°C 38.1°F3.4°C 83% 3.2 mph WNW5.1 kmh WNW 3.3 mph5.3 kmh 29.49 in998.6 mb 0.00 in0.0 mm 0.00 in0.0 mm 0.00 in0.0 mm
05:49 AM 36.7°F2.6°C 38.1°F3.4°C 83% 6.0 mph W9.7 kmh W 6.0 mph9.7 kmh 29.49 in998.6 mb 0.00 in0.0 mm 0.00 in0.0 mm 0.00 in0.0 mm
05:51 AM 36.8°F2.7°C 37.9°F3.3°C 83% 11.3 mph WSW18.2 kmh WSW 11.4 mph18.3 kmh 29.49 in998.6 mb 0.00 in0.0 mm 0.00 in0.0 mm 0.00 in0.0 mm
05:52 AM 36.8°F2.7°C 37.8°F3.2°C 83% 11.6 mph WSW18.7 kmh WSW 11.9 mph19.2 kmh 29.49 in998.6 mb 0.00 in0.0 mm 0.00 in0.0 mm 0.00 in0.0 mm
05:54 AM 36.8°F2.7°C 38.0°F3.3°C 83% 8.9 mph W14.3 kmh W 8.9 mph14.3 kmh 29.49 in998.6 mb 0.00 in0.0 mm 0.00 in0.0 mm 0.00 in0.0 mm
05:55 AM 36.8°F2.7°C 37.9°F3.3°C 83% 9.3 mph W15.0 kmh W 9.3 mph15.0 kmh 29.49 in998.6 mb 0.00 in0.0 mm 0.00 in0.0 mm 0.00 in0.0 mm
05:57 AM 36.8°F2.7°C 38.0°F3.3°C 83% 7.4 mph W11.9 kmh W 7.4 mph11.9 kmh 29.49 in998.6 mb 0.00 in0.0 mm 0.00 in0.0 mm 0.00 in0.0 mm
05:58 AM 36.8°F2.7°C 38.1°F3.4°C 83% 7.6 mph W12.2 kmh W 7.6 mph12.2 kmh 29.49 in998.6 mb 0.00 in0.0 mm 0.00 in0.0 mm 0.00 in0.0 mm
06:00 AM 36.8°F2.7°C 38.1°F3.4°C 83% 7.3 mph NNW11.7 kmh NNW 7.3 mph11.7 kmh 29.49 in998.6 mb 0.00 in0.0 mm 0.00 in0.0 mm 0.00 in0.0 mm
06:01 AM 36.8°F2.7°C 38.1°F3.4°C 83% 9.6 mph NNW15.4 kmh NNW 9.6 mph15.4 kmh 29.49 in998.6 mb 0.00 in0.0 mm 0.00 in0.0 mm 0.00 in0.0 mm
06:03 AM 36.8°F2.7°C 38.2°F3.4°C 83% 5.2 mph NNW8.4 kmh NNW 5.2 mph8.4 kmh 29.49 in998.6 mb 0.00 in0.0 mm 0.00 in0.0 mm 0.00 in0.0 mm
06:04 AM 37.0°F2.8°C 38.3°F3.5°C 83% 6.8 mph W10.9 kmh W 6.8 mph10.9 kmh 29.49 in998.6 mb 0.00 in0.0 mm 0.00 in0.0 mm 0.00 in0.0 mm
06:07 AM 36.8°F2.7°C 38.3°F3.5°C 83% 4.3 mph NNW6.9 kmh NNW 4.3 mph6.9 kmh 29.49 in998.6 mb 0.00 in0.0 mm 0.00 in0.0 mm 0.00 in0.0 mm
06:09 AM 37.0°F2.8°C 38.1°F3.4°C 83% 3.6 mph WSW5.8 kmh WSW 3.7 mph6.0 kmh 29.49 in998.6 mb 0.00 in0.0 mm 0.00 in0.0 mm 0.00 in0.0 mm
06:10 AM 36.8°F2.7°C 38.0°F3.3°C 82% 3.7 mph WSW6.0 kmh WSW 3.7 mph6.0 kmh 29.49 in998.6 mb 0.00 in0.0 mm 0.00 in0.0 mm 0.00 in0.0 mm
06:12 AM 37.0°F2.8°C 38.1°F3.4°C 83% 8.9 mph WSW14.3 kmh WSW 9.0 mph14.5 kmh 29.49 in998.6 mb 0.00 in0.0 mm 0.00 in0.0 mm 0.00 in0.0 mm
06:13 AM 37.0°F2.8°C 38.1°F3.4°C 83% 9.9 mph WSW15.9 kmh WSW 10.1 mph16.3 kmh 29.49 in998.6 mb 0.00 in0.0 mm 0.00 in0.0 mm 0.00 in0.0 mm
06:15 AM 37.0°F2.8°C 38.1°F3.4°C 83% 2.8 mph NNW4.5 kmh NNW 2.9 mph4.7 kmh 29.49 in998.6 mb 0.00 in0.0 mm 0.00 in0.0 mm 0.00 in0.0 mm
06:16 AM 37.0°F2.8°C 38.0°F3.3°C 83% 2.2 mph WNW3.5 kmh WNW 2.3 mph3.7 kmh 29.49 in998.6 mb 0.00 in0.0 mm 0.00 in0.0 mm 0.00 in0.0 mm
06:18 AM 37.0°F2.8°C 38.1°F3.4°C 83% 4.5 mph WSW7.2 kmh WSW 4.5 mph7.2 kmh 29.49 in998.6 mb 0.00 in0.0 mm 0.00 in0.0 mm 0.00 in0.0 mm
06:19 AM 37.0°F2.8°C 38.3°F3.5°C 83% 3.9 mph W6.3 kmh W 4.1 mph6.6 kmh 29.49 in998.6 mb 0.00 in0.0 mm 0.00 in0.0 mm 0.00 in0.0 mm
06:21 AM 37.0°F2.8°C 38.2°F3.4°C 83% 2.8 mph NNW4.5 kmh NNW 2.8 mph4.5 kmh 29.49 in998.6 mb 0.00 in0.0 mm 0.00 in0.0 mm 0.00 in0.0 mm
06:22 AM 37.0°F2.8°C 38.0°F3.3°C 82% 2.7 mph W4.3 kmh W 2.7 mph4.3 kmh 29.49 in998.6 mb 0.00 in0.0 mm 0.00 in0.0 mm 0.00 in0.0 mm
06:24 AM 37.0°F2.8°C 38.1°F3.4°C 82% 4.8 mph W7.7 kmh W 4.9 mph7.9 kmh 29.49 in998.6 mb 0.00 in0.0 mm 0.00 in0.0 mm 0.00 in0.0 mm
06:25 AM 37.1°F2.8°C 38.1°F3.4°C 83% 4.9 mph SW7.9 kmh SW 5.1 mph8.2 kmh 29.49 in998.6 mb 0.00 in0.0 mm 0.00 in0.0 mm 0.00 in0.0 mm
06:27 AM 37.0°F2.8°C 38.1°F3.4°C 83% 4.0 mph WNW6.4 kmh WNW 4.0 mph6.4 kmh 29.49 in998.6 mb 0.00 in0.0 mm 0.00 in0.0 mm 0.00 in0.0 mm
06:28 AM 37.0°F2.8°C 38.1°F3.4°C 83% 4.4 mph W7.1 kmh W 4.4 mph7.1 kmh 29.49 in998.6 mb 0.00 in0.0 mm 0.00 in0.0 mm 0.00 in0.0 mm
06:30 AM 37.0°F2.8°C 38.1°F3.4°C 83% 7.7 mph NW12.4 kmh NW 7.7 mph12.4 kmh 29.49 in998.6 mb 0.00 in0.0 mm 0.00 in0.0 mm 0.00 in0.0 mm
06:31 AM 37.0°F2.8°C 38.4°F3.6°C 83% 4.9 mph NNW7.9 kmh NNW 5.0 mph8.0 kmh 29.49 in998.6 mb 0.00 in0.0 mm 0.00 in0.0 mm 0.00 in0.0 mm
06:33 AM 37.0°F2.8°C 38.2°F3.4°C 82% 8.9 mph W14.3 kmh W 9.0 mph14.5 kmh 29.49 in998.6 mb 0.00 in0.0 mm 0.00 in0.0 mm 0.00 in0.0 mm
06:34 AM 37.0°F2.8°C 38.3°F3.5°C 83% 8.0 mph W12.9 kmh W 8.2 mph13.2 kmh 29.49 in998.6 mb 0.00 in0.0 mm 0.00 in0.0 mm 0.00 in0.0 mm
06:36 AM 37.0°F2.8°C 38.2°F3.4°C 83% 3.6 mph W5.8 kmh W 3.7 mph6.0 kmh 29.49 in998.6 mb 0.00 in0.0 mm 0.00 in0.0 mm 0.00 in0.0 mm
06:37 AM 37.0°F2.8°C 38.3°F3.5°C 83% 3.4 mph WNW5.5 kmh WNW 3.5 mph5.6 kmh 29.49 in998.6 mb 0.00 in0.0 mm 0.00 in0.0 mm 0.00 in0.0 mm
06:39 AM 36.8°F2.7°C 38.5°F3.6°C 83% 6.5 mph W10.5 kmh W 6.5 mph10.5 kmh 29.50 in999.0 mb 0.00 in0.0 mm 0.00 in0.0 mm 0.00 in0.0 mm
06:40 AM 36.8°F2.7°C 38.4°F3.6°C 83% 8.9 mph W14.3 kmh W 8.9 mph14.3 kmh 29.49 in998.6 mb 0.00 in0.0 mm 0.00 in0.0 mm 0.00 in0.0 mm
06:42 AM 37.0°F2.8°C 38.4°F3.6°C 83% 5.6 mph WNW9.0 kmh WNW 5.6 mph9.0 kmh 29.49 in998.6 mb 0.00 in0.0 mm 0.00 in0.0 mm 0.00 in0.0 mm
06:43 AM 37.0°F2.8°C 38.4°F3.6°C 83% 8.3 mph WNW13.4 kmh WNW 8.3 mph13.4 kmh 29.49 in998.6 mb 0.00 in0.0 mm 0.00 in0.0 mm 0.00 in0.0 mm
06:45 AM 37.0°F2.8°C 38.5°F3.6°C 83% 4.4 mph W7.1 kmh W 4.4 mph7.1 kmh 29.49 in998.6 mb 0.00 in0.0 mm 0.00 in0.0 mm 0.00 in0.0 mm
06:46 AM 37.0°F2.8°C 38.5°F3.6°C 83% 6.0 mph W9.7 kmh W 6.0 mph9.7 kmh 29.50 in999.0 mb 0.00 in0.0 mm 0.00 in0.0 mm 0.00 in0.0 mm
06:48 AM 37.1°F2.8°C 38.3°F3.5°C 83% 5.5 mph NNW8.9 kmh NNW 5.6 mph9.0 kmh 29.50 in999.0 mb 0.00 in0.0 mm 0.00 in0.0 mm 0.00 in0.0 mm
06:49 AM 37.1°F2.8°C 38.1°F3.4°C 83% 8.2 mph W13.2 kmh W 8.2 mph13.2 kmh 29.50 in999.0 mb 0.00 in0.0 mm 0.00 in0.0 mm 0.00 in0.0 mm
06:51 AM 37.1°F2.8°C 38.3°F3.5°C 83% 5.2 mph W8.4 kmh W 5.3 mph8.5 kmh 29.50 in999.0 mb 0.00 in0.0 mm 0.00 in0.0 mm 0.00 in0.0 mm
06:52 AM 37.1°F2.8°C 38.0°F3.3°C 83% 5.6 mph W9.0 kmh W 5.6 mph9.0 kmh 29.50 in999.0 mb 0.00 in0.0 mm 0.00 in0.0 mm 0.00 in0.0 mm
06:54 AM 37.1°F2.8°C 38.4°F3.6°C 83% 6.5 mph W10.5 kmh W 6.5 mph10.5 kmh 29.50 in999.0 mb 0.00 in0.0 mm 0.00 in0.0 mm 0.00 in0.0 mm
06:55 AM 37.1°F2.8°C 38.3°F3.5°C 83% 6.4 mph W10.3 kmh W 6.4 mph10.3 kmh 29.50 in999.0 mb 0.00 in0.0 mm 0.00 in0.0 mm 0.00 in0.0 mm
06:57 AM 37.1°F2.8°C 38.4°F3.6°C 83% 8.4 mph W13.5 kmh W 8.4 mph13.5 kmh 29.50 in999.0 mb 0.00 in0.0 mm 0.00 in0.0 mm 0.00 in0.0 mm
06:58 AM 37.1°F2.8°C 38.3°F3.5°C 83% 8.6 mph WSW13.8 kmh WSW 8.7 mph14.0 kmh 29.50 in999.0 mb 0.00 in0.0 mm 0.00 in0.0 mm 0.00 in0.0 mm
07:00 AM 37.1°F2.8°C 38.3°F3.5°C 83% 8.5 mph WNW13.7 kmh WNW 8.5 mph13.7 kmh 29.50 in999.0 mb 0.00 in0.0 mm 0.00 in0.0 mm 0.00 in0.0 mm
07:01 AM 37.1°F2.8°C 38.2°F3.4°C 82% 10.1 mph W16.3 kmh W 10.1 mph16.3 kmh 29.50 in999.0 mb 0.00 in0.0 mm 0.00 in0.0 mm 0.00 in0.0 mm
07:03 AM 37.1°F2.8°C 38.5°F3.6°C 83% 8.0 mph W12.9 kmh W 8.0 mph12.9 kmh 29.50 in999.0 mb 0.00 in0.0 mm 0.00 in0.0 mm 0.00 in0.0 mm
07:04 AM 37.1°F2.8°C 38.1°F3.4°C 82% 7.8 mph SW12.6 kmh SW 7.8 mph12.6 kmh 29.50 in999.0 mb 0.00 in0.0 mm 0.00 in0.0 mm 0.00 in0.0 mm
07:06 AM 37.2°F2.9°C 38.5°F3.6°C 83% 11.3 mph W18.2 kmh W 11.4 mph18.3 kmh 29.50 in999.0 mb 0.00 in0.0 mm 0.00 in0.0 mm 0.00 in0.0 mm
07:07 AM 37.1°F2.8°C 38.4°F3.6°C 83% 6.6 mph W10.6 kmh W 6.6 mph10.6 kmh 29.50 in999.0 mb 0.00 in0.0 mm 0.00 in0.0 mm 0.00 in0.0 mm
07:09 AM 37.1°F2.8°C 38.5°F3.6°C 83% 9.7 mph W15.6 kmh W 9.8 mph15.8 kmh 29.50 in999.0 mb 0.00 in0.0 mm 0.00 in0.0 mm 0.00 in0.0 mm
07:10 AM 37.1°F2.8°C 38.5°F3.6°C 83% 7.9 mph W12.7 kmh W 8.2 mph13.2 kmh 29.50 in999.0 mb 0.00 in0.0 mm 0.00 in0.0 mm 0.00 in0.0 mm
07:12 AM 37.1°F2.8°C 38.5°F3.6°C 83% 6.1 mph WSW9.8 kmh WSW 6.1 mph9.8 kmh 29.50 in999.0 mb 0.00 in0.0 mm 0.00 in0.0 mm 0.00 in0.0 mm
07:13 AM 37.1°F2.8°C 38.6°F3.7°C 84% 6.5 mph WSW10.5 kmh WSW 6.7 mph10.8 kmh 29.50 in999.0 mb 0.00 in0.0 mm 0.00 in0.0 mm 0.00 in0.0 mm
07:15 AM 37.0°F2.8°C 38.3°F3.5°C 82% 4.4 mph W7.1 kmh W 4.4 mph7.1 kmh 29.50 in999.0 mb 0.00 in0.0 mm 0.00 in0.0 mm 0.00 in0.0 mm
07:16 AM 37.1°F2.8°C 38.8°F3.8°C 83% 8.7 mph W14.0 kmh W 8.8 mph14.2 kmh 29.50 in999.0 mb 0.00 in0.0 mm 0.00 in0.0 mm 0.00 in0.0 mm
07:18 AM 37.1°F2.8°C 38.9°F3.8°C 84% 5.3 mph WSW8.5 kmh WSW 5.3 mph8.5 kmh 29.50 in999.0 mb 0.00 in0.0 mm 0.00 in0.0 mm 0.00 in0.0 mm
07:19 AM 37.1°F2.8°C 38.7°F3.7°C 83% 5.7 mph W9.2 kmh W 5.7 mph9.2 kmh 29.50 in999.0 mb 0.00 in0.0 mm 0.00 in0.0 mm 0.00 in0.0 mm
07:21 AM 37.1°F2.8°C 38.7°F3.7°C 84% 6.9 mph WSW11.1 kmh WSW 6.9 mph11.1 kmh 29.50 in999.0 mb 0.00 in0.0 mm 0.00 in0.0 mm 0.00 in0.0 mm
07:22 AM 37.1°F2.8°C 38.5°F3.6°C 84% 8.8 mph WNW14.2 kmh WNW 8.8 mph14.2 kmh 29.50 in999.0 mb 0.00 in0.0 mm 0.00 in0.0 mm 0.00 in0.0 mm
07:24 AM 37.1°F2.8°C 38.6°F3.7°C 84% 6.8 mph NNW10.9 kmh NNW 6.8 mph10.9 kmh 29.50 in999.0 mb 0.00 in0.0 mm 0.00 in0.0 mm 0.00 in0.0 mm
07:25 AM 37.1°F2.8°C 38.6°F3.7°C 84% 6.0 mph NW9.7 kmh NW 6.0 mph9.7 kmh 29.50 in999.0 mb 0.00 in0.0 mm 0.00 in0.0 mm 0.00 in0.0 mm
07:27 AM 37.1°F2.8°C 38.7°F3.7°C 84% 4.8 mph W7.7 kmh W 4.8 mph7.7 kmh 29.50 in999.0 mb 0.00 in0.0 mm 0.00 in0.0 mm 0.00 in0.0 mm
07:28 AM 37.1°F2.8°C 38.8°F3.8°C 84% 6.1 mph W9.8 kmh W 6.1 mph9.8 kmh 29.50 in999.0 mb 0.00 in0.0 mm 0.00 in0.0 mm 0.00 in0.0 mm
07:30 AM 37.1°F2.8°C 38.8°F3.8°C 84% 8.5 mph WSW13.7 kmh WSW 8.6 mph13.8 kmh 29.50 in999.0 mb 0.00 in0.0 mm 0.00 in0.0 mm 0.00 in0.0 mm
07:31 AM 37.1°F2.8°C 38.9°F3.8°C 84% 4.7 mph W7.6 kmh W 4.7 mph7.6 kmh 29.50 in999.0 mb 0.00 in0.0 mm 0.00 in0.0 mm 0.00 in0.0 mm
07:33 AM 37.1°F2.8°C 38.7°F3.7°C 84% 7.6 mph W12.2 kmh W 7.6 mph12.2 kmh 29.50 in999.0 mb 0.00 in0.0 mm 0.00 in0.0 mm 0.00 in0.0 mm
07:34 AM 37.1°F2.8°C 38.7°F3.7°C 84% 6.0 mph W9.7 kmh W 6.0 mph9.7 kmh 29.51 in999.3 mb 0.00 in0.0 mm 0.00 in0.0 mm 0.00 in0.0 mm
07:36 AM 37.2°F2.9°C 38.5°F3.6°C 84% 10.9 mph W17.5 kmh W 11.0 mph17.7 kmh 29.50 in999.0 mb 0.00 in0.0 mm 0.00 in0.0 mm 0.00 in0.0 mm
07:37 AM 37.2°F2.9°C 39.0°F3.9°C 84% 10.5 mph WSW16.9 kmh WSW 10.5 mph16.9 kmh 29.50 in999.0 mb 0.00 in0.0 mm 0.00 in0.0 mm 0.00 in0.0 mm
07:39 AM 37.2°F2.9°C 38.7°F3.7°C 84% 6.5 mph WSW10.5 kmh WSW 6.5 mph10.5 kmh 29.51 in999.3 mb 0.00 in0.0 mm 0.00 in0.0 mm 0.00 in0.0 mm
07:40 AM 37.2°F2.9°C 38.7°F3.7°C 84% 10.7 mph NW17.2 kmh NW 10.9 mph17.5 kmh 29.51 in999.3 mb 0.00 in0.0 mm 0.00 in0.0 mm 0.00 in0.0 mm
07:42 AM 37.2°F2.9°C 38.7°F3.7°C 84% 7.3 mph W11.7 kmh W 7.3 mph11.7 kmh 29.51 in999.3 mb 0.00 in0.0 mm 0.00 in0.0 mm 0.00 in0.0 mm
07:43 AM 37.2°F2.9°C 38.9°F3.8°C 84% 6.0 mph W9.7 kmh W 6.0 mph9.7 kmh 29.51 in999.3 mb 0.00 in0.0 mm 0.00 in0.0 mm 0.00 in0.0 mm
07:45 AM 37.2°F2.9°C 38.9°F3.8°C 84% 5.2 mph W8.4 kmh W 5.3 mph8.5 kmh 29.50 in999.0 mb 0.00 in0.0 mm 0.00 in0.0 mm 0.00 in0.0 mm
07:46 AM 37.2°F2.9°C 38.7°F3.7°C 84% 4.0 mph W6.4 kmh W 4.0 mph6.4 kmh 29.51 in999.3 mb 0.00 in0.0 mm 0.00 in0.0 mm 0.00 in0.0 mm
07:49 AM 37.1°F2.8°C 38.8°F3.8°C 84% 5.9 mph WSW9.5 kmh WSW 6.0 mph9.7 kmh 29.52 in999.7 mb 0.00 in0.0 mm 0.00 in0.0 mm 0.00 in0.0 mm
07:51 AM 37.2°F2.9°C 39.1°F3.9°C 84% 4.0 mph WNW6.4 kmh WNW 4.0 mph6.4 kmh 29.51 in999.3 mb 0.00 in0.0 mm 0.00 in0.0 mm 0.00 in0.0 mm
07:52 AM 37.2°F2.9°C 39.0°F3.9°C 84% 6.1 mph NNW9.8 kmh NNW 6.1 mph9.8 kmh 29.51 in999.3 mb 0.00 in0.0 mm 0.00 in0.0 mm 0.00 in0.0 mm
07:54 AM 37.2°F2.9°C 38.9°F3.8°C 84% 7.2 mph W11.6 kmh W 7.2 mph11.6 kmh 29.51 in999.3 mb 0.00 in0.0 mm 0.00 in0.0 mm 0.00 in0.0 mm
07:55 AM 37.2°F2.9°C 39.1°F3.9°C 84% 6.8 mph W10.9 kmh W 6.8 mph10.9 kmh 29.52 in999.7 mb 0.00 in0.0 mm 0.00 in0.0 mm 0.00 in0.0 mm
07:57 AM 37.1°F2.8°C 38.8°F3.8°C 84% 6.7 mph WSW10.8 kmh WSW 6.7 mph10.8 kmh 29.52 in999.7 mb 0.00 in0.0 mm 0.00 in0.0 mm 0.00 in0.0 mm
07:58 AM 37.2°F2.9°C 38.8°F3.8°C 84% 4.4 mph WSW7.1 kmh WSW 4.4 mph7.1 kmh 29.52 in999.7 mb 0.00 in0.0 mm 0.00 in0.0 mm 0.00 in0.0 mm
08:00 AM 37.1°F2.8°C 38.8°F3.8°C 84% 5.3 mph W8.5 kmh W 5.3 mph8.5 kmh 29.52 in999.7 mb 0.00 in0.0 mm 0.00 in0.0 mm 0.00 in0.0 mm
08:01 AM 37.2°F2.9°C 39.1°F3.9°C 84% 5.1 mph W8.2 kmh W 5.2 mph8.4 kmh 29.52 in999.7 mb 0.00 in0.0 mm 0.00 in0.0 mm 0.00 in0.0 mm
08:03 AM 37.2°F2.9°C 38.8°F3.8°C 84% 4.4 mph NNW7.1 kmh NNW 4.4 mph7.1 kmh 29.52 in999.7 mb 0.00 in0.0 mm 0.00 in0.0 mm 0.00 in0.0 mm
08:04 AM 37.2°F2.9°C 38.9°F3.8°C 84% 4.1 mph WSW6.6 kmh WSW 4.1 mph6.6 kmh 29.52 in999.7 mb 0.00 in0.0 mm 0.00 in0.0 mm 0.00 in0.0 mm
08:06 AM 37.2°F2.9°C 38.9°F3.8°C 84% 4.9 mph WSW7.9 kmh WSW 4.9 mph7.9 kmh 29.52 in999.7 mb 0.00 in0.0 mm 0.00 in0.0 mm 0.00 in0.0 mm
08:07 AM 37.2°F2.9°C 38.9°F3.8°C 84% 4.7 mph W7.6 kmh W 4.7 mph7.6 kmh 29.52 in999.7 mb 0.00 in0.0 mm 0.00 in0.0 mm 0.00 in0.0 mm
08:09 AM 37.2°F2.9°C 39.0°F3.9°C 84% 7.3 mph W11.7 kmh W 7.3 mph11.7 kmh 29.52 in999.7 mb 0.00 in0.0 mm 0.00 in0.0 mm 0.00 in0.0 mm
08:10 AM 37.3°F2.9°C 39.1°F3.9°C 84% 6.0 mph W9.7 kmh W 6.0 mph9.7 kmh 29.52 in999.7 mb 0.00 in0.0 mm 0.00 in0.0 mm 0.00 in0.0 mm
08:12 AM 37.2°F2.9°C 39.1°F3.9°C 84% 7.6 mph WNW12.2 kmh WNW 7.6 mph12.2 kmh 29.52 in999.7 mb 0.00 in0.0 mm 0.00 in0.0 mm 0.00 in0.0 mm
08:13 AM 37.2°F2.9°C 39.0°F3.9°C 84% 6.5 mph WSW10.5 kmh WSW 6.5 mph10.5 kmh 29.52 in999.7 mb 0.00 in0.0 mm 0.00 in0.0 mm 0.00 in0.0 mm
08:15 AM 37.3°F2.9°C 39.0°F3.9°C 84% 7.7 mph W12.4 kmh W 7.7 mph12.4 kmh 29.52 in999.7 mb 0.00 in0.0 mm 0.00 in0.0 mm 0.00 in0.0 mm
08:16 AM 37.3°F2.9°C 38.9°F3.8°C 84% 9.1 mph WSW14.6 kmh WSW 9.1 mph14.6 kmh 29.52 in999.7 mb 0.00 in0.0 mm 0.00 in0.0 mm 0.00 in0.0 mm
08:18 AM 37.3°F2.9°C 38.8°F3.8°C 84% 4.8 mph W7.7 kmh W 4.9 mph7.9 kmh 29.52 in999.7 mb 0.00 in0.0 mm 0.00 in0.0 mm 0.00 in0.0 mm
08:19 AM 37.3°F2.9°C 39.1°F3.9°C 84% 4.9 mph W7.9 kmh W 4.9 mph7.9 kmh 29.52 in999.7 mb 0.00 in0.0 mm 0.00 in0.0 mm 0.00 in0.0 mm
08:21 AM 37.3°F2.9°C 39.0°F3.9°C 84% 5.6 mph NW9.0 kmh NW 5.6 mph9.0 kmh 29.52 in999.7 mb 0.00 in0.0 mm 0.00 in0.0 mm 0.00 in0.0 mm
08:22 AM 37.4°F3.0°C 39.1°F3.9°C 84% 6.3 mph WNW10.1 kmh WNW 6.3 mph10.1 kmh 29.52 in999.7 mb 0.00 in0.0 mm 0.00 in0.0 mm 0.00 in0.0 mm
08:24 AM 37.4°F3.0°C 39.1°F3.9°C 84% 4.5 mph W7.2 kmh W 4.5 mph7.2 kmh 29.52 in999.7 mb 0.00 in0.0 mm 0.00 in0.0 mm 0.00 in0.0 mm
08:25 AM 37.4°F3.0°C 39.1°F3.9°C 84% 3.3 mph W5.3 kmh W 3.3 mph5.3 kmh 29.53 in1000.0 mb 0.00 in0.0 mm 0.00 in0.0 mm 0.00 in0.0 mm
08:27 AM 37.5°F3.1°C 39.0°F3.9°C 84% 1.2 mph NE1.9 kmh NE 1.2 mph1.9 kmh 29.53 in1000.0 mb 0.00 in0.0 mm 0.00 in0.0 mm 0.00 in0.0 mm
08:28 AM 37.5°F3.1°C 39.3°F4.1°C 84% 3.7 mph NE6.0 kmh NE 3.7 mph6.0 kmh 29.52 in999.7 mb 0.00 in0.0 mm 0.00 in0.0 mm 0.00 in0.0 mm
08:30 AM 37.6°F3.1°C 39.4°F4.1°C 84% 3.6 mph W5.8 kmh W 3.7 mph6.0 kmh 29.53 in1000.0 mb 0.00 in0.0 mm 0.00 in0.0 mm 0.00 in0.0 mm
08:31 AM 37.6°F3.1°C 39.1°F3.9°C 85% 4.6 mph SW7.4 kmh SW 4.6 mph7.4 kmh 29.53 in1000.0 mb 0.00 in0.0 mm 0.00 in0.0 mm 0.00 in0.0 mm
08:33 AM 37.7°F3.2°C 39.3°F4.1°C 84% 5.6 mph NNW9.0 kmh NNW 5.6 mph9.0 kmh 29.52 in999.7 mb 0.00 in0.0 mm 0.00 in0.0 mm 0.00 in0.0 mm
08:34 AM 37.7°F3.2°C 39.3°F4.1°C 85% 6.5 mph WSW10.5 kmh WSW 6.5 mph10.5 kmh 29.52 in999.7 mb 0.00 in0.0 mm 0.00 in0.0 mm 0.00 in0.0 mm
08:36 AM 37.6°F3.1°C 39.2°F4.0°C 84% 4.8 mph WSW7.7 kmh WSW 4.8 mph7.7 kmh 29.53 in1000.0 mb 0.00 in0.0 mm 0.00 in0.0 mm 0.00 in0.0 mm
08:37 AM 37.7°F3.2°C 39.1°F3.9°C 84% 3.7 mph WSW6.0 kmh WSW 3.8 mph6.1 kmh 29.53 in1000.0 mb 0.00 in0.0 mm 0.00 in0.0 mm 0.00 in0.0 mm
08:39 AM 37.7°F3.2°C 39.2°F4.0°C 84% 3.6 mph NW5.8 kmh NW 3.6 mph5.8 kmh 29.53 in1000.0 mb 0.00 in0.0 mm 0.00 in0.0 mm 0.00 in0.0 mm
08:40 AM 37.7°F3.2°C 39.3°F4.1°C 84% 4.7 mph WSW7.6 kmh WSW 4.7 mph7.6 kmh 29.53 in1000.0 mb 0.00 in0.0 mm 0.00 in0.0 mm 0.00 in0.0 mm
08:42 AM 37.7°F3.2°C 39.4°F4.1°C 84% 8.1 mph SW13.0 kmh SW 8.1 mph13.0 kmh 29.53 in1000.0 mb 0.00 in0.0 mm 0.00 in0.0 mm 0.00 in0.0 mm
08:43 AM 37.7°F3.2°C 39.0°F3.9°C 84% 8.1 mph W13.0 kmh W 8.1 mph13.0 kmh 29.53 in1000.0 mb 0.00 in0.0 mm 0.00 in0.0 mm 0.00 in0.0 mm
08:45 AM 37.7°F3.2°C 39.3°F4.1°C 85% 6.5 mph NNW10.5 kmh NNW 6.5 mph10.5 kmh 29.53 in1000.0 mb 0.00 in0.0 mm 0.00 in0.0 mm 0.00 in0.0 mm
08:46 AM 37.9°F3.3°C 39.3°F4.1°C 85% 5.8 mph W9.3 kmh W 6.2 mph10.0 kmh 29.53 in1000.0 mb 0.00 in0.0 mm 0.00 in0.0 mm 0.00 in0.0 mm
08:48 AM 37.9°F3.3°C 39.4°F4.1°C 84% 2.8 mph WNW4.5 kmh WNW 2.8 mph4.5 kmh 29.53 in1000.0 mb 0.00 in0.0 mm 0.00 in0.0 mm 0.00 in0.0 mm
08:49 AM 37.9°F3.3°C 39.4°F4.1°C 84% 3.4 mph W5.5 kmh W 3.4 mph5.5 kmh 29.53 in1000.0 mb 0.00 in0.0 mm 0.00 in0.0 mm 0.00 in0.0 mm
08:51 AM 37.9°F3.3°C 39.5°F4.2°C 84% 3.6 mph WNW5.8 kmh WNW 3.6 mph5.8 kmh 29.53 in1000.0 mb 0.00 in0.0 mm 0.00 in0.0 mm 0.00 in0.0 mm
08:52 AM 37.9°F3.3°C 39.3°F4.1°C 84% 3.0 mph W4.8 kmh W 3.0 mph4.8 kmh 29.53 in1000.0 mb 0.00 in0.0 mm 0.00 in0.0 mm 0.00 in0.0 mm
08:54 AM 37.9°F3.3°C 39.5°F4.2°C 84% 13.7 mph W22.0 kmh W 13.7 mph22.0 kmh 29.53 in1000.0 mb 0.00 in0.0 mm 0.00 in0.0 mm 0.00 in0.0 mm
08:55 AM 37.9°F3.3°C 39.4°F4.1°C 85% 10.4 mph SW16.7 kmh SW 10.5 mph16.9 kmh 29.53 in1000.0 mb 0.00 in0.0 mm 0.00 in0.0 mm 0.00 in0.0 mm
08:57 AM 38.1°F3.4°C 39.7°F4.3°C 85% 9.5 mph NNW15.3 kmh NNW 9.6 mph15.4 kmh 29.53 in1000.0 mb 0.00 in0.0 mm 0.00 in0.0 mm 0.00 in0.0 mm
08:58 AM 38.1°F3.4°C 39.8°F4.3°C 85% 8.3 mph W13.4 kmh W 8.6 mph13.8 kmh 29.53 in1000.0 mb 0.00 in0.0 mm 0.00 in0.0 mm 0.00 in0.0 mm
09:00 AM 38.2°F3.4°C 39.8°F4.3°C 86% 6.9 mph NNW11.1 kmh NNW 6.9 mph11.1 kmh 29.53 in1000.0 mb 0.00 in0.0 mm 0.00 in0.0 mm 0.00 in0.0 mm
09:01 AM 38.2°F3.4°C 39.6°F4.2°C 85% 8.0 mph W12.9 kmh W 8.1 mph13.0 kmh 29.53 in1000.0 mb 0.00 in0.0 mm 0.00 in0.0 mm 0.00 in0.0 mm
09:03 AM 38.5°F3.6°C 40.0°F4.4°C 86% 5.3 mph W8.5 kmh W 5.3 mph8.5 kmh 29.53 in1000.0 mb 0.00 in0.0 mm 0.00 in0.0 mm 0.00 in0.0 mm
09:04 AM 38.5°F3.6°C 39.9°F4.4°C 86% 6.9 mph W11.1 kmh W 6.9 mph11.1 kmh 29.54 in1000.3 mb 0.00 in0.0 mm 0.00 in0.0 mm 0.00 in0.0 mm
09:06 AM 38.3°F3.5°C 40.0°F4.4°C 86% 9.7 mph W15.6 kmh W 9.8 mph15.8 kmh 29.53 in1000.0 mb 0.00 in0.0 mm 0.00 in0.0 mm 0.00 in0.0 mm
09:07 AM 38.3°F3.5°C 39.8°F4.3°C 86% 6.7 mph W10.8 kmh W 6.7 mph10.8 kmh 29.53 in1000.0 mb 0.00 in0.0 mm 0.00 in0.0 mm 0.00 in0.0 mm
09:09 AM 38.3°F3.5°C 40.2°F4.6°C 87% 7.7 mph W12.4 kmh W 7.7 mph12.4 kmh 29.53 in1000.0 mb 0.00 in0.0 mm 0.00 in0.0 mm 0.00 in0.0 mm
09:10 AM 38.4°F3.6°C 40.2°F4.6°C 86% 5.6 mph WSW9.0 kmh WSW 5.6 mph9.0 kmh 29.54 in1000.3 mb 0.00 in0.0 mm 0.00 in0.0 mm 0.00 in0.0 mm
09:12 AM 38.3°F3.5°C 40.0°F4.4°C 86% 3.6 mph W5.8 kmh W 3.7 mph6.0 kmh 29.53 in1000.0 mb 0.00 in0.0 mm 0.00 in0.0 mm 0.00 in0.0 mm
09:13 AM 38.3°F3.5°C 40.2°F4.6°C 87% 4.3 mph WSW6.9 kmh WSW 4.3 mph6.9 kmh 29.54 in1000.3 mb 0.00 in0.0 mm 0.00 in0.0 mm 0.00 in0.0 mm
09:15 AM 38.3°F3.5°C 40.3°F4.6°C 87% 8.5 mph NNW13.7 kmh NNW 8.6 mph13.8 kmh 29.54 in1000.3 mb 0.00 in0.0 mm 0.00 in0.0 mm 0.00 in0.0 mm
09:16 AM 38.3°F3.5°C 40.0°F4.4°C 86% 8.3 mph WNW13.4 kmh WNW 8.3 mph13.4 kmh 29.54 in1000.3 mb 0.00 in0.0 mm 0.00 in0.0 mm 0.00 in0.0 mm
09:18 AM 38.3°F3.5°C 40.4°F4.7°C 86% 6.0 mph W9.7 kmh W 6.0 mph9.7 kmh 29.54 in1000.3 mb 0.00 in0.0 mm 0.00 in0.0 mm 0.00 in0.0 mm
09:19 AM 38.3°F3.5°C 40.4°F4.7°C 86% 9.7 mph W15.6 kmh W 9.7 mph15.6 kmh 29.54 in1000.3 mb 0.00 in0.0 mm 0.00 in0.0 mm 0.00 in0.0 mm
09:21 AM 38.4°F3.6°C 40.4°F4.7°C 87% 2.8 mph NW4.5 kmh NW 2.9 mph4.7 kmh 29.54 in1000.3 mb 0.00 in0.0 mm 0.00 in0.0 mm 0.00 in0.0 mm
09:22 AM 38.4°F3.6°C 40.4°F4.7°C 86% 2.9 mph WSW4.7 kmh WSW 2.9 mph4.7 kmh 29.54 in1000.3 mb 0.00 in0.0 mm 0.00 in0.0 mm 0.00 in0.0 mm
09:25 AM 38.4°F3.6°C 40.2°F4.6°C 86% 8.4 mph WNW13.5 kmh WNW 8.4 mph13.5 kmh 29.55 in1000.7 mb 0.00 in0.0 mm 0.00 in0.0 mm 0.00 in0.0 mm
09:27 AM 38.3°F3.5°C 40.2°F4.6°C 86% 4.4 mph W7.1 kmh W 4.5 mph7.2 kmh 29.55 in1000.7 mb 0.00 in0.0 mm 0.00 in0.0 mm 0.00 in0.0 mm
09:28 AM 38.3°F3.5°C 40.5°F4.7°C 86% 6.6 mph W10.6 kmh W 6.7 mph10.8 kmh 29.55 in1000.7 mb 0.00 in0.0 mm 0.00 in0.0 mm 0.00 in0.0 mm
09:30 AM 38.4°F3.6°C 40.2°F4.6°C 86% 9.8 mph NNW15.8 kmh NNW 9.8 mph15.8 kmh 29.54 in1000.3 mb 0.00 in0.0 mm 0.00 in0.0 mm 0.02 in0.5 mm
09:31 AM 38.4°F3.6°C 40.4°F4.7°C 86% 9.1 mph WSW14.6 kmh WSW 9.2 mph14.8 kmh 29.55 in1000.7 mb 0.00 in0.0 mm 0.00 in0.0 mm 0.02 in0.5 mm
09:33 AM 38.3°F3.5°C 40.1°F4.5°C 85% 5.3 mph NNW8.5 kmh NNW 5.3 mph8.5 kmh 29.55 in1000.7 mb 0.00 in0.0 mm 0.00 in0.0 mm 0.02 in0.5 mm
09:34 AM 38.3°F3.5°C 39.9°F4.4°C 86% 6.9 mph NNW11.1 kmh NNW 7.0 mph11.3 kmh 29.55 in1000.7 mb 0.00 in0.0 mm 0.00 in0.0 mm 0.02 in0.5 mm
09:36 AM 38.3°F3.5°C 40.3°F4.6°C 86% 2.8 mph W4.5 kmh W 2.8 mph4.5 kmh 29.55 in1000.7 mb 0.00 in0.0 mm 0.00 in0.0 mm 0.02 in0.5 mm
09:37 AM 38.3°F3.5°C 40.3°F4.6°C 86% 2.9 mph W4.7 kmh W 3.0 mph4.8 kmh 29.55 in1000.7 mb 0.00 in0.0 mm 0.00 in0.0 mm 0.02 in0.5 mm
09:39 AM 38.3°F3.5°C 40.3°F4.6°C 86% 6.1 mph WNW9.8 kmh WNW 6.1 mph9.8 kmh 29.55 in1000.7 mb 0.00 in0.0 mm 0.00 in0.0 mm 0.02 in0.5 mm
09:40 AM 38.3°F3.5°C 40.3°F4.6°C 86% 4.9 mph NW7.9 kmh NW 4.9 mph7.9 kmh 29.55 in1000.7 mb 0.00 in0.0 mm 0.00 in0.0 mm 0.02 in0.5 mm
09:42 AM 38.5°F3.6°C 40.5°F4.7°C 87% 7.7 mph W12.4 kmh W 7.7 mph12.4 kmh 29.55 in1000.7 mb 0.00 in0.0 mm 0.00 in0.0 mm 0.02 in0.5 mm
09:43 AM 38.5°F3.6°C 40.4°F4.7°C 86% 6.4 mph W10.3 kmh W 6.4 mph10.3 kmh 29.55 in1000.7 mb 0.00 in0.0 mm 0.00 in0.0 mm 0.02 in0.5 mm
09:46 AM 38.4°F3.6°C 40.4°F4.7°C 86% 6.0 mph WNW9.7 kmh WNW 6.1 mph9.8 kmh 29.55 in1000.7 mb 0.00 in0.0 mm 0.00 in0.0 mm 0.02 in0.5 mm
09:48 AM 38.6°F3.7°C 40.4°F4.7°C 86% 6.4 mph NW10.3 kmh NW 6.4 mph10.3 kmh 29.55 in1000.7 mb 0.00 in0.0 mm 0.00 in0.0 mm 0.02 in0.5 mm
09:49 AM 38.6°F3.7°C 40.5°F4.7°C 86% 5.7 mph NNW9.2 kmh NNW 5.7 mph9.2 kmh 29.55 in1000.7 mb 0.00 in0.0 mm 0.00 in0.0 mm 0.02 in0.5 mm
09:51 AM 38.6°F3.7°C 40.5°F4.7°C 87% 7.3 mph NNW11.7 kmh NNW 7.4 mph11.9 kmh 29.55 in1000.7 mb 0.00 in0.0 mm 0.00 in0.0 mm 0.02 in0.5 mm
09:52 AM 38.6°F3.7°C 40.5°F4.7°C 86% 6.0 mph W9.7 kmh W 6.2 mph10.0 kmh 29.55 in1000.7 mb 0.00 in0.0 mm 0.00 in0.0 mm 0.02 in0.5 mm
09:54 AM 38.6°F3.7°C 40.6°F4.8°C 86% 4.0 mph WSW6.4 kmh WSW 4.1 mph6.6 kmh 29.55 in1000.7 mb 0.00 in0.0 mm 0.00 in0.0 mm 0.02 in0.5 mm
09:55 AM 38.6°F3.7°C 40.7°F4.8°C 86% 4.6 mph W7.4 kmh W 4.6 mph7.4 kmh 29.55 in1000.7 mb 0.00 in0.0 mm 0.00 in0.0 mm 0.02 in0.5 mm
09:57 AM 38.6°F3.7°C 40.5°F4.7°C 86% 4.8 mph WSW7.7 kmh WSW 4.9 mph7.9 kmh 29.55 in1000.7 mb 0.00 in0.0 mm 0.00 in0.0 mm 0.02 in0.5 mm
09:58 AM 38.6°F3.7°C 40.4°F4.7°C 86% 3.9 mph W6.3 kmh W 3.9 mph6.3 kmh 29.55 in1000.7 mb 0.00 in0.0 mm 0.00 in0.0 mm 0.02 in0.5 mm
10:00 AM 38.9°F3.8°C 40.3°F4.6°C 86% 2.8 mph WNW4.5 kmh WNW 2.8 mph4.5 kmh 29.55 in1000.7 mb 0.00 in0.0 mm 0.00 in0.0 mm 0.02 in0.5 mm
10:01 AM 38.9°F3.8°C 40.5°F4.7°C 86% 4.2 mph WSW6.8 kmh WSW 4.2 mph6.8 kmh 29.55 in1000.7 mb 0.00 in0.0 mm 0.00 in0.0 mm 0.02 in0.5 mm
10:03 AM 39.3°F4.1°C 40.3°F4.6°C 86% 8.1 mph NNW13.0 kmh NNW 8.1 mph13.0 kmh 29.55 in1000.7 mb 0.00 in0.0 mm 0.00 in0.0 mm 0.02 in0.5 mm
10:04 AM 39.4°F4.1°C 40.5°F4.7°C 86% 5.3 mph WNW8.5 kmh WNW 5.3 mph8.5 kmh 29.55 in1000.7 mb 0.00 in0.0 mm 0.00 in0.0 mm 0.02 in0.5 mm
10:06 AM 39.5°F4.2°C 40.5°F4.7°C 86% 6.9 mph W11.1 kmh W 6.9 mph11.1 kmh 29.55 in1000.7 mb 0.00 in0.0 mm 0.00 in0.0 mm 0.02 in0.5 mm
10:07 AM 39.5°F4.2°C 40.7°F4.8°C 86% 4.8 mph WNW7.7 kmh WNW 4.9 mph7.9 kmh 29.55 in1000.7 mb 0.00 in0.0 mm 0.00 in0.0 mm 0.02 in0.5 mm
10:09 AM 39.4°F4.1°C 40.4°F4.7°C 85% 5.7 mph W9.2 kmh W 5.7 mph9.2 kmh 29.55 in1000.7 mb 0.00 in0.0 mm 0.00 in0.0 mm 0.02 in0.5 mm
10:10 AM 39.4°F4.1°C 40.2°F4.6°C 84% 4.8 mph WNW7.7 kmh WNW 4.8 mph7.7 kmh 29.56 in1001.0 mb 0.00 in0.0 mm 0.00 in0.0 mm 0.02 in0.5 mm
10:12 AM 39.7°F4.3°C 40.6°F4.8°C 86% 10.9 mph WSW17.5 kmh WSW 11.0 mph17.7 kmh 29.55 in1000.7 mb 0.00 in0.0 mm 0.00 in0.0 mm 0.02 in0.5 mm
10:13 AM 39.5°F4.2°C 40.7°F4.8°C 85% 7.5 mph W12.1 kmh W 7.5 mph12.1 kmh 29.55 in1000.7 mb 0.00 in0.0 mm 0.00 in0.0 mm 0.02 in0.5 mm
10:15 AM 39.8°F4.3°C 40.2°F4.6°C 84% 3.6 mph WNW5.8 kmh WNW 3.7 mph6.0 kmh 29.55 in1000.7 mb 0.00 in0.0 mm 0.00 in0.0 mm 0.02 in0.5 mm
10:16 AM 39.9°F4.4°C 40.9°F4.9°C 86% 4.3 mph WNW6.9 kmh WNW 4.3 mph6.9 kmh 29.55 in1000.7 mb 0.00 in0.0 mm 0.00 in0.0 mm 0.02 in0.5 mm
10:18 AM 39.9°F4.4°C 41.0°F5.0°C 85% 4.5 mph NW7.2 kmh NW 4.5 mph7.2 kmh 29.55 in1000.7 mb 0.00 in0.0 mm 0.00 in0.0 mm 0.02 in0.5 mm
10:19 AM 40.0°F4.4°C 40.5°F4.7°C 84% 4.3 mph W6.9 kmh W 4.3 mph6.9 kmh 29.56 in1001.0 mb 0.00 in0.0 mm 0.00 in0.0 mm 0.02 in0.5 mm
10:21 AM 39.8°F4.3°C 40.6°F4.8°C 84% 4.4 mph NNW7.1 kmh NNW 4.5 mph7.2 kmh 29.55 in1000.7 mb 0.00 in0.0 mm 0.00 in0.0 mm 0.02 in0.5 mm
10:22 AM 39.8°F4.3°C 40.9°F4.9°C 84% 3.7 mph W6.0 kmh W 3.8 mph6.1 kmh 29.55 in1000.7 mb 0.00 in0.0 mm 0.00 in0.0 mm 0.02 in0.5 mm
10:24 AM 39.7°F4.3°C 40.9°F4.9°C 85% 3.2 mph NNW5.1 kmh NNW 3.2 mph5.1 kmh 29.56 in1001.0 mb 0.00 in0.0 mm 0.00 in0.0 mm 0.02 in0.5 mm
10:25 AM 39.7°F4.3°C 40.9°F4.9°C 84% 2.8 mph WNW4.5 kmh WNW 2.8 mph4.5 kmh 29.56 in1001.0 mb 0.00 in0.0 mm 0.00 in0.0 mm 0.02 in0.5 mm
10:27 AM 39.7°F4.3°C 40.6°F4.8°C 84% 11.1 mph NW17.9 kmh NW 11.2 mph18.0 kmh 29.56 in1001.0 mb 0.00 in0.0 mm 0.00 in0.0 mm 0.02 in0.5 mm
10:28 AM 39.7°F4.3°C 40.4°F4.7°C 84% 10.1 mph WNW16.3 kmh WNW 10.2 mph16.4 kmh 29.56 in1001.0 mb 0.00 in0.0 mm 0.00 in0.0 mm 0.02 in0.5 mm
10:30 AM 39.4°F4.1°C 40.8°F4.9°C 85% 4.8 mph W7.7 kmh W 4.8 mph7.7 kmh 29.56 in1001.0 mb 0.00 in0.0 mm 0.00 in0.0 mm 0.02 in0.5 mm
10:31 AM 39.5°F4.2°C 40.8°F4.9°C 84% 7.9 mph SW12.7 kmh SW 7.9 mph12.7 kmh 29.56 in1001.0 mb 0.00 in0.0 mm 0.00 in0.0 mm 0.02 in0.5 mm
10:33 AM 39.7°F4.3°C 40.8°F4.9°C 84% 2.8 mph W4.5 kmh W 2.9 mph4.7 kmh 29.56 in1001.0 mb 0.00 in0.0 mm 0.00 in0.0 mm 0.02 in0.5 mm
10:34 AM 39.7°F4.3°C 40.6°F4.8°C 84% 3.5 mph WNW5.6 kmh WNW 3.5 mph5.6 kmh 29.56 in1001.0 mb 0.00 in0.0 mm 0.00 in0.0 mm 0.02 in0.5 mm
10:36 AM 39.5°F4.2°C 40.8°F4.9°C 84% 5.2 mph W8.4 kmh W 5.2 mph8.4 kmh 29.56 in1001.0 mb 0.00 in0.0 mm 0.00 in0.0 mm 0.02 in0.5 mm
10:37 AM 39.5°F4.2°C 40.9°F4.9°C 85% 5.6 mph WNW9.0 kmh WNW 6.0 mph9.7 kmh 29.56 in1001.0 mb 0.00 in0.0 mm 0.00 in0.0 mm 0.02 in0.5 mm
10:39 AM 39.5°F4.2°C 40.8°F4.9°C 85% 8.1 mph NW13.0 kmh NW 8.1 mph13.0 kmh 29.56 in1001.0 mb 0.00 in0.0 mm 0.00 in0.0 mm 0.02 in0.5 mm
10:40 AM 39.5°F4.2°C 40.9°F4.9°C 84% 8.9 mph NW14.3 kmh NW 9.1 mph14.6 kmh 29.56 in1001.0 mb 0.00 in0.0 mm 0.00 in0.0 mm 0.02 in0.5 mm
10:43 AM 39.8°F4.3°C 40.8°F4.9°C 84% 6.0 mph W9.7 kmh W 6.0 mph9.7 kmh 29.56 in1001.0 mb 0.00 in0.0 mm 0.00 in0.0 mm 0.02 in0.5 mm
10:45 AM 39.9°F4.4°C 40.4°F4.7°C 84% 4.8 mph WNW7.7 kmh WNW 4.9 mph7.9 kmh 29.56 in1001.0 mb 0.00 in0.0 mm 0.00 in0.0 mm 0.02 in0.5 mm
10:46 AM 39.9°F4.4°C 40.9°F4.9°C 84% 5.3 mph WNW8.5 kmh WNW 5.3 mph8.5 kmh 29.56 in1001.0 mb 0.00 in0.0 mm 0.00 in0.0 mm 0.02 in0.5 mm
10:48 AM 39.8°F4.3°C 40.7°F4.8°C 84% 6.9 mph SW11.1 kmh SW 6.9 mph11.1 kmh 29.56 in1001.0 mb 0.00 in0.0 mm 0.00 in0.0 mm 0.02 in0.5 mm
10:49 AM 39.9°F4.4°C 40.5°F4.7°C 84% 4.8 mph W7.7 kmh W 4.8 mph7.7 kmh 29.56 in1001.0 mb 0.00 in0.0 mm 0.00 in0.0 mm 0.02 in0.5 mm
10:52 AM 40.1°F4.5°C 40.9°F4.9°C 84% 5.5 mph W8.9 kmh W 5.6 mph9.0 kmh 29.57 in1001.4 mb 0.00 in0.0 mm 0.00 in0.0 mm 0.02 in0.5 mm
10:54 AM 40.3°F4.6°C 41.1°F5.1°C 84% 7.3 mph NNW11.7 kmh NNW 7.3 mph11.7 kmh 29.57 in1001.4 mb 0.00 in0.0 mm 0.00 in0.0 mm 0.02 in0.5 mm
10:55 AM 40.3°F4.6°C 41.0°F5.0°C 84% 6.0 mph WNW9.7 kmh WNW 6.2 mph10.0 kmh 29.57 in1001.4 mb 0.00 in0.0 mm 0.00 in0.0 mm 0.02 in0.5 mm
10:57 AM 40.3°F4.6°C 41.2°F5.1°C 84% 6.0 mph WSW9.7 kmh WSW 6.0 mph9.7 kmh 29.57 in1001.4 mb 0.00 in0.0 mm 0.00 in0.0 mm 0.02 in0.5 mm
10:58 AM 40.3°F4.6°C 40.9°F4.9°C 84% 8.2 mph W13.2 kmh W 8.2 mph13.2 kmh 29.57 in1001.4 mb 0.00 in0.0 mm 0.00 in0.0 mm 0.02 in0.5 mm
11:00 AM 40.3°F4.6°C 41.1°F5.1°C 84% 6.1 mph WSW9.8 kmh WSW 6.1 mph9.8 kmh 29.56 in1001.0 mb 0.00 in0.0 mm 0.00 in0.0 mm 0.02 in0.5 mm
11:01 AM 40.3°F4.6°C 41.0°F5.0°C 83% 6.9 mph W11.1 kmh W 6.9 mph11.1 kmh 29.57 in1001.4 mb 0.00 in0.0 mm 0.00 in0.0 mm 0.02 in0.5 mm
11:03 AM 40.6°F4.8°C 41.0°F5.0°C 83% 9.9 mph W15.9 kmh W 10.0 mph16.1 kmh 29.56 in1001.0 mb 0.00 in0.0 mm 0.00 in0.0 mm 0.02 in0.5 mm
11:06 AM 40.6°F4.8°C 41.1°F5.1°C 83% 8.5 mph WNW13.7 kmh WNW 8.6 mph13.8 kmh 29.57 in1001.4 mb 0.00 in0.0 mm 0.00 in0.0 mm 0.02 in0.5 mm
11:07 AM 40.6°F4.8°C 40.9°F4.9°C 83% 7.3 mph WNW11.7 kmh WNW 7.3 mph11.7 kmh 29.57 in1001.4 mb 0.00 in0.0 mm 0.00 in0.0 mm 0.02 in0.5 mm
11:09 AM 40.8°F4.9°C 41.2°F5.1°C 83% 4.4 mph W7.1 kmh W 4.5 mph7.2 kmh 29.57 in1001.4 mb 0.00 in0.0 mm 0.00 in0.0 mm 0.02 in0.5 mm
11:10 AM 40.9°F4.9°C 41.1°F5.1°C 83% 5.0 mph W8.0 kmh W 5.1 mph8.2 kmh 29.57 in1001.4 mb 0.00 in0.0 mm 0.00 in0.0 mm 0.02 in0.5 mm
11:12 AM 41.7°F5.4°C 41.3°F5.2°C 84% 6.4 mph W10.3 kmh W 6.4 mph10.3 kmh 29.57 in1001.4 mb 0.00 in0.0 mm 0.00 in0.0 mm 0.02 in0.5 mm
11:13 AM 41.7°F5.4°C 41.5°F5.3°C 84% 4.4 mph SW7.1 kmh SW 4.5 mph7.2 kmh 29.57 in1001.4 mb 0.00 in0.0 mm 0.00 in0.0 mm 0.02 in0.5 mm
11:15 AM 41.7°F5.4°C 41.6°F5.3°C 84% 8.1 mph WSW13.0 kmh WSW 8.1 mph13.0 kmh 29.57 in1001.4 mb 0.00 in0.0 mm 0.00 in0.0 mm 0.02 in0.5 mm
11:18 AM 41.3°F5.2°C 41.8°F5.4°C 84% 2.4 mph W3.9 kmh W 2.4 mph3.9 kmh 29.57 in1001.4 mb 0.00 in0.0 mm 0.00 in0.0 mm 0.02 in0.5 mm
11:19 AM 41.5°F5.3°C 41.7°F5.4°C 84% 2.6 mph W4.2 kmh W 2.6 mph4.2 kmh 29.57 in1001.4 mb 0.00 in0.0 mm 0.00 in0.0 mm 0.02 in0.5 mm
11:21 AM 41.3°F5.2°C 41.7°F5.4°C 84% 4.4 mph W7.1 kmh W 4.5 mph7.2 kmh 29.57 in1001.4 mb 0.00 in0.0 mm 0.00 in0.0 mm 0.02 in0.5 mm
11:22 AM 41.3°F5.2°C 41.8°F5.4°C 84% 3.9 mph W6.3 kmh W 4.0 mph6.4 kmh 29.57 in1001.4 mb 0.00 in0.0 mm 0.00 in0.0 mm 0.02 in0.5 mm
11:24 AM 41.2°F5.1°C 41.5°F5.3°C 83% 6.1 mph W9.8 kmh W 6.1 mph9.8 kmh 29.57 in1001.4 mb 0.00 in0.0 mm 0.00 in0.0 mm 0.02 in0.5 mm
11:25 AM 41.2°F5.1°C 41.9°F5.5°C 84% 6.9 mph W11.1 kmh W 6.9 mph11.1 kmh 29.57 in1001.4 mb 0.00 in0.0 mm 0.00 in0.0 mm 0.02 in0.5 mm
11:27 AM 41.9°F5.5°C 41.8°F5.4°C 85% 7.3 mph WNW11.7 kmh WNW 7.3 mph11.7 kmh 29.57 in1001.4 mb 0.00 in0.0 mm 0.00 in0.0 mm 0.02 in0.5 mm
11:28 AM 42.0°F5.6°C 42.0°F5.6°C 85% 9.9 mph W15.9 kmh W 9.9 mph15.9 kmh 29.57 in1001.4 mb 0.00 in0.0 mm 0.00 in0.0 mm 0.02 in0.5 mm
11:30 AM 42.5°F5.8°C 41.6°F5.3°C 83% 13.8 mph W22.2 kmh W 13.9 mph22.4 kmh 29.57 in1001.4 mb 0.00 in0.0 mm 0.00 in0.0 mm 0.02 in0.5 mm
11:31 AM 42.6°F5.9°C 41.3°F5.2°C 82% 10.5 mph W16.9 kmh W 10.9 mph17.5 kmh 29.57 in1001.4 mb 0.00 in0.0 mm 0.00 in0.0 mm 0.02 in0.5 mm
11:33 AM 42.7°F5.9°C 41.9°F5.5°C 83% 12.5 mph W20.1 kmh W 12.5 mph20.1 kmh 29.57 in1001.4 mb 0.00 in0.0 mm 0.00 in0.0 mm 0.02 in0.5 mm
11:34 AM 42.7°F5.9°C 41.8°F5.4°C 83% 11.4 mph WSW18.3 kmh WSW 11.4 mph18.3 kmh 29.57 in1001.4 mb 0.00 in0.0 mm 0.00 in0.0 mm 0.02 in0.5 mm
11:36 AM 42.6°F5.9°C 41.7°F5.4°C 82% 8.3 mph W13.4 kmh W 8.4 mph13.5 kmh 29.57 in1001.4 mb 0.00 in0.0 mm 0.00 in0.0 mm 0.02 in0.5 mm
11:37 AM 42.6°F5.9°C 41.4°F5.2°C 82% 6.5 mph WNW10.5 kmh WNW 6.8 mph10.9 kmh 29.57 in1001.4 mb 0.00 in0.0 mm 0.00 in0.0 mm 0.02 in0.5 mm
11:39 AM 41.6°F5.3°C 41.9°F5.5°C 82% 8.1 mph W13.0 kmh W 8.2 mph13.2 kmh 29.58 in1001.7 mb 0.00 in0.0 mm 0.00 in0.0 mm 0.02 in0.5 mm
11:40 AM 41.6°F5.3°C 41.7°F5.4°C 82% 8.0 mph W12.9 kmh W 8.0 mph12.9 kmh 29.58 in1001.7 mb 0.00 in0.0 mm 0.00 in0.0 mm 0.02 in0.5 mm
11:42 AM 41.5°F5.3°C 42.2°F5.7°C 83% 5.3 mph NNW8.5 kmh NNW 5.4 mph8.7 kmh 29.59 in1002.0 mb 0.00 in0.0 mm 0.00 in0.0 mm 0.02 in0.5 mm
11:43 AM 41.5°F5.3°C 41.8°F5.4°C 83% 5.5 mph NW8.9 kmh NW 5.7 mph9.2 kmh 29.58 in1001.7 mb 0.00 in0.0 mm 0.00 in0.0 mm 0.02 in0.5 mm
11:45 AM 41.8°F5.4°C 42.0°F5.6°C 84% 10.1 mph W16.3 kmh W 10.1 mph16.3 kmh 29.58 in1001.7 mb 0.00 in0.0 mm 0.00 in0.0 mm 0.02 in0.5 mm
11:46 AM 41.8°F5.4°C 42.0°F5.6°C 84% 8.9 mph W14.3 kmh W 9.0 mph14.5 kmh 29.59 in1002.0 mb 0.00 in0.0 mm 0.00 in0.0 mm 0.02 in0.5 mm
11:48 AM 42.5°F5.8°C 42.1°F5.6°C 84% 6.1 mph W9.8 kmh W 6.1 mph9.8 kmh 29.59 in1002.0 mb 0.00 in0.0 mm 0.00 in0.0 mm 0.02 in0.5 mm
11:49 AM 42.5°F5.8°C 42.1°F5.6°C 83% 6.7 mph NW10.8 kmh NW 6.8 mph10.9 kmh 29.58 in1001.7 mb 0.00 in0.0 mm 0.00 in0.0 mm 0.02 in0.5 mm
11:51 AM 42.2°F5.7°C 42.2°F5.7°C 84% 6.9 mph NW11.1 kmh NW 7.0 mph11.3 kmh 29.59 in1002.0 mb 0.00 in0.0 mm 0.00 in0.0 mm 0.02 in0.5 mm
11:52 AM 42.4°F5.8°C 42.3°F5.7°C 84% 5.6 mph W9.0 kmh W 5.6 mph9.0 kmh 29.59 in1002.0 mb 0.00 in0.0 mm 0.00 in0.0 mm 0.02 in0.5 mm
11:54 AM 42.8°F6.0°C 42.6°F5.9°C 84% 3.6 mph WNW5.8 kmh WNW 3.7 mph6.0 kmh 29.59 in1002.0 mb 0.00 in0.0 mm 0.00 in0.0 mm 0.02 in0.5 mm
11:55 AM 42.8°F6.0°C 42.5°F5.8°C 84% 6.7 mph NW10.8 kmh NW 6.7 mph10.8 kmh 29.58 in1001.7 mb 0.00 in0.0 mm 0.00 in0.0 mm 0.02 in0.5 mm
11:57 AM 43.3°F6.3°C 42.7°F5.9°C 84% 5.2 mph WNW8.4 kmh WNW 5.2 mph8.4 kmh 29.58 in1001.7 mb 0.00 in0.0 mm 0.00 in0.0 mm 0.02 in0.5 mm
11:58 AM 43.4°F6.3°C 42.6°F5.9°C 84% 4.8 mph NW7.7 kmh NW 4.8 mph7.7 kmh 29.59 in1002.0 mb 0.00 in0.0 mm 0.00 in0.0 mm 0.02 in0.5 mm
12:01 PM 44.5°F6.9°C 43.2°F6.2°C 85% 5.6 mph W9.0 kmh W 5.7 mph9.2 kmh 29.59 in1002.0 mb 0.00 in0.0 mm 0.00 in0.0 mm 0.02 in0.5 mm
12:03 PM 44.8°F7.1°C 43.2°F6.2°C 84% 5.2 mph W8.4 kmh W 5.2 mph8.4 kmh 29.58 in1001.7 mb 0.00 in0.0 mm 0.00 in0.0 mm 0.02 in0.5 mm
12:04 PM 44.9°F7.2°C 43.1°F6.2°C 84% 3.9 mph NW6.3 kmh NW 4.2 mph6.8 kmh 29.58 in1001.7 mb 0.00 in0.0 mm 0.00 in0.0 mm 0.02 in0.5 mm
12:06 PM 45.6°F7.6°C 43.9°F6.6°C 85% 8.5 mph NNW13.7 kmh NNW 8.6 mph13.8 kmh 29.58 in1001.7 mb 0.00 in0.0 mm 0.00 in0.0 mm 0.02 in0.5 mm
12:07 PM 45.6°F7.6°C 43.8°F6.6°C 85% 8.9 mph W14.3 kmh W 9.2 mph14.8 kmh 29.58 in1001.7 mb 0.00 in0.0 mm 0.00 in0.0 mm 0.02 in0.5 mm
12:09 PM 44.5°F6.9°C 43.5°F6.4°C 83% 7.7 mph WSW12.4 kmh WSW 7.7 mph12.4 kmh 29.58 in1001.7 mb 0.00 in0.0 mm 0.00 in0.0 mm 0.02 in0.5 mm
12:10 PM 44.4°F6.9°C 43.7°F6.5°C 83% 7.5 mph WSW12.1 kmh WSW 7.5 mph12.1 kmh 29.58 in1001.7 mb 0.00 in0.0 mm 0.00 in0.0 mm 0.02 in0.5 mm
12:12 PM 43.5°F6.4°C 43.1°F6.2°C 82% 9.7 mph W15.6 kmh W 9.7 mph15.6 kmh 29.58 in1001.7 mb 0.00 in0.0 mm 0.00 in0.0 mm 0.02 in0.5 mm
12:13 PM 43.5°F6.4°C 43.5°F6.4°C 83% 9.3 mph W15.0 kmh W 9.3 mph15.0 kmh 29.57 in1001.4 mb 0.00 in0.0 mm 0.00 in0.0 mm 0.02 in0.5 mm
12:15 PM 43.4°F6.3°C 43.2°F6.2°C 82% 5.7 mph 9.2 kmh 5.7 mph9.2 kmh 29.57 in1001.4 mb 0.00 in0.0 mm 0.00 in0.0 mm 0.02 in0.5 mm
12:16 PM 43.4°F6.3°C 43.1°F6.2°C 82% 6.0 mph 9.7 kmh 6.0 mph9.7 kmh 29.57 in1001.4 mb 0.00 in0.0 mm 0.00 in0.0 mm 0.02 in0.5 mm
12:18 PM 43.4°F6.3°C 43.0°F6.1°C 82% 4.0 mph W6.4 kmh W 4.1 mph6.6 kmh 29.57 in1001.4 mb 0.00 in0.0 mm 0.00 in0.0 mm 0.02 in0.5 mm
12:19 PM 43.4°F6.3°C 42.9°F6.1°C 81% 5.2 mph W8.4 kmh W 5.2 mph8.4 kmh 29.57 in1001.4 mb 0.00 in0.0 mm 0.00 in0.0 mm 0.02 in0.5 mm
12:21 PM 42.9°F6.1°C 42.9°F6.1°C 81% 4.4 mph WNW7.1 kmh WNW 4.4 mph7.1 kmh 29.57 in1001.4 mb 0.00 in0.0 mm 0.00 in0.0 mm 0.02 in0.5 mm
12:22 PM 42.9°F6.1°C 42.9°F6.1°C 81% 4.9 mph WNW7.9 kmh WNW 4.9 mph7.9 kmh 29.57 in1001.4 mb 0.00 in0.0 mm 0.00 in0.0 mm 0.02 in0.5 mm
12:24 PM 42.8°F6.0°C 43.0°F6.1°C 82% 2.0 mph W3.2 kmh W 2.0 mph3.2 kmh 29.57 in1001.4 mb 0.00 in0.0 mm 0.00 in0.0 mm 0.02 in0.5 mm
12:25 PM 42.8°F6.0°C 42.9°F6.1°C 82% 3.0 mph W4.8 kmh W 3.0 mph4.8 kmh 29.57 in1001.4 mb 0.00 in0.0 mm 0.00 in0.0 mm 0.02 in0.5 mm
12:27 PM 42.0°F5.6°C 42.5°F5.8°C 81% 11.1 mph NNW17.9 kmh NNW 11.2 mph18.0 kmh 29.57 in1001.4 mb 0.00 in0.0 mm 0.00 in0.0 mm 0.02 in0.5 mm
12:28 PM 41.9°F5.5°C 42.8°F6.0°C 82% 8.7 mph WSW14.0 kmh WSW 8.8 mph14.2 kmh 29.58 in1001.7 mb 0.00 in0.0 mm 0.00 in0.0 mm 0.02 in0.5 mm
12:30 PM 41.1°F5.1°C 42.9°F6.1°C 82% 10.7 mph W17.2 kmh W 10.8 mph17.4 kmh 29.59 in1002.0 mb 0.00 in0.0 mm 0.00 in0.0 mm 0.04 in1.0 mm
12:33 PM 40.8°F4.9°C 42.6°F5.9°C 82% 9.7 mph W15.6 kmh W 9.8 mph15.8 kmh 29.59 in1002.0 mb 0.00 in0.0 mm 0.00 in0.0 mm 0.04 in1.0 mm
12:34 PM 40.9°F4.9°C 42.7°F5.9°C 83% 6.9 mph W11.1 kmh W 6.9 mph11.1 kmh 29.59 in1002.0 mb 0.00 in0.0 mm 0.00 in0.0 mm 0.04 in1.0 mm
12:36 PM 42.2°F5.7°C 42.9°F6.1°C 83% 3.2 mph WNW5.1 kmh WNW 3.3 mph5.3 kmh 29.59 in1002.0 mb 0.00 in0.0 mm 0.00 in0.0 mm 0.04 in1.0 mm
12:37 PM 42.4°F5.8°C 42.5°F5.8°C 82% 3.7 mph WNW6.0 kmh WNW 3.8 mph6.1 kmh 29.59 in1002.0 mb 0.00 in0.0 mm 0.00 in0.0 mm 0.04 in1.0 mm
12:39 PM 43.0°F6.1°C 43.4°F6.3°C 85% 2.4 mph WNW3.9 kmh WNW 2.4 mph3.9 kmh 29.59 in1002.0 mb 0.00 in0.0 mm 0.00 in0.0 mm 0.04 in1.0 mm
12:40 PM 43.0°F6.1°C 43.2°F6.2°C 85% 2.9 mph WNW4.7 kmh WNW 3.0 mph4.8 kmh 29.59 in1002.0 mb 0.00 in0.0 mm 0.00 in0.0 mm 0.04 in1.0 mm
12:42 PM 44.2°F6.8°C 43.6°F6.4°C 85% 2.4 mph NNW3.9 kmh NNW 2.4 mph3.9 kmh 29.59 in1002.0 mb 0.00 in0.0 mm 0.00 in0.0 mm 0.04 in1.0 mm
12:43 PM 44.2°F6.8°C 43.6°F6.4°C 85% 4.4 mph WNW7.1 kmh WNW 4.6 mph7.4 kmh 29.59 in1002.0 mb 0.00 in0.0 mm 0.00 in0.0 mm 0.04 in1.0 mm
12:45 PM 43.9°F6.6°C 43.9°F6.6°C 85% 6.0 mph WNW9.7 kmh WNW 6.0 mph9.7 kmh 29.59 in1002.0 mb 0.00 in0.0 mm 0.00 in0.0 mm 0.04 in1.0 mm
12:46 PM 43.9°F6.6°C 44.0°F6.7°C 85% 5.4 mph NW8.7 kmh NW 5.5 mph8.9 kmh 29.59 in1002.0 mb 0.00 in0.0 mm 0.00 in0.0 mm 0.04 in1.0 mm
12:48 PM 43.8°F6.6°C 43.8°F6.6°C 85% 5.7 mph WSW9.2 kmh WSW 5.7 mph9.2 kmh 29.59 in1002.0 mb 0.00 in0.0 mm 0.00 in0.0 mm 0.04 in1.0 mm
12:49 PM 43.7°F6.5°C 44.0°F6.7°C 85% 6.3 mph WNW10.1 kmh WNW 6.3 mph10.1 kmh 29.59 in1002.0 mb 0.00 in0.0 mm 0.00 in0.0 mm 0.04 in1.0 mm
12:51 PM 43.5°F6.4°C 43.8°F6.6°C 84% 6.0 mph W9.7 kmh W 6.0 mph9.7 kmh 29.59 in1002.0 mb 0.00 in0.0 mm 0.00 in0.0 mm 0.04 in1.0 mm
12:52 PM 43.4°F6.3°C 43.9°F6.6°C 85% 7.4 mph W11.9 kmh W 7.6 mph12.2 kmh 29.59 in1002.0 mb 0.00 in0.0 mm 0.00 in0.0 mm 0.04 in1.0 mm
12:54 PM 43.3°F6.3°C 43.9°F6.6°C 85% 8.1 mph NNW13.0 kmh NNW 8.2 mph13.2 kmh 29.59 in1002.0 mb 0.00 in0.0 mm 0.00 in0.0 mm 0.04 in1.0 mm
12:57 PM 43.0°F6.1°C 43.9°F6.6°C 85% 6.0 mph NNW9.7 kmh NNW 6.1 mph9.8 kmh 29.59 in1002.0 mb 0.00 in0.0 mm 0.00 in0.0 mm 0.04 in1.0 mm
12:58 PM 43.1°F6.2°C 44.0°F6.7°C 85% 7.3 mph W11.7 kmh W 7.5 mph12.1 kmh 29.59 in1002.0 mb 0.00 in0.0 mm 0.00 in0.0 mm 0.04 in1.0 mm
01:00 PM 42.5°F5.8°C 43.9°F6.6°C 84% 10.0 mph W16.1 kmh W 10.0 mph16.1 kmh 29.58 in1001.7 mb 0.00 in0.0 mm 0.00 in0.0 mm 0.04 in1.0 mm
01:01 PM 42.5°F5.8°C 43.6°F6.4°C 83% 7.2 mph W11.6 kmh W 7.2 mph11.6 kmh 29.59 in1002.0 mb 0.00 in0.0 mm 0.00 in0.0 mm 0.04 in1.0 mm
01:03 PM 42.0°F5.6°C 43.0°F6.1°C 82% 9.6 mph W15.4 kmh W 9.6 mph15.4 kmh 29.58 in1001.7 mb 0.00 in0.0 mm 0.00 in0.0 mm 0.04 in1.0 mm
01:04 PM 41.9°F5.5°C 43.1°F6.2°C 83% 8.8 mph W14.2 kmh W 8.8 mph14.2 kmh 29.58 in1001.7 mb 0.00 in0.0 mm 0.00 in0.0 mm 0.04 in1.0 mm
01:06 PM 42.0°F5.6°C 43.4°F6.3°C 83% 4.4 mph W7.1 kmh W 4.4 mph7.1 kmh 29.59 in1002.0 mb 0.00 in0.0 mm 0.00 in0.0 mm 0.04 in1.0 mm
01:07 PM 42.0°F5.6°C 43.2°F6.2°C 83% 3.9 mph WNW6.3 kmh WNW 4.0 mph6.4 kmh 29.59 in1002.0 mb 0.00 in0.0 mm 0.00 in0.0 mm 0.04 in1.0 mm
01:09 PM 41.8°F5.4°C 43.4°F6.3°C 84% 8.7 mph WSW14.0 kmh WSW 8.8 mph14.2 kmh 29.59 in1002.0 mb 0.00 in0.0 mm 0.00 in0.0 mm 0.04 in1.0 mm
01:10 PM 41.8°F5.4°C 43.3°F6.3°C 84% 8.0 mph WSW12.9 kmh WSW 8.3 mph13.4 kmh 29.59 in1002.0 mb 0.00 in0.0 mm 0.00 in0.0 mm 0.04 in1.0 mm
01:12 PM 41.8°F5.4°C 43.7°F6.5°C 85% 8.5 mph SW13.7 kmh SW 8.6 mph13.8 kmh 29.58 in1001.7 mb 0.00 in0.0 mm 0.00 in0.0 mm 0.04 in1.0 mm
01:13 PM 41.7°F5.4°C 43.3°F6.3°C 84% 7.5 mph SW12.1 kmh SW 7.5 mph12.1 kmh 29.59 in1002.0 mb 0.00 in0.0 mm 0.00 in0.0 mm 0.04 in1.0 mm
01:15 PM 42.0°F5.6°C 43.1°F6.2°C 83% 5.3 mph W8.5 kmh W 5.3 mph8.5 kmh 29.59 in1002.0 mb 0.00 in0.0 mm 0.00 in0.0 mm 0.04 in1.0 mm
01:16 PM 42.0°F5.6°C 43.2°F6.2°C 83% 7.6 mph W12.2 kmh W 7.6 mph12.2 kmh 29.59 in1002.0 mb 0.00 in0.0 mm 0.00 in0.0 mm 0.04 in1.0 mm
01:18 PM 42.4°F5.8°C 43.2°F6.2°C 84% 7.6 mph W12.2 kmh W 7.6 mph12.2 kmh 29.59 in1002.0 mb 0.00 in0.0 mm 0.00 in0.0 mm 0.04 in1.0 mm
01:19 PM 42.4°F5.8°C 43.2°F6.2°C 84% 9.5 mph W15.3 kmh W 9.5 mph15.3 kmh 29.58 in1001.7 mb 0.00 in0.0 mm 0.00 in0.0 mm 0.04 in1.0 mm
01:21 PM 42.4°F5.8°C 43.3°F6.3°C 83% 7.5 mph NNW12.1 kmh NNW 7.6 mph12.2 kmh 29.59 in1002.0 mb 0.00 in0.0 mm 0.00 in0.0 mm 0.04 in1.0 mm
01:22 PM 42.4°F5.8°C 43.3°F6.3°C 84% 5.4 mph W8.7 kmh W 5.4 mph8.7 kmh 29.59 in1002.0 mb 0.00 in0.0 mm 0.00 in0.0 mm 0.04 in1.0 mm
01:25 PM 42.5°F5.8°C 43.4°F6.3°C 84% 5.6 mph NNW9.0 kmh NNW 5.7 mph9.2 kmh 29.59 in1002.0 mb 0.00 in0.0 mm 0.00 in0.0 mm 0.04 in1.0 mm
01:27 PM 43.6°F6.4°C 43.5°F6.4°C 84% 5.7 mph W9.2 kmh W 5.7 mph9.2 kmh 29.59 in1002.0 mb 0.00 in0.0 mm 0.00 in0.0 mm 0.04 in1.0 mm
01:28 PM 43.6°F6.4°C 43.6°F6.4°C 84% 5.6 mph WSW9.0 kmh WSW 5.6 mph9.0 kmh 29.59 in1002.0 mb 0.00 in0.0 mm 0.00 in0.0 mm 0.04 in1.0 mm
01:30 PM 43.0°F6.1°C 43.7°F6.5°C 84% 6.5 mph W10.5 kmh W 6.5 mph10.5 kmh 29.59 in1002.0 mb 0.00 in0.0 mm 0.00 in0.0 mm 0.04 in1.0 mm
01:31 PM 43.0°F6.1°C 43.4°F6.3°C 84% 6.7 mph W10.8 kmh W 7.0 mph11.3 kmh 29.59 in1002.0 mb 0.00 in0.0 mm 0.00 in0.0 mm 0.04 in1.0 mm
01:33 PM 42.5°F5.8°C 43.5°F6.4°C 84% 8.4 mph W13.5 kmh W 8.4 mph13.5 kmh 29.58 in1001.7 mb 0.00 in0.0 mm 0.00 in0.0 mm 0.04 in1.0 mm
01:34 PM 42.5°F5.8°C 43.1°F6.2°C 83% 7.7 mph W12.4 kmh W 7.8 mph12.6 kmh 29.59 in1002.0 mb 0.00 in0.0 mm 0.00 in0.0 mm 0.04 in1.0 mm
01:36 PM 42.0°F5.6°C 43.7°F6.5°C 84% 6.5 mph WSW10.5 kmh WSW 6.5 mph10.5 kmh 29.58 in1001.7 mb 0.00 in0.0 mm 0.00 in0.0 mm 0.04 in1.0 mm
01:37 PM 42.0°F5.6°C 43.3°F6.3°C 83% 8.6 mph W13.8 kmh W 8.7 mph14.0 kmh 29.58 in1001.7 mb 0.00 in0.0 mm 0.00 in0.0 mm 0.04 in1.0 mm
01:39 PM 41.8°F5.4°C 43.4°F6.3°C 83% 2.4 mph WNW3.9 kmh WNW 2.4 mph3.9 kmh 29.58 in1001.7 mb 0.00 in0.0 mm 0.00 in0.0 mm 0.06 in1.5 mm
01:40 PM 41.8°F5.4°C 43.5°F6.4°C 83% 2.3 mph NW3.7 kmh NW 2.4 mph3.9 kmh 29.59 in1002.0 mb 0.00 in0.0 mm 0.00 in0.0 mm 0.06 in1.5 mm
01:42 PM 41.6°F5.3°C 43.5°F6.4°C 84% 7.1 mph W11.4 kmh W 7.1 mph11.4 kmh 29.59 in1002.0 mb 0.00 in0.0 mm 0.00 in0.0 mm 0.06 in1.5 mm
01:43 PM 41.6°F5.3°C 43.3°F6.3°C 84% 7.2 mph W11.6 kmh W 7.4 mph11.9 kmh 29.59 in1002.0 mb 0.00 in0.0 mm 0.00 in0.0 mm 0.06 in1.5 mm
01:45 PM 41.8°F5.4°C 43.4°F6.3°C 84% 3.6 mph NW5.8 kmh NW 3.7 mph6.0 kmh 29.59 in1002.0 mb 0.00 in0.0 mm 0.00 in0.0 mm 0.08 in2.0 mm
01:46 PM 41.8°F5.4°C 43.4°F6.3°C 84% 4.4 mph NW7.1 kmh NW 4.4 mph7.1 kmh 29.59 in1002.0 mb 0.00 in0.0 mm 0.00 in0.0 mm 0.08 in2.0 mm
01:48 PM 42.4°F5.8°C 43.5°F6.4°C 84% 6.1 mph NW9.8 kmh NW 6.1 mph9.8 kmh 29.59 in1002.0 mb 0.00 in0.0 mm 0.00 in0.0 mm 0.08 in2.0 mm
01:49 PM 42.5°F5.8°C 43.4°F6.3°C 84% 6.6 mph NW10.6 kmh NW 6.7 mph10.8 kmh 29.59 in1002.0 mb 0.00 in0.0 mm 0.00 in0.0 mm 0.08 in2.0 mm
01:51 PM 42.6°F5.9°C 44.0°F6.7°C 85% 8.9 mph W14.3 kmh W 9.0 mph14.5 kmh 29.59 in1002.0 mb 0.00 in0.0 mm 0.00 in0.0 mm 0.08 in2.0 mm
01:52 PM 42.6°F5.9°C 44.1°F6.7°C 86% 7.5 mph SW12.1 kmh SW 7.7 mph12.4 kmh 29.59 in1002.0 mb 0.00 in0.0 mm 0.00 in0.0 mm 0.08 in2.0 mm
01:54 PM 44.2°F6.8°C 44.0°F6.7°C 85% 3.2 mph NNW5.1 kmh NNW 3.2 mph5.1 kmh 29.59 in1002.0 mb 0.00 in0.0 mm 0.00 in0.0 mm 0.08 in2.0 mm
01:55 PM 44.2°F6.8°C 43.6°F6.4°C 85% 2.8 mph W4.5 kmh W 3.0 mph4.8 kmh 29.59 in1002.0 mb 0.00 in0.0 mm 0.00 in0.0 mm 0.08 in2.0 mm
01:57 PM 45.1°F7.3°C 44.3°F6.8°C 86% 3.6 mph WNW5.8 kmh WNW 3.7 mph6.0 kmh 29.59 in1002.0 mb 0.00 in0.0 mm 0.00 in0.0 mm 0.08 in2.0 mm
01:58 PM 45.2°F7.3°C 44.4°F6.9°C 86% 3.7 mph NW6.0 kmh NW 3.8 mph6.1 kmh 29.59 in1002.0 mb 0.00 in0.0 mm 0.00 in0.0 mm 0.08 in2.0 mm
02:00 PM 43.4°F6.3°C 44.1°F6.7°C 84% 5.6 mph 9.0 kmh 5.6 mph9.0 kmh 29.59 in1002.0 mb 0.00 in0.0 mm 0.00 in0.0 mm 0.08 in2.0 mm
02:01 PM 43.3°F6.3°C 43.9°F6.6°C 84% 5.2 mph NNW8.4 kmh NNW 5.4 mph8.7 kmh 29.59 in1002.0 mb 0.00 in0.0 mm 0.00 in0.0 mm 0.08 in2.0 mm
02:03 PM 43.5°F6.4°C 44.1°F6.7°C 84% 1.6 mph WNW2.6 kmh WNW 1.6 mph2.6 kmh 29.59 in1002.0 mb 0.00 in0.0 mm 0.00 in0.0 mm 0.08 in2.0 mm
02:04 PM 43.6°F6.4°C 44.3°F6.8°C 84% 1.9 mph WNW3.1 kmh WNW 2.0 mph3.2 kmh 29.59 in1002.0 mb 0.00 in0.0 mm 0.00 in0.0 mm 0.08 in2.0 mm
02:06 PM 43.5°F6.4°C 44.2°F6.8°C 84% 0.4 mph NW0.6 kmh NW 0.4 mph0.6 kmh 29.59 in1002.0 mb 0.00 in0.0 mm 0.00 in0.0 mm 0.08 in2.0 mm
02:07 PM 43.4°F6.3°C 44.0°F6.7°C 84% 0.9 mph NNW1.4 kmh NNW 0.9 mph1.4 kmh 29.59 in1002.0 mb 0.00 in0.0 mm 0.00 in0.0 mm 0.08 in2.0 mm
02:09 PM 43.0°F6.1°C 44.1°F6.7°C 83% 1.2 mph W1.9 kmh W 1.2 mph1.9 kmh 29.59 in1002.0 mb 0.00 in0.0 mm 0.00 in0.0 mm 0.08 in2.0 mm
02:10 PM 43.0°F6.1°C 43.7°F6.5°C 83% 3.7 mph NW6.0 kmh NW 3.7 mph6.0 kmh 29.59 in1002.0 mb 0.00 in0.0 mm 0.00 in0.0 mm 0.08 in2.0 mm
02:12 PM 42.7°F5.9°C 44.0°F6.7°C 83% 3.2 mph WSW5.1 kmh WSW 3.3 mph5.3 kmh 29.59 in1002.0 mb 0.00 in0.0 mm 0.00 in0.0 mm 0.08 in2.0 mm
02:13 PM 42.7°F5.9°C 43.9°F6.6°C 83% 4.4 mph W7.1 kmh W 4.4 mph7.1 kmh 29.58 in1001.7 mb 0.00 in0.0 mm 0.00 in0.0 mm 0.08 in2.0 mm
02:15 PM 42.6°F5.9°C 43.5°F6.4°C 82% 4.4 mph NW7.1 kmh NW 4.5 mph7.2 kmh 29.59 in1002.0 mb 0.00 in0.0 mm 0.00 in0.0 mm 0.08 in2.0 mm
02:16 PM 42.6°F5.9°C 43.5°F6.4°C 82% 5.3 mph NW8.5 kmh NW 5.3 mph8.5 kmh 29.59 in1002.0 mb 0.00 in0.0 mm 0.00 in0.0 mm 0.08 in2.0 mm
02:18 PM 42.5°F5.8°C 43.8°F6.6°C 83% 2.0 mph NNW3.2 kmh NNW 2.0 mph3.2 kmh 29.59 in1002.0 mb 0.00 in0.0 mm 0.00 in0.0 mm 0.08 in2.0 mm
02:19 PM 42.5°F5.8°C 43.9°F6.6°C 83% 2.1 mph W3.4 kmh W 2.1 mph3.4 kmh 29.59 in1002.0 mb 0.00 in0.0 mm 0.00 in0.0 mm 0.08 in2.0 mm
02:21 PM 42.2°F5.7°C 43.4°F6.3°C 82% 4.4 mph NW7.1 kmh NW 4.4 mph7.1 kmh 29.59 in1002.0 mb 0.00 in0.0 mm 0.00 in0.0 mm 0.08 in2.0 mm
02:22 PM 42.4°F5.8°C 43.6°F6.4°C 82% 4.2 mph NW6.8 kmh NW 4.4 mph7.1 kmh 29.59 in1002.0 mb 0.00 in0.0 mm 0.00 in0.0 mm 0.08 in2.0 mm
02:24 PM 42.2°F5.7°C 43.3°F6.3°C 82% 3.2 mph 5.1 kmh 3.2 mph5.1 kmh 29.59 in1002.0 mb 0.00 in0.0 mm 0.00 in0.0 mm 0.08 in2.0 mm
02:25 PM 42.2°F5.7°C 43.5°F6.4°C 82% 2.8 mph 4.5 kmh 2.8 mph4.5 kmh 29.59 in1002.0 mb 0.00 in0.0 mm 0.00 in0.0 mm 0.08 in2.0 mm
02:27 PM 42.1°F5.6°C 43.6°F6.4°C 82% 4.0 mph NNW6.4 kmh NNW 4.0 mph6.4 kmh 29.59 in1002.0 mb 0.00 in0.0 mm 0.00 in0.0 mm 0.08 in2.0 mm
02:28 PM 42.1°F5.6°C 43.7°F6.5°C 83% 3.5 mph NW5.6 kmh NW 3.5 mph5.6 kmh 29.59 in1002.0 mb 0.00 in0.0 mm 0.00 in0.0 mm 0.08 in2.0 mm
02:30 PM 42.4°F5.8°C 43.5°F6.4°C 82% 2.8 mph NW4.5 kmh NW 2.9 mph4.7 kmh 29.59 in1002.0 mb 0.00 in0.0 mm 0.00 in0.0 mm 0.08 in2.0 mm
02:31 PM 42.4°F5.8°C 43.3°F6.3°C 82% 2.5 mph NW4.0 kmh NW 2.6 mph4.2 kmh 29.59 in1002.0 mb 0.00 in0.0 mm 0.00 in0.0 mm 0.08 in2.0 mm
02:33 PM 42.4°F5.8°C 43.8°F6.6°C 83% 1.2 mph NW1.9 kmh NW 1.2 mph1.9 kmh 29.59 in1002.0 mb 0.00 in0.0 mm 0.00 in0.0 mm 0.08 in2.0 mm
02:34 PM 42.4°F5.8°C 43.6°F6.4°C 83% 0.5 mph W0.8 kmh W 0.5 mph0.8 kmh 29.59 in1002.0 mb 0.00 in0.0 mm 0.00 in0.0 mm 0.08 in2.0 mm
02:36 PM 42.6°F5.9°C 43.7°F6.5°C 83% 4.0 mph WNW6.4 kmh WNW 4.1 mph6.6 kmh 29.59 in1002.0 mb 0.00 in0.0 mm 0.00 in0.0 mm 0.08 in2.0 mm
02:37 PM 42.6°F5.9°C 43.6°F6.4°C 83% 3.7 mph WNW6.0 kmh WNW 3.8 mph6.1 kmh 29.60 in1002.4 mb 0.00 in0.0 mm 0.00 in0.0 mm 0.08 in2.0 mm
02:39 PM 43.1°F6.2°C 43.8°F6.6°C 83% 3.6 mph NW5.8 kmh NW 3.6 mph5.8 kmh 29.59 in1002.0 mb 0.00 in0.0 mm 0.00 in0.0 mm 0.08 in2.0 mm
02:40 PM 43.3°F6.3°C 43.7°F6.5°C 83% 3.1 mph NW5.0 kmh NW 3.2 mph5.1 kmh 29.59 in1002.0 mb 0.00 in0.0 mm 0.00 in0.0 mm 0.08 in2.0 mm
02:42 PM 44.0°F6.7°C 44.0°F6.7°C 83% 3.6 mph WNW5.8 kmh WNW 3.6 mph5.8 kmh 29.59 in1002.0 mb 0.00 in0.0 mm 0.00 in0.0 mm 0.08 in2.0 mm
02:43 PM 44.2°F6.8°C 44.1°F6.7°C 83% 6.1 mph NW9.8 kmh NW 6.2 mph10.0 kmh 29.59 in1002.0 mb 0.00 in0.0 mm 0.00 in0.0 mm 0.08 in2.0 mm
02:45 PM 44.5°F6.9°C 43.6°F6.4°C 82% 9.3 mph NW15.0 kmh NW 9.3 mph15.0 kmh 29.60 in1002.4 mb 0.00 in0.0 mm 0.00 in0.0 mm 0.08 in2.0 mm
02:46 PM 44.5°F6.9°C 43.9°F6.6°C 83% 10.0 mph NW16.1 kmh NW 10.0 mph16.1 kmh 29.60 in1002.4 mb 0.00 in0.0 mm 0.00 in0.0 mm 0.08 in2.0 mm
02:48 PM 44.8°F7.1°C 44.0°F6.7°C 82% 8.7 mph WNW14.0 kmh WNW 8.7 mph14.0 kmh 29.59 in1002.0 mb 0.00 in0.0 mm 0.00 in0.0 mm 0.08 in2.0 mm
02:49 PM 44.8°F7.1°C 44.0°F6.7°C 82% 7.2 mph WNW11.6 kmh WNW 7.2 mph11.6 kmh 29.59 in1002.0 mb 0.00 in0.0 mm 0.00 in0.0 mm 0.08 in2.0 mm
02:51 PM 46.0°F7.8°C 44.2°F6.8°C 82% 6.9 mph WNW11.1 kmh WNW 6.9 mph11.1 kmh 29.59 in1002.0 mb 0.00 in0.0 mm 0.00 in0.0 mm 0.08 in2.0 mm
02:52 PM 46.1°F7.8°C 44.5°F6.9°C 82% 7.1 mph W11.4 kmh W 7.5 mph12.1 kmh 29.59 in1002.0 mb 0.00 in0.0 mm 0.00 in0.0 mm 0.08 in2.0 mm
02:54 PM 46.4°F8.0°C 44.7°F7.1°C 82% 1.6 mph NNW2.6 kmh NNW 1.6 mph2.6 kmh 29.59 in1002.0 mb 0.00 in0.0 mm 0.00 in0.0 mm 0.08 in2.0 mm
02:57 PM 45.8°F7.7°C 44.1°F6.7°C 79% 8.9 mph NW14.3 kmh NW 9.0 mph14.5 kmh 29.59 in1002.0 mb 0.00 in0.0 mm 0.00 in0.0 mm 0.08 in2.0 mm
02:58 PM 45.8°F7.7°C 44.0°F6.7°C 79% 7.9 mph NW12.7 kmh NW 7.9 mph12.7 kmh 29.59 in1002.0 mb 0.00 in0.0 mm 0.00 in0.0 mm 0.08 in2.0 mm
03:00 PM 45.2°F7.3°C 43.4°F6.3°C 78% 2.4 mph NNW3.9 kmh NNW 2.4 mph3.9 kmh 29.59 in1002.0 mb 0.00 in0.0 mm 0.00 in0.0 mm 0.08 in2.0 mm
03:01 PM 45.2°F7.3°C 43.4°F6.3°C 78% 3.6 mph 5.8 kmh 3.6 mph5.8 kmh 29.59 in1002.0 mb 0.00 in0.0 mm 0.00 in0.0 mm 0.08 in2.0 mm
03:03 PM 44.6°F7.0°C 43.0°F6.1°C 77% 2.8 mph NW4.5 kmh NW 2.8 mph4.5 kmh 29.59 in1002.0 mb 0.00 in0.0 mm 0.00 in0.0 mm 0.08 in2.0 mm
03:04 PM 44.6°F7.0°C 42.9°F6.1°C 77% 4.2 mph NW6.8 kmh NW 4.3 mph6.9 kmh 29.59 in1002.0 mb 0.00 in0.0 mm 0.00 in0.0 mm 0.08 in2.0 mm
03:06 PM 44.5°F6.9°C 42.8°F6.0°C 77% 3.2 mph WNW5.1 kmh WNW 3.3 mph5.3 kmh 29.59 in1002.0 mb 0.00 in0.0 mm 0.00 in0.0 mm 0.08 in2.0 mm
03:07 PM 44.5°F6.9°C 42.9°F6.1°C 77% 5.4 mph NNW8.7 kmh NNW 5.4 mph8.7 kmh 29.59 in1002.0 mb 0.00 in0.0 mm 0.00 in0.0 mm 0.08 in2.0 mm
03:09 PM 44.0°F6.7°C 42.8°F6.0°C 77% 3.7 mph WNW6.0 kmh WNW 3.7 mph6.0 kmh 29.59 in1002.0 mb 0.00 in0.0 mm 0.00 in0.0 mm 0.08 in2.0 mm
03:10 PM 44.2°F6.8°C 42.7°F5.9°C 76% 2.2 mph NNW3.5 kmh NNW 2.2 mph3.5 kmh 29.59 in1002.0 mb 0.00 in0.0 mm 0.00 in0.0 mm 0.08 in2.0 mm
03:12 PM 43.9°F6.6°C 42.3°F5.7°C 75% 6.0 mph NNW9.7 kmh NNW 6.1 mph9.8 kmh 29.59 in1002.0 mb 0.00 in0.0 mm 0.00 in0.0 mm 0.08 in2.0 mm
03:13 PM 43.9°F6.6°C 42.2°F5.7°C 75% 7.6 mph NNW12.2 kmh NNW 7.6 mph12.2 kmh 29.59 in1002.0 mb 0.00 in0.0 mm 0.00 in0.0 mm 0.08 in2.0 mm
03:15 PM 43.8°F6.6°C 42.1°F5.6°C 75% 4.0 mph W6.4 kmh W 4.1 mph6.6 kmh 29.59 in1002.0 mb 0.00 in0.0 mm 0.00 in0.0 mm 0.08 in2.0 mm
03:16 PM 43.8°F6.6°C 42.4°F5.8°C 76% 4.4 mph W7.1 kmh W 4.4 mph7.1 kmh 29.59 in1002.0 mb 0.00 in0.0 mm 0.00 in0.0 mm 0.08 in2.0 mm
03:18 PM 43.7°F6.5°C 42.2°F5.7°C 75% 4.4 mph WNW7.1 kmh WNW 4.5 mph7.2 kmh 29.60 in1002.4 mb 0.00 in0.0 mm 0.00 in0.0 mm 0.08 in2.0 mm
03:19 PM 43.7°F6.5°C 42.3°F5.7°C 75% 4.6 mph WNW7.4 kmh WNW 4.6 mph7.4 kmh 29.60 in1002.4 mb 0.00 in0.0 mm 0.00 in0.0 mm 0.08 in2.0 mm
03:21 PM 43.8°F6.6°C 42.5°F5.8°C 76% 3.6 mph WSW5.8 kmh WSW 3.7 mph6.0 kmh 29.60 in1002.4 mb 0.00 in0.0 mm 0.00 in0.0 mm 0.08 in2.0 mm
03:22 PM 43.8°F6.6°C 42.3°F5.7°C 76% 3.2 mph WSW5.1 kmh WSW 3.2 mph5.1 kmh 29.60 in1002.4 mb 0.00 in0.0 mm 0.00 in0.0 mm 0.08 in2.0 mm
03:24 PM 43.9°F6.6°C 42.5°F5.8°C 76% 2.4 mph W3.9 kmh W 2.4 mph3.9 kmh 29.60 in1002.4 mb 0.00 in0.0 mm 0.00 in0.0 mm 0.08 in2.0 mm
03:25 PM 43.9°F6.6°C 42.6°F5.9°C 76% 0.9 mph NW1.4 kmh NW 1.0 mph1.6 kmh 29.60 in1002.4 mb 0.00 in0.0 mm 0.00 in0.0 mm 0.08 in2.0 mm
03:27 PM 43.9°F6.6°C 42.6°F5.9°C 76% 0.8 mph NW1.3 kmh NW 0.8 mph1.3 kmh 29.60 in1002.4 mb 0.00 in0.0 mm 0.00 in0.0 mm 0.08 in2.0 mm
03:28 PM 44.0°F6.7°C 42.3°F5.7°C 76% 1.6 mph WNW2.6 kmh WNW 1.6 mph2.6 kmh 29.60 in1002.4 mb 0.00 in0.0 mm 0.00 in0.0 mm 0.08 in2.0 mm
03:30 PM 44.5°F6.9°C 42.1°F5.6°C 75% 6.1 mph WNW9.8 kmh WNW 6.1 mph9.8 kmh 29.60 in1002.4 mb 0.00 in0.0 mm 0.00 in0.0 mm 0.08 in2.0 mm
03:31 PM 44.5°F6.9°C 42.3°F5.7°C 76% 6.1 mph NW9.8 kmh NW 6.1 mph9.8 kmh 29.60 in1002.4 mb 0.00 in0.0 mm 0.00 in0.0 mm 0.08 in2.0 mm
03:33 PM 43.8°F6.6°C 41.7°F5.4°C 75% 6.9 mph WNW11.1 kmh WNW 6.9 mph11.1 kmh 29.60 in1002.4 mb 0.00 in0.0 mm 0.00 in0.0 mm 0.08 in2.0 mm
03:34 PM 43.8°F6.6°C 42.0°F5.6°C 75% 5.1 mph W8.2 kmh W 5.1 mph8.2 kmh 29.60 in1002.4 mb 0.00 in0.0 mm 0.00 in0.0 mm 0.08 in2.0 mm
03:36 PM 43.5°F6.4°C 41.9°F5.5°C 75% 6.4 mph WNW10.3 kmh WNW 6.4 mph10.3 kmh 29.60 in1002.4 mb 0.00 in0.0 mm 0.00 in0.0 mm 0.08 in2.0 mm
03:37 PM 43.5°F6.4°C 41.8°F5.4°C 75% 9.4 mph NW15.1 kmh NW 9.5 mph15.3 kmh 29.60 in1002.4 mb 0.00 in0.0 mm 0.00 in0.0 mm 0.08 in2.0 mm
03:39 PM 43.5°F6.4°C 41.4°F5.2°C 74% 8.9 mph NW14.3 kmh NW 8.9 mph14.3 kmh 29.60 in1002.4 mb 0.00 in0.0 mm 0.00 in0.0 mm 0.08 in2.0 mm
03:40 PM 43.5°F6.4°C 41.6°F5.3°C 75% 7.0 mph NW11.3 kmh NW 7.0 mph11.3 kmh 29.60 in1002.4 mb 0.00 in0.0 mm 0.00 in0.0 mm 0.08 in2.0 mm
03:42 PM 43.7°F6.5°C 41.7°F5.4°C 75% 6.7 mph W10.8 kmh W 6.8 mph10.9 kmh 29.60 in1002.4 mb 0.00 in0.0 mm 0.00 in0.0 mm 0.08 in2.0 mm
03:43 PM 43.7°F6.5°C 41.8°F5.4°C 75% 8.2 mph W13.2 kmh W 8.7 mph14.0 kmh 29.60 in1002.4 mb 0.00 in0.0 mm 0.00 in0.0 mm 0.08 in2.0 mm
03:45 PM 43.8°F6.6°C 41.9°F5.5°C 75% 8.1 mph NNW13.0 kmh NNW 8.1 mph13.0 kmh 29.60 in1002.4 mb 0.00 in0.0 mm 0.00 in0.0 mm 0.08 in2.0 mm
03:46 PM 43.8°F6.6°C 41.9°F5.5°C 75% 10.6 mph NW17.1 kmh NW 10.6 mph17.1 kmh 29.60 in1002.4 mb 0.00 in0.0 mm 0.00 in0.0 mm 0.08 in2.0 mm
03:48 PM 44.2°F6.8°C 41.7°F5.4°C 75% 8.4 mph WSW13.5 kmh WSW 8.4 mph13.5 kmh 29.60 in1002.4 mb 0.00 in0.0 mm 0.00 in0.0 mm 0.08 in2.0 mm
03:49 PM 44.2°F6.8°C 41.8°F5.4°C 75% 8.3 mph WNW13.4 kmh WNW 8.7 mph14.0 kmh 29.60 in1002.4 mb 0.00 in0.0 mm 0.00 in0.0 mm 0.08 in2.0 mm
03:51 PM 44.0°F6.7°C 41.6°F5.3°C 75% 4.0 mph NW6.4 kmh NW 4.1 mph6.6 kmh 29.60 in1002.4 mb 0.00 in0.0 mm 0.00 in0.0 mm 0.08 in2.0 mm
03:52 PM 44.0°F6.7°C 41.7°F5.4°C 75% 9.2 mph WNW14.8 kmh WNW 9.2 mph14.8 kmh 29.60 in1002.4 mb 0.00 in0.0 mm 0.00 in0.0 mm 0.08 in2.0 mm
03:54 PM 44.3°F6.8°C 41.8°F5.4°C 76% 10.1 mph WNW16.3 kmh WNW 10.2 mph16.4 kmh 29.60 in1002.4 mb 0.00 in0.0 mm 0.00 in0.0 mm 0.08 in2.0 mm
03:55 PM 44.2°F6.8°C 41.9°F5.5°C 76% 8.3 mph WNW13.4 kmh WNW 8.3 mph13.4 kmh 29.61 in1002.7 mb 0.00 in0.0 mm 0.00 in0.0 mm 0.08 in2.0 mm
03:57 PM 43.8°F6.6°C 42.1°F5.6°C 76% 2.8 mph NW4.5 kmh NW 2.9 mph4.7 kmh 29.60 in1002.4 mb 0.00 in0.0 mm 0.00 in0.0 mm 0.08 in2.0 mm
03:58 PM 43.9°F6.6°C 42.1°F5.6°C 76% 2.5 mph WNW4.0 kmh WNW 2.5 mph4.0 kmh 29.60 in1002.4 mb 0.00 in0.0 mm 0.00 in0.0 mm 0.08 in2.0 mm
04:00 PM 43.8°F6.6°C 41.6°F5.3°C 75% 6.8 mph NW10.9 kmh NW 6.8 mph10.9 kmh 29.61 in1002.7 mb 0.00 in0.0 mm 0.00 in0.0 mm 0.08 in2.0 mm
04:01 PM 43.8°F6.6°C 41.7°F5.4°C 76% 5.9 mph NW9.5 kmh NW 5.9 mph9.5 kmh 29.60 in1002.4 mb 0.00 in0.0 mm 0.00 in0.0 mm 0.08 in2.0 mm
04:03 PM 43.8°F6.6°C 42.1°F5.6°C 76% 3.2 mph NW5.1 kmh NW 3.2 mph5.1 kmh 29.61 in1002.7 mb 0.00 in0.0 mm 0.00 in0.0 mm 0.08 in2.0 mm
04:04 PM 43.8°F6.6°C 42.1°F5.6°C 76% 3.4 mph NNW5.5 kmh NNW 3.4 mph5.5 kmh 29.60 in1002.4 mb 0.00 in0.0 mm 0.00 in0.0 mm 0.08 in2.0 mm
04:06 PM 43.5°F6.4°C 42.4°F5.8°C 76% 3.6 mph W5.8 kmh W 3.7 mph6.0 kmh 29.60 in1002.4 mb 0.00 in0.0 mm 0.00 in0.0 mm 0.08 in2.0 mm
04:07 PM 43.5°F6.4°C 42.2°F5.7°C 77% 3.4 mph W5.5 kmh W 3.5 mph5.6 kmh 29.61 in1002.7 mb 0.00 in0.0 mm 0.00 in0.0 mm 0.08 in2.0 mm
04:09 PM 43.5°F6.4°C 42.2°F5.7°C 76% 5.6 mph W9.0 kmh W 5.6 mph9.0 kmh 29.60 in1002.4 mb 0.00 in0.0 mm 0.00 in0.0 mm 0.08 in2.0 mm
04:10 PM 43.5°F6.4°C 42.0°F5.6°C 76% 5.2 mph W8.4 kmh W 5.3 mph8.5 kmh 29.61 in1002.7 mb 0.00 in0.0 mm 0.00 in0.0 mm 0.08 in2.0 mm
04:12 PM 43.3°F6.3°C 42.6°F5.9°C 76% 2.8 mph WNW4.5 kmh WNW 2.8 mph4.5 kmh 29.61 in1002.7 mb 0.00 in0.0 mm 0.00 in0.0 mm 0.08 in2.0 mm
04:13 PM 43.3°F6.3°C 42.2°F5.7°C 76% 2.1 mph WNW3.4 kmh WNW 2.2 mph3.5 kmh 29.61 in1002.7 mb 0.00 in0.0 mm 0.00 in0.0 mm 0.08 in2.0 mm
04:15 PM 43.1°F6.2°C 42.5°F5.8°C 76% 2.8 mph NNW4.5 kmh NNW 2.9 mph4.7 kmh 29.62 in1003.0 mb 0.00 in0.0 mm 0.00 in0.0 mm 0.08 in2.0 mm
04:16 PM 43.3°F6.3°C 42.4°F5.8°C 76% 4.4 mph W7.1 kmh W 4.4 mph7.1 kmh 29.61 in1002.7 mb 0.00 in0.0 mm 0.00 in0.0 mm 0.08 in2.0 mm
04:18 PM 43.7°F6.5°C 42.2°F5.7°C 76% 4.0 mph WNW6.4 kmh WNW 4.1 mph6.6 kmh 29.62 in1003.0 mb 0.00 in0.0 mm 0.00 in0.0 mm 0.08 in2.0 mm
04:19 PM 43.8°F6.6°C 42.2°F5.7°C 76% 7.9 mph W12.7 kmh W 7.9 mph12.7 kmh 29.61 in1002.7 mb 0.00 in0.0 mm 0.00 in0.0 mm 0.08 in2.0 mm
04:21 PM 44.2°F6.8°C 42.4°F5.8°C 77% 9.2 mph W14.8 kmh W 9.2 mph14.8 kmh 29.62 in1003.0 mb 0.00 in0.0 mm 0.00 in0.0 mm 0.08 in2.0 mm
04:22 PM 44.2°F6.8°C 42.5°F5.8°C 77% 11.9 mph WNW19.2 kmh WNW 12.0 mph19.3 kmh 29.62 in1003.0 mb 0.00 in0.0 mm 0.00 in0.0 mm 0.08 in2.0 mm
04:24 PM 43.5°F6.4°C 42.2°F5.7°C 76% 8.0 mph W12.9 kmh W 8.0 mph12.9 kmh 29.62 in1003.0 mb 0.00 in0.0 mm 0.00 in0.0 mm 0.08 in2.0 mm
04:25 PM 43.5°F6.4°C 42.2°F5.7°C 76% 9.4 mph W15.1 kmh W 9.4 mph15.1 kmh 29.62 in1003.0 mb 0.00 in0.0 mm 0.00 in0.0 mm 0.08 in2.0 mm
04:27 PM 43.0°F6.1°C 42.4°F5.8°C 76% 10.3 mph W16.6 kmh W 10.4 mph16.7 kmh 29.62 in1003.0 mb 0.00 in0.0 mm 0.00 in0.0 mm 0.08 in2.0 mm
04:28 PM 43.0°F6.1°C 42.0°F5.6°C 75% 9.8 mph WNW15.8 kmh WNW 10.0 mph16.1 kmh 29.62 in1003.0 mb 0.00 in0.0 mm 0.00 in0.0 mm 0.08 in2.0 mm
04:30 PM 43.0°F6.1°C 42.1°F5.6°C 76% 6.1 mph WSW9.8 kmh WSW 6.1 mph9.8 kmh 29.62 in1003.0 mb 0.00 in0.0 mm 0.00 in0.0 mm 0.08 in2.0 mm
04:31 PM 43.0°F6.1°C 42.1°F5.6°C 76% 4.3 mph W6.9 kmh W 4.3 mph6.9 kmh 29.62 in1003.0 mb 0.00 in0.0 mm 0.00 in0.0 mm 0.08 in2.0 mm
04:33 PM 42.9°F6.1°C 42.1°F5.6°C 76% 5.3 mph WNW8.5 kmh WNW 5.3 mph8.5 kmh 29.62 in1003.0 mb 0.00 in0.0 mm 0.00 in0.0 mm 0.08 in2.0 mm
04:34 PM 42.8°F6.0°C 42.1°F5.6°C 76% 5.7 mph WSW9.2 kmh WSW 5.7 mph9.2 kmh 29.62 in1003.0 mb 0.00 in0.0 mm 0.00 in0.0 mm 0.08 in2.0 mm
04:36 PM 42.7°F5.9°C 42.0°F5.6°C 77% 4.4 mph W7.1 kmh W 4.4 mph7.1 kmh 29.62 in1003.0 mb 0.00 in0.0 mm 0.00 in0.0 mm 0.08 in2.0 mm
04:37 PM 42.7°F5.9°C 42.0°F5.6°C 76% 2.7 mph SW4.3 kmh SW 2.9 mph4.7 kmh 29.62 in1003.0 mb 0.00 in0.0 mm 0.00 in0.0 mm 0.08 in2.0 mm
04:39 PM 42.6°F5.9°C 42.1°F5.6°C 77% 3.2 mph WSW5.1 kmh WSW 3.2 mph5.1 kmh 29.62 in1003.0 mb 0.00 in0.0 mm 0.00 in0.0 mm 0.08 in2.0 mm
04:40 PM 42.6°F5.9°C 42.1°F5.6°C 77% 2.7 mph WSW4.3 kmh WSW 2.7 mph4.3 kmh 29.62 in1003.0 mb 0.00 in0.0 mm 0.00 in0.0 mm 0.08 in2.0 mm
04:42 PM 42.5°F5.8°C 42.2°F5.7°C 77% 7.1 mph WSW11.4 kmh WSW 7.2 mph11.6 kmh 29.62 in1003.0 mb 0.00 in0.0 mm 0.00 in0.0 mm 0.08 in2.0 mm
04:45 PM 42.2°F5.7°C 42.3°F5.7°C 77% 6.4 mph WNW10.3 kmh WNW 6.5 mph10.5 kmh 29.62 in1003.0 mb 0.00 in0.0 mm 0.00 in0.0 mm 0.08 in2.0 mm
04:46 PM 42.2°F5.7°C 42.0°F5.6°C 77% 5.9 mph W9.5 kmh W 5.9 mph9.5 kmh 29.62 in1003.0 mb 0.00 in0.0 mm 0.00 in0.0 mm 0.08 in2.0 mm
04:48 PM 42.2°F5.7°C 42.3°F5.7°C 77% 4.8 mph NW7.7 kmh NW 4.8 mph7.7 kmh 29.62 in1003.0 mb 0.00 in0.0 mm 0.00 in0.0 mm 0.08 in2.0 mm
04:49 PM 42.2°F5.7°C 42.2°F5.7°C 77% 4.9 mph NW7.9 kmh NW 4.9 mph7.9 kmh 29.62 in1003.0 mb 0.00 in0.0 mm 0.00 in0.0 mm 0.08 in2.0 mm
04:51 PM 42.2°F5.7°C 42.1°F5.6°C 77% 5.6 mph W9.0 kmh W 5.6 mph9.0 kmh 29.62 in1003.0 mb 0.00 in0.0 mm 0.00 in0.0 mm 0.08 in2.0 mm
04:52 PM 42.2°F5.7°C 42.2°F5.7°C 78% 6.1 mph W9.8 kmh W 6.1 mph9.8 kmh 29.62 in1003.0 mb 0.00 in0.0 mm 0.00 in0.0 mm 0.08 in2.0 mm
04:54 PM 42.2°F5.7°C 42.3°F5.7°C 78% 3.6 mph W5.8 kmh W 3.7 mph6.0 kmh 29.63 in1003.4 mb 0.00 in0.0 mm 0.00 in0.0 mm 0.08 in2.0 mm
04:55 PM 42.2°F5.7°C 42.4°F5.8°C 78% 2.9 mph W4.7 kmh W 2.9 mph4.7 kmh 29.62 in1003.0 mb 0.00 in0.0 mm 0.00 in0.0 mm 0.08 in2.0 mm
04:57 PM 42.1°F5.6°C 42.5°F5.8°C 78% 1.6 mph NW2.6 kmh NW 1.6 mph2.6 kmh 29.62 in1003.0 mb 0.00 in0.0 mm 0.00 in0.0 mm 0.08 in2.0 mm
04:58 PM 42.1°F5.6°C 42.1°F5.6°C 77% 5.6 mph NW9.0 kmh NW 5.6 mph9.0 kmh 29.62 in1003.0 mb 0.00 in0.0 mm 0.00 in0.0 mm 0.08 in2.0 mm
05:01 PM 42.1°F5.6°C 42.2°F5.7°C 78% 4.4 mph WNW7.1 kmh WNW 4.4 mph7.1 kmh 29.62 in1003.0 mb 0.00 in0.0 mm 0.00 in0.0 mm 0.08 in2.0 mm
05:03 PM 42.0°F5.6°C 42.3°F5.7°C 78% 3.6 mph NNW5.8 kmh NNW 3.7 mph6.0 kmh 29.62 in1003.0 mb 0.00 in0.0 mm 0.00 in0.0 mm 0.08 in2.0 mm
05:04 PM 42.0°F5.6°C 42.3°F5.7°C 78% 4.3 mph W6.9 kmh W 4.5 mph7.2 kmh 29.62 in1003.0 mb 0.00 in0.0 mm 0.00 in0.0 mm 0.08 in2.0 mm
05:06 PM 42.0°F5.6°C 42.3°F5.7°C 78% 5.6 mph W9.0 kmh W 5.6 mph9.0 kmh 29.62 in1003.0 mb 0.00 in0.0 mm 0.00 in0.0 mm 0.08 in2.0 mm
05:07 PM 42.0°F5.6°C 42.3°F5.7°C 78% 4.5 mph W7.2 kmh W 4.5 mph7.2 kmh 29.62 in1003.0 mb 0.00 in0.0 mm 0.00 in0.0 mm 0.08 in2.0 mm
05:09 PM 42.0°F5.6°C 41.9°F5.5°C 78% 2.4 mph SW3.9 kmh SW 2.4 mph3.9 kmh 29.62 in1003.0 mb 0.00 in0.0 mm 0.00 in0.0 mm 0.08 in2.0 mm
05:10 PM 42.0°F5.6°C 42.1°F5.6°C 78% 2.5 mph W4.0 kmh W 2.5 mph4.0 kmh 29.62 in1003.0 mb 0.00 in0.0 mm 0.00 in0.0 mm 0.08 in2.0 mm
05:12 PM 41.9°F5.5°C 42.0°F5.6°C 78% 7.3 mph WSW11.7 kmh WSW 7.3 mph11.7 kmh 29.62 in1003.0 mb 0.00 in0.0 mm 0.00 in0.0 mm 0.08 in2.0 mm
05:13 PM 41.9°F5.5°C 42.0°F5.6°C 78% 6.6 mph WSW10.6 kmh WSW 6.6 mph10.6 kmh 29.62 in1003.0 mb 0.00 in0.0 mm 0.00 in0.0 mm 0.08 in2.0 mm
05:15 PM 41.9°F5.5°C 42.0°F5.6°C 78% 5.2 mph SW8.4 kmh SW 5.2 mph8.4 kmh 29.62 in1003.0 mb 0.00 in0.0 mm 0.00 in0.0 mm 0.08 in2.0 mm
05:16 PM 41.9°F5.5°C 41.8°F5.4°C 77% 4.6 mph SW7.4 kmh SW 4.6 mph7.4 kmh 29.62 in1003.0 mb 0.00 in0.0 mm 0.00 in0.0 mm 0.08 in2.0 mm
05:18 PM 41.9°F5.5°C 42.0°F5.6°C 78% 7.2 mph NNW11.6 kmh NNW 7.2 mph11.6 kmh 29.62 in1003.0 mb 0.00 in0.0 mm 0.00 in0.0 mm 0.08 in2.0 mm
05:19 PM 41.9°F5.5°C 42.1°F5.6°C 78% 8.8 mph W14.2 kmh W 8.8 mph14.2 kmh 29.62 in1003.0 mb 0.00 in0.0 mm 0.00 in0.0 mm 0.08 in2.0 mm
05:21 PM 41.9°F5.5°C 42.0°F5.6°C 78% 4.8 mph NNW7.7 kmh NNW 4.8 mph7.7 kmh 29.62 in1003.0 mb 0.00 in0.0 mm 0.00 in0.0 mm 0.08 in2.0 mm
05:22 PM 41.9°F5.5°C 42.0°F5.6°C 78% 7.8 mph W12.6 kmh W 7.8 mph12.6 kmh 29.62 in1003.0 mb 0.00 in0.0 mm 0.00 in0.0 mm 0.08 in2.0 mm
05:24 PM 41.9°F5.5°C 41.8°F5.4°C 78% 7.3 mph W11.7 kmh W 7.3 mph11.7 kmh 29.62 in1003.0 mb 0.00 in0.0 mm 0.00 in0.0 mm 0.08 in2.0 mm
05:25 PM 41.9°F5.5°C 42.1°F5.6°C 78% 5.6 mph W9.0 kmh W 5.7 mph9.2 kmh 29.62 in1003.0 mb 0.00 in0.0 mm 0.00 in0.0 mm 0.08 in2.0 mm
05:27 PM 41.8°F5.4°C 42.0°F5.6°C 78% 4.4 mph WNW7.1 kmh WNW 4.5 mph7.2 kmh 29.62 in1003.0 mb 0.00 in0.0 mm 0.00 in0.0 mm 0.08 in2.0 mm
05:30 PM 41.9°F5.5°C 41.7°F5.4°C 77% 7.7 mph WSW12.4 kmh WSW 7.7 mph12.4 kmh 29.62 in1003.0 mb 0.00 in0.0 mm 0.00 in0.0 mm 0.08 in2.0 mm
05:31 PM 41.9°F5.5°C 41.8°F5.4°C 77% 7.3 mph W11.7 kmh W 7.4 mph11.9 kmh 29.63 in1003.4 mb 0.00 in0.0 mm 0.00 in0.0 mm 0.08 in2.0 mm
05:33 PM 41.8°F5.4°C 42.0°F5.6°C 78% 6.9 mph W11.1 kmh W 6.9 mph11.1 kmh 29.63 in1003.4 mb 0.00 in0.0 mm 0.00 in0.0 mm 0.08 in2.0 mm
05:34 PM 41.8°F5.4°C 41.9°F5.5°C 78% 5.1 mph W8.2 kmh W 5.1 mph8.2 kmh 29.63 in1003.4 mb 0.00 in0.0 mm 0.00 in0.0 mm 0.08 in2.0 mm
05:36 PM 41.8°F5.4°C 41.9°F5.5°C 78% 3.2 mph WSW5.1 kmh WSW 3.2 mph5.1 kmh 29.63 in1003.4 mb 0.00 in0.0 mm 0.00 in0.0 mm 0.08 in2.0 mm
05:37 PM 41.8°F5.4°C 41.8°F5.4°C 78% 3.0 mph WSW4.8 kmh WSW 3.0 mph4.8 kmh 29.63 in1003.4 mb 0.00 in0.0 mm 0.00 in0.0 mm 0.08 in2.0 mm
05:39 PM 41.7°F5.4°C 42.0°F5.6°C 78% 5.7 mph WSW9.2 kmh WSW 5.7 mph9.2 kmh 29.63 in1003.4 mb 0.00 in0.0 mm 0.00 in0.0 mm 0.08 in2.0 mm
05:40 PM 41.7°F5.4°C 41.8°F5.4°C 78% 3.9 mph WSW6.3 kmh WSW 4.1 mph6.6 kmh 29.63 in1003.4 mb 0.00 in0.0 mm 0.00 in0.0 mm 0.08 in2.0 mm
05:42 PM 41.7°F5.4°C 41.6°F5.3°C 78% 6.1 mph NNW9.8 kmh NNW 6.1 mph9.8 kmh 29.63 in1003.4 mb 0.00 in0.0 mm 0.00 in0.0 mm 0.08 in2.0 mm
05:43 PM 41.7°F5.4°C 41.5°F5.3°C 77% 5.5 mph NNW8.9 kmh NNW 5.5 mph8.9 kmh 29.63 in1003.4 mb 0.00 in0.0 mm 0.00 in0.0 mm 0.08 in2.0 mm
05:46 PM 41.7°F5.4°C 41.8°F5.4°C 77% 2.8 mph W4.5 kmh W 2.8 mph4.5 kmh 29.63 in1003.4 mb 0.00 in0.0 mm 0.00 in0.0 mm 0.08 in2.0 mm
05:48 PM 41.6°F5.3°C 41.9°F5.5°C 78% 0.8 mph W1.3 kmh W 0.8 mph1.3 kmh 29.63 in1003.4 mb 0.00 in0.0 mm 0.00 in0.0 mm 0.08 in2.0 mm
05:49 PM 41.6°F5.3°C 41.7°F5.4°C 77% 2.1 mph W3.4 kmh W 2.1 mph3.4 kmh 29.63 in1003.4 mb 0.00 in0.0 mm 0.00 in0.0 mm 0.08 in2.0 mm
05:51 PM 41.6°F5.3°C 41.7°F5.4°C 77% 2.0 mph NNW3.2 kmh NNW 2.0 mph3.2 kmh 29.63 in1003.4 mb 0.00 in0.0 mm 0.00 in0.0 mm 0.08 in2.0 mm
05:52 PM 41.6°F5.3°C 41.6°F5.3°C 77% 3.4 mph WSW5.5 kmh WSW 3.4 mph5.5 kmh 29.63 in1003.4 mb 0.00 in0.0 mm 0.00 in0.0 mm 0.08 in2.0 mm
05:54 PM 41.6°F5.3°C 41.8°F5.4°C 78% 2.8 mph WSW4.5 kmh WSW 2.8 mph4.5 kmh 29.63 in1003.4 mb 0.00 in0.0 mm 0.00 in0.0 mm 0.08 in2.0 mm
05:55 PM 41.6°F5.3°C 41.4°F5.2°C 77% 3.3 mph WSW5.3 kmh WSW 3.3 mph5.3 kmh 29.63 in1003.4 mb 0.00 in0.0 mm 0.00 in0.0 mm 0.08 in2.0 mm
05:57 PM 41.6°F5.3°C 41.7°F5.4°C 78% 4.4 mph WSW7.1 kmh WSW 4.5 mph7.2 kmh 29.63 in1003.4 mb 0.00 in0.0 mm 0.00 in0.0 mm 0.08 in2.0 mm
05:58 PM 41.6°F5.3°C 41.7°F5.4°C 78% 4.7 mph W7.6 kmh W 4.7 mph7.6 kmh 29.63 in1003.4 mb 0.00 in0.0 mm 0.00 in0.0 mm 0.08 in2.0 mm
06:00 PM 41.5°F5.3°C 41.6°F5.3°C 77% 4.0 mph WSW6.4 kmh WSW 4.0 mph6.4 kmh 29.63 in1003.4 mb 0.00 in0.0 mm 0.00 in0.0 mm 0.08 in2.0 mm
06:01 PM 41.5°F5.3°C 41.6°F5.3°C 78% 4.2 mph W6.8 kmh W 4.2 mph6.8 kmh 29.63 in1003.4 mb 0.00 in0.0 mm 0.00 in0.0 mm 0.08 in2.0 mm
06:03 PM 41.3°F5.2°C 41.6°F5.3°C 78% 1.2 mph WNW1.9 kmh WNW 1.2 mph1.9 kmh 29.63 in1003.4 mb 0.00 in0.0 mm 0.00 in0.0 mm 0.08 in2.0 mm
06:04 PM 41.5°F5.3°C 41.7°F5.4°C 78% 1.6 mph W2.6 kmh W 1.6 mph2.6 kmh 29.63 in1003.4 mb 0.00 in0.0 mm 0.00 in0.0 mm 0.08 in2.0 mm
06:06 PM 41.5°F5.3°C 41.2°F5.1°C 77% 4.0 mph NNW6.4 kmh NNW 4.1 mph6.6 kmh 29.63 in1003.4 mb 0.00 in0.0 mm 0.00 in0.0 mm 0.08 in2.0 mm
06:09 PM 41.3°F5.2°C 41.6°F5.3°C 78% 3.2 mph WNW5.1 kmh WNW 3.3 mph5.3 kmh 29.63 in1003.4 mb 0.00 in0.0 mm 0.00 in0.0 mm 0.08 in2.0 mm
06:10 PM 41.3°F5.2°C 41.6°F5.3°C 78% 2.8 mph WNW4.5 kmh WNW 2.8 mph4.5 kmh 29.63 in1003.4 mb 0.00 in0.0 mm 0.00 in0.0 mm 0.08 in2.0 mm
06:12 PM 41.1°F5.1°C 41.7°F5.4°C 78% 7.3 mph WSW11.7 kmh WSW 7.3 mph11.7 kmh 29.63 in1003.4 mb 0.00 in0.0 mm 0.00 in0.0 mm 0.08 in2.0 mm
06:13 PM 41.1°F5.1°C 41.4°F5.2°C 78% 5.8 mph WSW9.3 kmh WSW 6.0 mph9.7 kmh 29.63 in1003.4 mb 0.00 in0.0 mm 0.00 in0.0 mm 0.08 in2.0 mm
06:15 PM 41.2°F5.1°C 41.6°F5.3°C 78% 6.1 mph WNW9.8 kmh WNW 6.1 mph9.8 kmh 29.63 in1003.4 mb 0.00 in0.0 mm 0.00 in0.0 mm 0.08 in2.0 mm
06:16 PM 41.2°F5.1°C 41.3°F5.2°C 78% 4.9 mph WNW7.9 kmh WNW 5.2 mph8.4 kmh 29.63 in1003.4 mb 0.00 in0.0 mm 0.00 in0.0 mm 0.08 in2.0 mm
06:18 PM 41.2°F5.1°C 41.4°F5.2°C 78% 6.0 mph WSW9.7 kmh WSW 6.0 mph9.7 kmh 29.63 in1003.4 mb 0.00 in0.0 mm 0.00 in0.0 mm 0.08 in2.0 mm
06:19 PM 41.1°F5.1°C 41.3°F5.2°C 77% 4.0 mph SW6.4 kmh SW 4.1 mph6.6 kmh 29.63 in1003.4 mb 0.00 in0.0 mm 0.00 in0.0 mm 0.08 in2.0 mm
06:21 PM 41.0°F5.0°C 41.2°F5.1°C 78% 4.4 mph W7.1 kmh W 4.5 mph7.2 kmh 29.63 in1003.4 mb 0.00 in0.0 mm 0.00 in0.0 mm 0.08 in2.0 mm
06:22 PM 41.0°F5.0°C 41.4°F5.2°C 78% 3.3 mph WSW5.3 kmh WSW 3.3 mph5.3 kmh 29.63 in1003.4 mb 0.00 in0.0 mm 0.00 in0.0 mm 0.08 in2.0 mm
06:24 PM 41.1°F5.1°C 41.2°F5.1°C 78% 6.4 mph NNW10.3 kmh NNW 6.4 mph10.3 kmh 29.63 in1003.4 mb 0.00 in0.0 mm 0.00 in0.0 mm 0.08 in2.0 mm
06:25 PM 41.1°F5.1°C 41.2°F5.1°C 77% 7.9 mph WSW12.7 kmh WSW 8.1 mph13.0 kmh 29.63 in1003.4 mb 0.00 in0.0 mm 0.00 in0.0 mm 0.08 in2.0 mm
06:27 PM 41.1°F5.1°C 41.4°F5.2°C 78% 9.7 mph WNW15.6 kmh WNW 9.8 mph15.8 kmh 29.63 in1003.4 mb 0.00 in0.0 mm 0.00 in0.0 mm 0.08 in2.0 mm
06:28 PM 41.1°F5.1°C 41.2°F5.1°C 78% 10.4 mph WNW16.7 kmh WNW 10.4 mph16.7 kmh 29.63 in1003.4 mb 0.00 in0.0 mm 0.00 in0.0 mm 0.08 in2.0 mm
06:30 PM 41.0°F5.0°C 41.2°F5.1°C 78% 4.0 mph NW6.4 kmh NW 4.1 mph6.6 kmh 29.63 in1003.4 mb 0.00 in0.0 mm 0.00 in0.0 mm 0.08 in2.0 mm
06:31 PM 41.0°F5.0°C 41.3°F5.2°C 78% 3.3 mph W5.3 kmh W 3.3 mph5.3 kmh 29.63 in1003.4 mb 0.00 in0.0 mm 0.00 in0.0 mm 0.08 in2.0 mm
06:33 PM 41.0°F5.0°C 41.3°F5.2°C 78% 8.8 mph W14.2 kmh W 8.8 mph14.2 kmh 29.63 in1003.4 mb 0.00 in0.0 mm 0.00 in0.0 mm 0.08 in2.0 mm
06:34 PM 41.0°F5.0°C 41.0°F5.0°C 77% 6.8 mph WSW10.9 kmh WSW 6.9 mph11.1 kmh 29.64 in1003.7 mb 0.00 in0.0 mm 0.00 in0.0 mm 0.08 in2.0 mm
06:36 PM 41.0°F5.0°C 41.1°F5.1°C 78% 4.4 mph W7.1 kmh W 4.5 mph7.2 kmh 29.64 in1003.7 mb 0.00 in0.0 mm 0.00 in0.0 mm 0.08 in2.0 mm
06:37 PM 41.0°F5.0°C 41.2°F5.1°C 78% 5.8 mph W9.3 kmh W 5.9 mph9.5 kmh 29.64 in1003.7 mb 0.00 in0.0 mm 0.00 in0.0 mm 0.08 in2.0 mm
06:39 PM 41.0°F5.0°C 41.2°F5.1°C 78% 3.2 mph W5.1 kmh W 3.2 mph5.1 kmh 29.64 in1003.7 mb 0.00 in0.0 mm 0.00 in0.0 mm 0.08 in2.0 mm
06:40 PM 41.0°F5.0°C 41.3°F5.2°C 78% 4.7 mph NW7.6 kmh NW 4.7 mph7.6 kmh 29.64 in1003.7 mb 0.00 in0.0 mm 0.00 in0.0 mm 0.08 in2.0 mm
06:42 PM 41.0°F5.0°C 41.4°F5.2°C 78% 7.3 mph W11.7 kmh W 7.3 mph11.7 kmh 29.64 in1003.7 mb 0.00 in0.0 mm 0.00 in0.0 mm 0.08 in2.0 mm
06:43 PM 41.0°F5.0°C 41.4°F5.2°C 78% 8.5 mph W13.7 kmh W 8.5 mph13.7 kmh 29.64 in1003.7 mb 0.00 in0.0 mm 0.00 in0.0 mm 0.08 in2.0 mm
06:45 PM 41.1°F5.1°C 41.5°F5.3°C 78% 4.9 mph W7.9 kmh W 4.9 mph7.9 kmh 29.64 in1003.7 mb 0.00 in0.0 mm 0.00 in0.0 mm 0.08 in2.0 mm
06:46 PM 41.0°F5.0°C 41.2°F5.1°C 78% 7.2 mph W11.6 kmh W 7.2 mph11.6 kmh 29.64 in1003.7 mb 0.00 in0.0 mm 0.00 in0.0 mm 0.08 in2.0 mm
06:48 PM 41.1°F5.1°C 41.4°F5.2°C 79% 9.6 mph W15.4 kmh W 9.6 mph15.4 kmh 29.64 in1003.7 mb 0.00 in0.0 mm 0.00 in0.0 mm 0.08 in2.0 mm
06:49 PM 41.1°F5.1°C 41.4°F5.2°C 79% 9.3 mph WSW15.0 kmh WSW 9.3 mph15.0 kmh 29.64 in1003.7 mb 0.00 in0.0 mm 0.00 in0.0 mm 0.08 in2.0 mm
06:51 PM 41.0°F5.0°C 41.6°F5.3°C 79% 5.6 mph W9.0 kmh W 5.6 mph9.0 kmh 29.64 in1003.7 mb 0.00 in0.0 mm 0.00 in0.0 mm 0.08 in2.0 mm
06:52 PM 41.0°F5.0°C 41.5°F5.3°C 79% 8.9 mph W14.3 kmh W 8.9 mph14.3 kmh 29.64 in1003.7 mb 0.00 in0.0 mm 0.00 in0.0 mm 0.08 in2.0 mm
06:54 PM 41.0°F5.0°C 41.4°F5.2°C 79% 4.0 mph W6.4 kmh W 4.1 mph6.6 kmh 29.64 in1003.7 mb 0.00 in0.0 mm 0.00 in0.0 mm 0.08 in2.0 mm
06:55 PM 41.0°F5.0°C 41.5°F5.3°C 79% 3.5 mph W5.6 kmh W 3.5 mph5.6 kmh 29.64 in1003.7 mb 0.00 in0.0 mm 0.00 in0.0 mm 0.08 in2.0 mm
06:57 PM 41.0°F5.0°C 41.5°F5.3°C 79% 3.2 mph W5.1 kmh W 3.2 mph5.1 kmh 29.64 in1003.7 mb 0.00 in0.0 mm 0.00 in0.0 mm 0.08 in2.0 mm
06:58 PM 41.0°F5.0°C 41.6°F5.3°C 79% 2.6 mph NW4.2 kmh NW 2.7 mph4.3 kmh 29.64 in1003.7 mb 0.00 in0.0 mm 0.00 in0.0 mm 0.08 in2.0 mm
07:01 PM 40.9°F4.9°C 41.6°F5.3°C 79% 2.0 mph W3.2 kmh W 2.0 mph3.2 kmh 29.64 in1003.7 mb 0.00 in0.0 mm 0.00 in0.0 mm 0.08 in2.0 mm
07:03 PM 40.9°F4.9°C 41.3°F5.2°C 79% 4.8 mph WNW7.7 kmh WNW 4.8 mph7.7 kmh 29.64 in1003.7 mb 0.00 in0.0 mm 0.00 in0.0 mm 0.08 in2.0 mm
07:04 PM 40.9°F4.9°C 41.5°F5.3°C 79% 3.3 mph W5.3 kmh W 3.3 mph5.3 kmh 29.64 in1003.7 mb 0.00 in0.0 mm 0.00 in0.0 mm 0.08 in2.0 mm
07:06 PM 40.9°F4.9°C 41.8°F5.4°C 79% 5.6 mph WSW9.0 kmh WSW 5.6 mph9.0 kmh 29.64 in1003.7 mb 0.00 in0.0 mm 0.00 in0.0 mm 0.08 in2.0 mm
07:07 PM 40.9°F4.9°C 41.7°F5.4°C 80% 4.9 mph WSW7.9 kmh WSW 4.9 mph7.9 kmh 29.64 in1003.7 mb 0.00 in0.0 mm 0.00 in0.0 mm 0.08 in2.0 mm
07:09 PM 40.9°F4.9°C 41.7°F5.4°C 80% 7.3 mph W11.7 kmh W 7.3 mph11.7 kmh 29.64 in1003.7 mb 0.00 in0.0 mm 0.00 in0.0 mm 0.08 in2.0 mm
07:10 PM 40.9°F4.9°C 41.9°F5.5°C 80% 6.8 mph W10.9 kmh W 6.9 mph11.1 kmh 29.64 in1003.7 mb 0.00 in0.0 mm 0.00 in0.0 mm 0.08 in2.0 mm
07:12 PM 40.9°F4.9°C 41.9°F5.5°C 80% 1.2 mph NNW1.9 kmh NNW 1.2 mph1.9 kmh 29.64 in1003.7 mb 0.00 in0.0 mm 0.00 in0.0 mm 0.08 in2.0 mm
07:13 PM 40.9°F4.9°C 41.5°F5.3°C 79% 1.6 mph WNW2.6 kmh WNW 1.6 mph2.6 kmh 29.64 in1003.7 mb 0.00 in0.0 mm 0.00 in0.0 mm 0.08 in2.0 mm
07:15 PM 40.9°F4.9°C 41.7°F5.4°C 80% 2.4 mph W3.9 kmh W 2.4 mph3.9 kmh 29.64 in1003.7 mb 0.00 in0.0 mm 0.00 in0.0 mm 0.08 in2.0 mm
07:16 PM 40.9°F4.9°C 41.7°F5.4°C 80% 3.2 mph W5.1 kmh W 3.2 mph5.1 kmh 29.64 in1003.7 mb 0.00 in0.0 mm 0.00 in0.0 mm 0.08 in2.0 mm
07:18 PM 40.8°F4.9°C 41.8°F5.4°C 79% 4.8 mph W7.7 kmh W 4.8 mph7.7 kmh 29.64 in1003.7 mb 0.00 in0.0 mm 0.00 in0.0 mm 0.08 in2.0 mm
07:19 PM 40.8°F4.9°C 42.0°F5.6°C 80% 7.7 mph W12.4 kmh W 7.9 mph12.7 kmh 29.64 in1003.7 mb 0.00 in0.0 mm 0.00 in0.0 mm 0.08 in2.0 mm
07:21 PM 40.8°F4.9°C 41.7°F5.4°C 80% 2.0 mph W3.2 kmh W 2.0 mph3.2 kmh 29.64 in1003.7 mb 0.00 in0.0 mm 0.00 in0.0 mm 0.08 in2.0 mm
07:22 PM 40.9°F4.9°C 41.6°F5.3°C 80% 2.9 mph W4.7 kmh W 3.0 mph4.8 kmh 29.64 in1003.7 mb 0.00 in0.0 mm 0.00 in0.0 mm 0.08 in2.0 mm
07:24 PM 40.9°F4.9°C 41.9°F5.5°C 80% 5.7 mph WSW9.2 kmh WSW 5.7 mph9.2 kmh 29.64 in1003.7 mb 0.00 in0.0 mm 0.00 in0.0 mm 0.08 in2.0 mm
07:25 PM 40.9°F4.9°C 41.5°F5.3°C 79% 6.3 mph WSW10.1 kmh WSW 6.4 mph10.3 kmh 29.64 in1003.7 mb 0.00 in0.0 mm 0.00 in0.0 mm 0.08 in2.0 mm
07:27 PM 40.9°F4.9°C 41.7°F5.4°C 80% 2.4 mph W3.9 kmh W 2.4 mph3.9 kmh 29.64 in1003.7 mb 0.00 in0.0 mm 0.00 in0.0 mm 0.08 in2.0 mm
07:28 PM 40.9°F4.9°C 41.9°F5.5°C 80% 4.1 mph W6.6 kmh W 4.1 mph6.6 kmh 29.64 in1003.7 mb 0.00 in0.0 mm 0.00 in0.0 mm 0.08 in2.0 mm
07:30 PM 41.0°F5.0°C 41.5°F5.3°C 79% 8.3 mph NNW13.4 kmh NNW 8.4 mph13.5 kmh 29.64 in1003.7 mb 0.00 in0.0 mm 0.00 in0.0 mm 0.08 in2.0 mm
07:31 PM 40.9°F4.9°C 42.0°F5.6°C 80% 8.4 mph NNW13.5 kmh NNW 8.5 mph13.7 kmh 29.64 in1003.7 mb 0.00 in0.0 mm 0.00 in0.0 mm 0.08 in2.0 mm
07:33 PM 40.9°F4.9°C 41.9°F5.5°C 80% 2.0 mph WSW3.2 kmh WSW 2.0 mph3.2 kmh 29.64 in1003.7 mb 0.00 in0.0 mm 0.00 in0.0 mm 0.08 in2.0 mm
07:34 PM 40.8°F4.9°C 41.7°F5.4°C 80% 1.9 mph W3.1 kmh W 1.9 mph3.1 kmh 29.64 in1003.7 mb 0.00 in0.0 mm 0.00 in0.0 mm 0.08 in2.0 mm
07:36 PM 40.9°F4.9°C 41.9°F5.5°C 80% 7.3 mph NNW11.7 kmh NNW 7.3 mph11.7 kmh 29.64 in1003.7 mb 0.00 in0.0 mm 0.00 in0.0 mm 0.08 in2.0 mm
07:37 PM 40.9°F4.9°C 42.0°F5.6°C 80% 7.6 mph SW12.2 kmh SW 7.6 mph12.2 kmh 29.64 in1003.7 mb 0.00 in0.0 mm 0.00 in0.0 mm 0.08 in2.0 mm
07:39 PM 40.9°F4.9°C 41.8°F5.4°C 81% 3.6 mph WSW5.8 kmh WSW 3.6 mph5.8 kmh 29.64 in1003.7 mb 0.00 in0.0 mm 0.00 in0.0 mm 0.08 in2.0 mm
07:40 PM 41.0°F5.0°C 41.7°F5.4°C 80% 4.4 mph SW7.1 kmh SW 4.4 mph7.1 kmh 29.64 in1003.7 mb 0.00 in0.0 mm 0.00 in0.0 mm 0.08 in2.0 mm
07:42 PM 40.9°F4.9°C 42.1°F5.6°C 81% 4.0 mph W6.4 kmh W 4.1 mph6.6 kmh 29.64 in1003.7 mb 0.00 in0.0 mm 0.00 in0.0 mm 0.08 in2.0 mm
07:43 PM 40.9°F4.9°C 41.7°F5.4°C 80% 6.4 mph W10.3 kmh W 6.5 mph10.5 kmh 29.64 in1003.7 mb 0.00 in0.0 mm 0.00 in0.0 mm 0.08 in2.0 mm
07:45 PM 40.9°F4.9°C 41.8°F5.4°C 80% 4.0 mph WNW6.4 kmh WNW 4.1 mph6.6 kmh 29.64 in1003.7 mb 0.00 in0.0 mm 0.00 in0.0 mm 0.08 in2.0 mm
07:46 PM 40.9°F4.9°C 42.0°F5.6°C 81% 3.4 mph W5.5 kmh W 3.5 mph5.6 kmh 29.64 in1003.7 mb 0.00 in0.0 mm 0.00 in0.0 mm 0.08 in2.0 mm
07:48 PM 40.9°F4.9°C 41.9°F5.5°C 80% 1.2 mph W1.9 kmh W 1.2 mph1.9 kmh 29.64 in1003.7 mb 0.00 in0.0 mm 0.00 in0.0 mm 0.08 in2.0 mm
07:49 PM 40.8°F4.9°C 42.1°F5.6°C 81% 1.1 mph WNW1.8 kmh WNW 1.2 mph1.9 kmh 29.64 in1003.7 mb 0.00 in0.0 mm 0.00 in0.0 mm 0.08 in2.0 mm
07:51 PM 40.9°F4.9°C 42.1°F5.6°C 81% 2.4 mph NNW3.9 kmh NNW 2.4 mph3.9 kmh 29.64 in1003.7 mb 0.00 in0.0 mm 0.00 in0.0 mm 0.08 in2.0 mm
07:52 PM 40.9°F4.9°C 41.8°F5.4°C 80% 1.8 mph NW2.9 kmh NW 1.8 mph2.9 kmh 29.64 in1003.7 mb 0.00 in0.0 mm 0.00 in0.0 mm 0.08 in2.0 mm
07:54 PM 40.8°F4.9°C 42.0°F5.6°C 81% 2.8 mph WSW4.5 kmh WSW 2.9 mph4.7 kmh 29.64 in1003.7 mb 0.00 in0.0 mm 0.00 in0.0 mm 0.08 in2.0 mm
07:55 PM 40.8°F4.9°C 41.9°F5.5°C 81% 2.1 mph NW3.4 kmh NW 2.2 mph3.5 kmh 29.64 in1003.7 mb 0.00 in0.0 mm 0.00 in0.0 mm 0.08 in2.0 mm
07:57 PM 40.9°F4.9°C 42.1°F5.6°C 81% 3.2 mph NNW5.1 kmh NNW 3.2 mph5.1 kmh 29.63 in1003.4 mb 0.00 in0.0 mm 0.00 in0.0 mm 0.08 in2.0 mm
07:58 PM 40.9°F4.9°C 41.7°F5.4°C 80% 2.2 mph W3.5 kmh W 2.3 mph3.7 kmh 29.64 in1003.7 mb 0.00 in0.0 mm 0.00 in0.0 mm 0.08 in2.0 mm
08:00 PM 40.8°F4.9°C 41.6°F5.3°C 80% 3.6 mph WNW5.8 kmh WNW 3.7 mph6.0 kmh 29.64 in1003.7 mb 0.00 in0.0 mm 0.00 in0.0 mm 0.08 in2.0 mm
08:01 PM 40.8°F4.9°C 41.7°F5.4°C 80% 6.4 mph WNW10.3 kmh WNW 6.4 mph10.3 kmh 29.64 in1003.7 mb 0.00 in0.0 mm 0.00 in0.0 mm 0.08 in2.0 mm
08:03 PM 40.8°F4.9°C 41.9°F5.5°C 81% 4.8 mph W7.7 kmh W 4.9 mph7.9 kmh 29.64 in1003.7 mb 0.00 in0.0 mm 0.00 in0.0 mm 0.08 in2.0 mm
08:04 PM 40.8°F4.9°C 41.8°F5.4°C 81% 4.1 mph W6.6 kmh W 4.1 mph6.6 kmh 29.64 in1003.7 mb 0.00 in0.0 mm 0.00 in0.0 mm 0.08 in2.0 mm
08:06 PM 40.9°F4.9°C 41.9°F5.5°C 80% 6.5 mph WSW10.5 kmh WSW 6.5 mph10.5 kmh 29.64 in1003.7 mb 0.00 in0.0 mm 0.00 in0.0 mm 0.08 in2.0 mm
08:07 PM 40.9°F4.9°C 42.0°F5.6°C 81% 5.1 mph WSW8.2 kmh WSW 5.2 mph8.4 kmh 29.64 in1003.7 mb 0.00 in0.0 mm 0.00 in0.0 mm 0.08 in2.0 mm
08:09 PM 41.0°F5.0°C 42.0°F5.6°C 81% 4.8 mph SSW7.7 kmh SSW 4.8 mph7.7 kmh 29.64 in1003.7 mb 0.00 in0.0 mm 0.00 in0.0 mm 0.08 in2.0 mm
08:10 PM 41.0°F5.0°C 41.8°F5.4°C 80% 5.1 mph SW8.2 kmh SW 5.1 mph8.2 kmh 29.64 in1003.7 mb 0.00 in0.0 mm 0.00 in0.0 mm 0.08 in2.0 mm
08:12 PM 40.9°F4.9°C 41.9°F5.5°C 80% 4.0 mph SW6.4 kmh SW 4.1 mph6.6 kmh 29.64 in1003.7 mb 0.00 in0.0 mm 0.00 in0.0 mm 0.08 in2.0 mm
08:13 PM 40.9°F4.9°C 41.7°F5.4°C 80% 4.8 mph WSW7.7 kmh WSW 4.8 mph7.7 kmh 29.64 in1003.7 mb 0.00 in0.0 mm 0.00 in0.0 mm 0.08 in2.0 mm
08:15 PM 40.8°F4.9°C 41.7°F5.4°C 80% 4.0 mph WSW6.4 kmh WSW 4.1 mph6.6 kmh 29.64 in1003.7 mb 0.00 in0.0 mm 0.00 in0.0 mm 0.08 in2.0 mm
08:16 PM 40.8°F4.9°C 41.6°F5.3°C 80% 3.2 mph WSW5.1 kmh WSW 3.2 mph5.1 kmh 29.63 in1003.4 mb 0.00 in0.0 mm 0.00 in0.0 mm 0.08 in2.0 mm
08:18 PM 40.9°F4.9°C 41.8°F5.4°C 80% 4.1 mph W6.6 kmh W 4.1 mph6.6 kmh 29.63 in1003.4 mb 0.00 in0.0 mm 0.00 in0.0 mm 0.08 in2.0 mm
08:19 PM 40.9°F4.9°C 41.6°F5.3°C 80% 3.3 mph W5.3 kmh W 3.3 mph5.3 kmh 29.63 in1003.4 mb 0.00 in0.0 mm 0.00 in0.0 mm 0.08 in2.0 mm
08:21 PM 40.8°F4.9°C 41.5°F5.3°C 80% 3.6 mph WNW5.8 kmh WNW 3.6 mph5.8 kmh 29.63 in1003.4 mb 0.00 in0.0 mm 0.00 in0.0 mm 0.08 in2.0 mm
08:22 PM 40.9°F4.9°C 41.5°F5.3°C 80% 2.7 mph W4.3 kmh W 2.7 mph4.3 kmh 29.63 in1003.4 mb 0.00 in0.0 mm 0.00 in0.0 mm 0.08 in2.0 mm
08:24 PM 40.9°F4.9°C 41.5°F5.3°C 80% 2.4 mph WNW3.9 kmh WNW 2.4 mph3.9 kmh 29.63 in1003.4 mb 0.00 in0.0 mm 0.00 in0.0 mm 0.08 in2.0 mm
08:25 PM 40.9°F4.9°C 41.5°F5.3°C 80% 2.9 mph WNW4.7 kmh WNW 3.0 mph4.8 kmh 29.63 in1003.4 mb 0.00 in0.0 mm 0.00 in0.0 mm 0.08 in2.0 mm
08:27 PM 40.8°F4.9°C 41.6°F5.3°C 80% 5.2 mph WSW8.4 kmh WSW 5.2 mph8.4 kmh 29.64 in1003.7 mb 0.00 in0.0 mm 0.00 in0.0 mm 0.08 in2.0 mm
08:28 PM 40.8°F4.9°C 41.7°F5.4°C 80% 3.7 mph SW6.0 kmh SW 3.7 mph6.0 kmh 29.63 in1003.4 mb 0.00 in0.0 mm 0.00 in0.0 mm 0.08 in2.0 mm
08:30 PM 40.8°F4.9°C 41.5°F5.3°C 79% 7.7 mph WSW12.4 kmh WSW 7.7 mph12.4 kmh 29.63 in1003.4 mb 0.00 in0.0 mm 0.00 in0.0 mm 0.08 in2.0 mm
08:31 PM 40.8°F4.9°C 41.6°F5.3°C 80% 5.6 mph SW9.0 kmh SW 5.7 mph9.2 kmh 29.64 in1003.7 mb 0.00 in0.0 mm 0.00 in0.0 mm 0.08 in2.0 mm
08:33 PM 40.7°F4.8°C 41.6°F5.3°C 80% 4.9 mph W7.9 kmh W 4.9 mph7.9 kmh 29.63 in1003.4 mb 0.00 in0.0 mm 0.00 in0.0 mm 0.08 in2.0 mm
08:34 PM 40.7°F4.8°C 41.6°F5.3°C 80% 4.6 mph W7.4 kmh W 4.8 mph7.7 kmh 29.63 in1003.4 mb 0.00 in0.0 mm 0.00 in0.0 mm 0.08 in2.0 mm
08:36 PM 40.6°F4.8°C 41.5°F5.3°C 79% 5.2 mph W8.4 kmh W 5.2 mph8.4 kmh 29.63 in1003.4 mb 0.00 in0.0 mm 0.00 in0.0 mm 0.08 in2.0 mm
08:37 PM 40.7°F4.8°C 41.9°F5.5°C 80% 4.5 mph W7.2 kmh W 4.5 mph7.2 kmh 29.63 in1003.4 mb 0.00 in0.0 mm 0.00 in0.0 mm 0.08 in2.0 mm
08:39 PM 40.7°F4.8°C 41.7°F5.4°C 80% 4.4 mph W7.1 kmh W 4.4 mph7.1 kmh 29.63 in1003.4 mb 0.00 in0.0 mm 0.00 in0.0 mm 0.08 in2.0 mm
08:42 PM 40.6°F4.8°C 41.7°F5.4°C 80% 2.4 mph WSW3.9 kmh WSW 2.4 mph3.9 kmh 29.63 in1003.4 mb 0.00 in0.0 mm 0.00 in0.0 mm 0.08 in2.0 mm
08:43 PM 40.6°F4.8°C 41.7°F5.4°C 80% 2.9 mph W4.7 kmh W 3.0 mph4.8 kmh 29.63 in1003.4 mb 0.00 in0.0 mm 0.00 in0.0 mm 0.08 in2.0 mm
08:45 PM 40.7°F4.8°C 41.5°F5.3°C 80% 3.6 mph W5.8 kmh W 3.6 mph5.8 kmh 29.63 in1003.4 mb 0.00 in0.0 mm 0.00 in0.0 mm 0.08 in2.0 mm
08:46 PM 40.6°F4.8°C 41.7°F5.4°C 80% 4.1 mph W6.6 kmh W 4.1 mph6.6 kmh 29.63 in1003.4 mb 0.00 in0.0 mm 0.00 in0.0 mm 0.08 in2.0 mm
08:48 PM 40.4°F4.7°C 41.7°F5.4°C 80% 2.4 mph W3.9 kmh W 2.4 mph3.9 kmh 29.63 in1003.4 mb 0.00 in0.0 mm 0.00 in0.0 mm 0.08 in2.0 mm
08:49 PM 40.6°F4.8°C 41.7°F5.4°C 80% 3.5 mph W5.6 kmh W 3.5 mph5.6 kmh 29.62 in1003.0 mb 0.00 in0.0 mm 0.00 in0.0 mm 0.08 in2.0 mm
08:51 PM 40.6°F4.8°C 41.7°F5.4°C 80% 6.9 mph W11.1 kmh W 6.9 mph11.1 kmh 29.63 in1003.4 mb 0.00 in0.0 mm 0.00 in0.0 mm 0.08 in2.0 mm
08:52 PM 40.6°F4.8°C 41.7°F5.4°C 80% 9.4 mph W15.1 kmh W 9.4 mph15.1 kmh 29.63 in1003.4 mb 0.00 in0.0 mm 0.00 in0.0 mm 0.08 in2.0 mm
08:54 PM 40.6°F4.8°C 41.6°F5.3°C 80% 2.4 mph WSW3.9 kmh WSW 2.4 mph3.9 kmh 29.63 in1003.4 mb 0.00 in0.0 mm 0.00 in0.0 mm 0.08 in2.0 mm
08:55 PM 40.7°F4.8°C 41.5°F5.3°C 80% 3.3 mph W5.3 kmh W 3.4 mph5.5 kmh 29.63 in1003.4 mb 0.00 in0.0 mm 0.00 in0.0 mm 0.08 in2.0 mm
08:57 PM 40.4°F4.7°C 41.5°F5.3°C 80% 3.2 mph W5.1 kmh W 3.2 mph5.1 kmh 29.63 in1003.4 mb 0.00 in0.0 mm 0.00 in0.0 mm 0.08 in2.0 mm
08:58 PM 40.4°F4.7°C 41.5°F5.3°C 80% 3.2 mph W5.1 kmh W 3.3 mph5.3 kmh 29.62 in1003.0 mb 0.00 in0.0 mm 0.00 in0.0 mm 0.08 in2.0 mm
09:00 PM 40.6°F4.8°C 41.6°F5.3°C 80% 4.6 mph W7.4 kmh W 4.7 mph7.6 kmh 29.62 in1003.0 mb 0.00 in0.0 mm 0.00 in0.0 mm 0.08 in2.0 mm
09:01 PM 40.4°F4.7°C 41.5°F5.3°C 81% 4.0 mph WSW6.4 kmh WSW 4.0 mph6.4 kmh 29.63 in1003.4 mb 0.00 in0.0 mm 0.00 in0.0 mm 0.08 in2.0 mm
09:03 PM 40.4°F4.7°C 41.3°F5.2°C 80% 7.3 mph WSW11.7 kmh WSW 7.4 mph11.9 kmh 29.63 in1003.4 mb 0.00 in0.0 mm 0.00 in0.0 mm 0.08 in2.0 mm
09:04 PM 40.4°F4.7°C 41.6°F5.3°C 81% 6.8 mph W10.9 kmh W 6.9 mph11.1 kmh 29.63 in1003.4 mb 0.00 in0.0 mm 0.00 in0.0 mm 0.08 in2.0 mm
09:06 PM 40.4°F4.7°C 41.7°F5.4°C 81% 6.9 mph W11.1 kmh W 6.9 mph11.1 kmh 29.62 in1003.0 mb 0.00 in0.0 mm 0.00 in0.0 mm 0.08 in2.0 mm
09:07 PM 40.4°F4.7°C 41.7°F5.4°C 81% 6.2 mph W10.0 kmh W 6.2 mph10.0 kmh 29.62 in1003.0 mb 0.00 in0.0 mm 0.00 in0.0 mm 0.08 in2.0 mm
09:09 PM 40.3°F4.6°C 41.7°F5.4°C 81% 4.8 mph NNW7.7 kmh NNW 4.9 mph7.9 kmh 29.62 in1003.0 mb 0.00 in0.0 mm 0.00 in0.0 mm 0.08 in2.0 mm
09:10 PM 40.4°F4.7°C 41.6°F5.3°C 81% 4.9 mph WSW7.9 kmh WSW 4.9 mph7.9 kmh 29.62 in1003.0 mb 0.00 in0.0 mm 0.00 in0.0 mm 0.08 in2.0 mm
09:12 PM 40.3°F4.6°C 41.7°F5.4°C 81% 2.8 mph W4.5 kmh W 2.8 mph4.5 kmh 29.63 in1003.4 mb 0.00 in0.0 mm 0.00 in0.0 mm 0.08 in2.0 mm
09:13 PM 40.3°F4.6°C 41.8°F5.4°C 81% 4.7 mph W7.6 kmh W 4.7 mph7.6 kmh 29.63 in1003.4 mb 0.00 in0.0 mm 0.00 in0.0 mm 0.08 in2.0 mm
09:15 PM 40.2°F4.6°C 41.8°F5.4°C 82% 3.6 mph SW5.8 kmh SW 3.7 mph6.0 kmh 29.62 in1003.0 mb 0.00 in0.0 mm 0.00 in0.0 mm 0.08 in2.0 mm
09:16 PM 40.2°F4.6°C 41.4°F5.2°C 81% 4.6 mph SW7.4 kmh SW 4.6 mph7.4 kmh 29.63 in1003.4 mb 0.00 in0.0 mm 0.00 in0.0 mm 0.08 in2.0 mm
09:18 PM 40.1°F4.5°C 42.0°F5.6°C 82% 3.6 mph NNW5.8 kmh NNW 3.6 mph5.8 kmh 29.62 in1003.0 mb 0.00 in0.0 mm 0.00 in0.0 mm 0.08 in2.0 mm
09:19 PM 40.1°F4.5°C 41.8°F5.4°C 82% 3.7 mph SW6.0 kmh SW 3.7 mph6.0 kmh 29.62 in1003.0 mb 0.00 in0.0 mm 0.00 in0.0 mm 0.08 in2.0 mm
09:21 PM 40.0°F4.4°C 42.0°F5.6°C 83% 7.6 mph NNW12.2 kmh NNW 7.6 mph12.2 kmh 29.62 in1003.0 mb 0.00 in0.0 mm 0.00 in0.0 mm 0.08 in2.0 mm
09:22 PM 40.0°F4.4°C 41.9°F5.5°C 83% 7.8 mph WSW12.6 kmh WSW 7.8 mph12.6 kmh 29.62 in1003.0 mb 0.00 in0.0 mm 0.00 in0.0 mm 0.08 in2.0 mm
09:24 PM 39.9°F4.4°C 41.9°F5.5°C 83% 6.1 mph WSW9.8 kmh WSW 6.1 mph9.8 kmh 29.62 in1003.0 mb 0.00 in0.0 mm 0.00 in0.0 mm 0.08 in2.0 mm
09:25 PM 39.9°F4.4°C 41.9°F5.5°C 83% 7.2 mph W11.6 kmh W 7.3 mph11.7 kmh 29.62 in1003.0 mb 0.00 in0.0 mm 0.00 in0.0 mm 0.08 in2.0 mm
09:27 PM 39.8°F4.3°C 41.9°F5.5°C 84% 4.9 mph WSW7.9 kmh WSW 4.9 mph7.9 kmh 29.62 in1003.0 mb 0.00 in0.0 mm 0.00 in0.0 mm 0.08 in2.0 mm
09:28 PM 39.8°F4.3°C 41.9°F5.5°C 83% 4.2 mph WSW6.8 kmh WSW 4.2 mph6.8 kmh 29.62 in1003.0 mb 0.00 in0.0 mm 0.00 in0.0 mm 0.08 in2.0 mm
09:30 PM 39.8°F4.3°C 42.0°F5.6°C 83% 4.9 mph WSW7.9 kmh WSW 4.9 mph7.9 kmh 29.62 in1003.0 mb 0.00 in0.0 mm 0.00 in0.0 mm 0.08 in2.0 mm
09:31 PM 39.7°F4.3°C 42.0°F5.6°C 84% 5.0 mph W8.0 kmh W 5.1 mph8.2 kmh 29.62 in1003.0 mb 0.00 in0.0 mm 0.00 in0.0 mm 0.08 in2.0 mm
09:33 PM 39.7°F4.3°C 42.0°F5.6°C 83% 6.0 mph SW9.7 kmh SW 6.0 mph9.7 kmh 29.62 in1003.0 mb 0.00 in0.0 mm 0.00 in0.0 mm 0.08 in2.0 mm
09:34 PM 39.7°F4.3°C 42.1°F5.6°C 84% 4.8 mph W7.7 kmh W 4.8 mph7.7 kmh 29.62 in1003.0 mb 0.00 in0.0 mm 0.00 in0.0 mm 0.08 in2.0 mm
09:36 PM 39.5°F4.2°C 42.0°F5.6°C 84% 3.2 mph W5.1 kmh W 3.2 mph5.1 kmh 29.62 in1003.0 mb 0.00 in0.0 mm 0.00 in0.0 mm 0.08 in2.0 mm
09:37 PM 39.5°F4.2°C 42.1°F5.6°C 84% 2.3 mph WSW3.7 kmh WSW 2.3 mph3.7 kmh 29.62 in1003.0 mb 0.00 in0.0 mm 0.00 in0.0 mm 0.08 in2.0 mm
09:39 PM 39.5°F4.2°C 42.1°F5.6°C 84% 2.0 mph WSW3.2 kmh WSW 2.0 mph3.2 kmh 29.62 in1003.0 mb 0.00 in0.0 mm 0.00 in0.0 mm 0.08 in2.0 mm
09:40 PM 39.5°F4.2°C 42.1°F5.6°C 84% 1.4 mph SW2.3 kmh SW 1.4 mph2.3 kmh 29.62 in1003.0 mb 0.00 in0.0 mm 0.00 in0.0 mm 0.08 in2.0 mm
09:42 PM 39.4°F4.1°C 41.9°F5.5°C 84% 1.2 mph SW1.9 kmh SW 1.2 mph1.9 kmh 29.62 in1003.0 mb 0.00 in0.0 mm 0.00 in0.0 mm 0.08 in2.0 mm
09:43 PM 39.5°F4.2°C 42.0°F5.6°C 84% 1.4 mph SW2.3 kmh SW 1.4 mph2.3 kmh 29.62 in1003.0 mb 0.00 in0.0 mm 0.00 in0.0 mm 0.08 in2.0 mm
09:45 PM 39.4°F4.1°C 42.0°F5.6°C 84% 2.8 mph SW4.5 kmh SW 2.8 mph4.5 kmh 29.62 in1003.0 mb 0.00 in0.0 mm 0.00 in0.0 mm 0.08 in2.0 mm
09:46 PM 39.4°F4.1°C 42.2°F5.7°C 84% 2.1 mph SW3.4 kmh SW 2.1 mph3.4 kmh 29.62 in1003.0 mb 0.00 in0.0 mm 0.00 in0.0 mm 0.08 in2.0 mm
09:48 PM 39.4°F4.1°C 42.0°F5.6°C 84% 0.8 mph W1.3 kmh W 0.8 mph1.3 kmh 29.61 in1002.7 mb 0.00 in0.0 mm 0.00 in0.0 mm 0.08 in2.0 mm
09:49 PM 39.4°F4.1°C 42.0°F5.6°C 84% 0.2 mph WSW0.3 kmh WSW 0.3 mph0.5 kmh 29.61 in1002.7 mb 0.00 in0.0 mm 0.00 in0.0 mm 0.08 in2.0 mm
09:51 PM 39.3°F4.1°C 42.2°F5.7°C 84% 0.4 mph SW0.6 kmh SW 0.4 mph0.6 kmh 29.62 in1003.0 mb 0.00 in0.0 mm 0.00 in0.0 mm 0.08 in2.0 mm
09:52 PM 39.3°F4.1°C 42.0°F5.6°C 84% 1.4 mph SW2.3 kmh SW 1.4 mph2.3 kmh 29.62 in1003.0 mb 0.00 in0.0 mm 0.00 in0.0 mm 0.08 in2.0 mm
09:54 PM 39.3°F4.1°C 42.2°F5.7°C 84% Calm Calm -- 29.61 in1002.7 mb 0.00 in0.0 mm 0.00 in0.0 mm 0.08 in2.0 mm
09:55 PM 39.3°F4.1°C 41.8°F5.4°C 83% Calm Calm -- 29.61 in1002.7 mb 0.00 in0.0 mm 0.00 in0.0 mm 0.08 in2.0 mm
09:57 PM 39.3°F4.1°C 42.3°F5.7°C 85% 1.2 mph SW1.9 kmh SW 1.2 mph1.9 kmh 29.61 in1002.7 mb 0.00 in0.0 mm 0.00 in0.0 mm 0.08 in2.0 mm
09:58 PM 39.3°F4.1°C 42.1°F5.6°C 85% 1.9 mph SW3.1 kmh SW 1.9 mph3.1 kmh 29.61 in1002.7 mb 0.00 in0.0 mm 0.00 in0.0 mm 0.08 in2.0 mm
10:00 PM 39.3°F4.1°C 42.0°F5.6°C 84% 2.0 mph NNW3.2 kmh NNW 2.0 mph3.2 kmh 29.61 in1002.7 mb 0.00 in0.0 mm 0.00 in0.0 mm 0.08 in2.0 mm
10:01 PM 39.3°F4.1°C 42.2°F5.7°C 85% 1.6 mph WSW2.6 kmh WSW 1.6 mph2.6 kmh 29.61 in1002.7 mb 0.00 in0.0 mm 0.00 in0.0 mm 0.08 in2.0 mm
10:03 PM 39.3°F4.1°C 42.3°F5.7°C 85% Calm Calm -- 29.62 in1003.0 mb 0.00 in0.0 mm 0.00 in0.0 mm 0.08 in2.0 mm
10:06 PM 39.3°F4.1°C 42.3°F5.7°C 85% Calm Calm -- 29.62 in1003.0 mb 0.00 in0.0 mm 0.00 in0.0 mm 0.08 in2.0 mm
10:07 PM 39.3°F4.1°C 42.2°F5.7°C 85% Calm Calm -- 29.61 in1002.7 mb 0.00 in0.0 mm 0.00 in0.0 mm 0.08 in2.0 mm
10:09 PM 39.3°F4.1°C 42.2°F5.7°C 85% 1.6 mph SW2.6 kmh SW 1.6 mph2.6 kmh 29.62 in1003.0 mb 0.00 in0.0 mm 0.00 in0.0 mm 0.08 in2.0 mm
10:10 PM 39.3°F4.1°C 42.4°F5.8°C 85% 1.6 mph SW2.6 kmh SW 1.6 mph2.6 kmh 29.61 in1002.7 mb 0.00 in0.0 mm 0.00 in0.0 mm 0.08 in2.0 mm
10:12 PM 39.2°F4.0°C 42.3°F5.7°C 85% 1.6 mph SW2.6 kmh SW 1.6 mph2.6 kmh 29.61 in1002.7 mb 0.00 in0.0 mm 0.00 in0.0 mm 0.08 in2.0 mm
10:13 PM 39.3°F4.1°C 42.5°F5.8°C 86% 1.7 mph WSW2.7 kmh WSW 1.7 mph2.7 kmh 29.61 in1002.7 mb 0.00 in0.0 mm 0.00 in0.0 mm 0.08 in2.0 mm
10:15 PM 39.3°F4.1°C 42.6°F5.9°C 86% Calm Calm -- 29.61 in1002.7 mb 0.00 in0.0 mm 0.00 in0.0 mm 0.08 in2.0 mm
10:16 PM 39.3°F4.1°C 42.1°F5.6°C 86% Calm Calm -- 29.60 in1002.4 mb 0.00 in0.0 mm 0.00 in0.0 mm 0.08 in2.0 mm
10:18 PM 39.2°F4.0°C 42.4°F5.8°C 86% Calm Calm -- 29.60 in1002.4 mb 0.00 in0.0 mm 0.00 in0.0 mm 0.08 in2.0 mm
10:19 PM 39.2°F4.0°C 42.4°F5.8°C 86% 0.5 mph SSW0.8 kmh SSW 0.5 mph0.8 kmh 29.60 in1002.4 mb 0.00 in0.0 mm 0.00 in0.0 mm 0.08 in2.0 mm
10:21 PM 39.2°F4.0°C 42.3°F5.7°C 86% 0.4 mph SW0.6 kmh SW 0.4 mph0.6 kmh 29.60 in1002.4 mb 0.00 in0.0 mm 0.00 in0.0 mm 0.08 in2.0 mm
10:22 PM 39.2°F4.0°C 42.2°F5.7°C 85% 0.2 mph SW0.3 kmh SW 0.2 mph0.3 kmh 29.60 in1002.4 mb 0.00 in0.0 mm 0.00 in0.0 mm 0.08 in2.0 mm
10:24 PM 39.2°F4.0°C 42.4°F5.8°C 86% 1.2 mph NNW1.9 kmh NNW 1.2 mph1.9 kmh 29.60 in1002.4 mb 0.00 in0.0 mm 0.00 in0.0 mm 0.08 in2.0 mm
10:25 PM 39.2°F4.0°C 42.5°F5.8°C 86% 0.7 mph NNW1.1 kmh NNW 0.8 mph1.3 kmh 29.60 in1002.4 mb 0.00 in0.0 mm 0.00 in0.0 mm 0.08 in2.0 mm
10:27 PM 39.2°F4.0°C 42.3°F5.7°C 86% 1.2 mph SSE1.9 kmh SSE 1.2 mph1.9 kmh 29.60 in1002.4 mb 0.00 in0.0 mm 0.00 in0.0 mm 0.08 in2.0 mm
10:28 PM 39.2°F4.0°C 42.5°F5.8°C 86% 1.4 mph S2.3 kmh S 1.4 mph2.3 kmh 29.60 in1002.4 mb 0.00 in0.0 mm 0.00 in0.0 mm 0.08 in2.0 mm
10:31 PM 39.2°F4.0°C 42.5°F5.8°C 86% 0.4 mph SW0.6 kmh SW 0.4 mph0.6 kmh 29.60 in1002.4 mb 0.00 in0.0 mm 0.00 in0.0 mm 0.08 in2.0 mm
10:33 PM 39.2°F4.0°C 42.5°F5.8°C 86% Calm Calm -- 29.59 in1002.0 mb 0.00 in0.0 mm 0.00 in0.0 mm 0.08 in2.0 mm
10:34 PM 39.2°F4.0°C 42.8°F6.0°C 86% Calm Calm -- 29.59 in1002.0 mb 0.00 in0.0 mm 0.00 in0.0 mm 0.08 in2.0 mm
10:36 PM 39.2°F4.0°C 42.5°F5.8°C 86% Calm Calm -- 29.60 in1002.4 mb 0.00 in0.0 mm 0.00 in0.0 mm 0.08 in2.0 mm
10:37 PM 39.2°F4.0°C 42.6°F5.9°C 86% 0.3 mph SW0.5 kmh SW 0.3 mph0.5 kmh 29.60 in1002.4 mb 0.00 in0.0 mm 0.00 in0.0 mm 0.08 in2.0 mm
10:39 PM 39.2°F4.0°C 42.5°F5.8°C 86% Calm Calm -- 29.59 in1002.0 mb 0.00 in0.0 mm 0.00 in0.0 mm 0.08 in2.0 mm
10:40 PM 39.2°F4.0°C 42.4°F5.8°C 86% Calm Calm -- 29.60 in1002.4 mb 0.00 in0.0 mm 0.00 in0.0 mm 0.08 in2.0 mm
10:42 PM 39.2°F4.0°C 42.5°F5.8°C 86% Calm Calm -- 29.60 in1002.4 mb 0.00 in0.0 mm 0.00 in0.0 mm 0.08 in2.0 mm
10:43 PM 39.2°F4.0°C 42.2°F5.7°C 85% Calm Calm -- 29.60 in1002.4 mb 0.00 in0.0 mm 0.00 in0.0 mm 0.08 in2.0 mm
10:45 PM 39.2°F4.0°C 42.6°F5.9°C 86% Calm Calm -- 29.59 in1002.0 mb 0.00 in0.0 mm 0.00 in0.0 mm 0.08 in2.0 mm
10:46 PM 39.2°F4.0°C 42.4°F5.8°C 86% Calm Calm -- 29.60 in1002.4 mb 0.00 in0.0 mm 0.00 in0.0 mm 0.08 in2.0 mm
10:48 PM 39.2°F4.0°C 42.4°F5.8°C 86% Calm Calm -- 29.60 in1002.4 mb 0.00 in0.0 mm 0.00 in0.0 mm 0.08 in2.0 mm
10:49 PM 39.2°F4.0°C 42.7°F5.9°C 86% Calm Calm -- 29.59 in1002.0 mb 0.00 in0.0 mm 0.00 in0.0 mm 0.08 in2.0 mm
10:51 PM 39.2°F4.0°C 42.4°F5.8°C 86% Calm Calm -- 29.59 in1002.0 mb 0.00 in0.0 mm 0.00 in0.0 mm 0.08 in2.0 mm
10:52 PM 39.2°F4.0°C 42.6°F5.9°C 86% Calm Calm -- 29.59 in1002.0 mb 0.00 in0.0 mm 0.00 in0.0 mm 0.08 in2.0 mm
10:54 PM 39.2°F4.0°C 42.4°F5.8°C 86% 0.4 mph SW0.6 kmh SW 0.4 mph0.6 kmh 29.59 in1002.0 mb 0.00 in0.0 mm 0.00 in0.0 mm 0.08 in2.0 mm
10:55 PM 39.2°F4.0°C 42.6°F5.9°C 86% 0.7 mph SW1.1 kmh SW 0.8 mph1.3 kmh 29.59 in1002.0 mb 0.00 in0.0 mm 0.00 in0.0 mm 0.08 in2.0 mm
10:57 PM 39.2°F4.0°C 42.7°F5.9°C 87% Calm Calm -- 29.59 in1002.0 mb 0.00 in0.0 mm 0.00 in0.0 mm 0.08 in2.0 mm
10:58 PM 39.2°F4.0°C 42.4°F5.8°C 86% Calm Calm -- 29.59 in1002.0 mb 0.00 in0.0 mm 0.00 in0.0 mm 0.08 in2.0 mm
11:00 PM 39.3°F4.1°C 42.7°F5.9°C 87% 1.6 mph W2.6 kmh W 1.6 mph2.6 kmh 29.59 in1002.0 mb 0.00 in0.0 mm 0.00 in0.0 mm 0.08 in2.0 mm
11:01 PM 39.3°F4.1°C 42.8°F6.0°C 87% 1.9 mph W3.1 kmh W 1.9 mph3.1 kmh 29.59 in1002.0 mb 0.00 in0.0 mm 0.00 in0.0 mm 0.08 in2.0 mm
11:03 PM 39.3°F4.1°C 42.5°F5.8°C 87% 0.4 mph SSW0.6 kmh SSW 0.4 mph0.6 kmh 29.59 in1002.0 mb 0.00 in0.0 mm 0.00 in0.0 mm 0.08 in2.0 mm
11:04 PM 39.3°F4.1°C 42.7°F5.9°C 87% 0.3 mph SSW0.5 kmh SSW 0.3 mph0.5 kmh 29.59 in1002.0 mb 0.00 in0.0 mm 0.00 in0.0 mm 0.08 in2.0 mm
11:06 PM 39.3°F4.1°C 42.4°F5.8°C 86% 5.7 mph WSW9.2 kmh WSW 5.7 mph9.2 kmh 29.58 in1001.7 mb 0.00 in0.0 mm 0.00 in0.0 mm 0.10 in2.5 mm
11:07 PM 39.4°F4.1°C 42.6°F5.9°C 87% 4.4 mph SW7.1 kmh SW 4.6 mph7.4 kmh 29.59 in1002.0 mb 0.00 in0.0 mm 0.00 in0.0 mm 0.10 in2.5 mm
11:09 PM 39.4°F4.1°C 42.6°F5.9°C 87% 0.8 mph WNW1.3 kmh WNW 0.8 mph1.3 kmh 29.59 in1002.0 mb 0.00 in0.0 mm 0.00 in0.0 mm 0.10 in2.5 mm
11:10 PM 39.4°F4.1°C 42.6°F5.9°C 87% 2.2 mph W3.5 kmh W 2.2 mph3.5 kmh 29.59 in1002.0 mb 0.00 in0.0 mm 0.00 in0.0 mm 0.10 in2.5 mm
11:12 PM 39.4°F4.1°C 42.7°F5.9°C 87% 1.2 mph NNW1.9 kmh NNW 1.2 mph1.9 kmh 29.59 in1002.0 mb 0.00 in0.0 mm 0.00 in0.0 mm 0.10 in2.5 mm
11:13 PM 39.5°F4.2°C 42.8°F6.0°C 87% 1.8 mph WSW2.9 kmh WSW 1.9 mph3.1 kmh 29.59 in1002.0 mb 0.00 in0.0 mm 0.00 in0.0 mm 0.10 in2.5 mm
11:15 PM 39.4°F4.1°C 42.8°F6.0°C 87% 1.2 mph W1.9 kmh W 1.2 mph1.9 kmh 29.58 in1001.7 mb 0.00 in0.0 mm 0.00 in0.0 mm 0.10 in2.5 mm
11:16 PM 39.5°F4.2°C 42.9°F6.1°C 87% 1.7 mph SSW2.7 kmh SSW 1.7 mph2.7 kmh 29.58 in1001.7 mb 0.00 in0.0 mm 0.00 in0.0 mm 0.10 in2.5 mm
11:18 PM 39.5°F4.2°C 43.0°F6.1°C 88% 1.2 mph WSW1.9 kmh WSW 1.2 mph1.9 kmh 29.58 in1001.7 mb 0.00 in0.0 mm 0.00 in0.0 mm 0.10 in2.5 mm
11:19 PM 39.5°F4.2°C 42.7°F5.9°C 88% 1.1 mph WSW1.8 kmh WSW 1.1 mph1.8 kmh 29.58 in1001.7 mb 0.00 in0.0 mm 0.00 in0.0 mm 0.10 in2.5 mm
11:21 PM 39.5°F4.2°C 42.9°F6.1°C 88% 6.0 mph W9.7 kmh W 6.0 mph9.7 kmh 29.58 in1001.7 mb 0.00 in0.0 mm 0.00 in0.0 mm 0.10 in2.5 mm
11:22 PM 39.5°F4.2°C 42.8°F6.0°C 88% 3.5 mph W5.6 kmh W 3.6 mph5.8 kmh 29.57 in1001.4 mb 0.00 in0.0 mm 0.00 in0.0 mm 0.10 in2.5 mm
11:24 PM 39.5°F4.2°C 42.7°F5.9°C 88% Calm Calm -- 29.58 in1001.7 mb 0.00 in0.0 mm 0.00 in0.0 mm 0.10 in2.5 mm
11:25 PM 39.5°F4.2°C 43.0°F6.1°C 87% Calm Calm -- 29.57 in1001.4 mb 0.00 in0.0 mm 0.00 in0.0 mm 0.10 in2.5 mm
11:27 PM 39.5°F4.2°C 42.9°F6.1°C 88% 1.6 mph SW2.6 kmh SW 1.6 mph2.6 kmh 29.57 in1001.4 mb 0.00 in0.0 mm 0.00 in0.0 mm 0.10 in2.5 mm
11:28 PM 39.5°F4.2°C 42.8°F6.0°C 88% 2.5 mph SW4.0 kmh SW 2.5 mph4.0 kmh 29.57 in1001.4 mb 0.00 in0.0 mm 0.00 in0.0 mm 0.10 in2.5 mm
11:30 PM 39.5°F4.2°C 42.9°F6.1°C 88% 0.4 mph SW0.6 kmh SW 0.4 mph0.6 kmh 29.57 in1001.4 mb 0.00 in0.0 mm 0.00 in0.0 mm 0.10 in2.5 mm
11:31 PM 39.5°F4.2°C 42.9°F6.1°C 88% 1.6 mph SSW2.6 kmh SSW 1.6 mph2.6 kmh 29.57 in1001.4 mb 0.00 in0.0 mm 0.00 in0.0 mm 0.10 in2.5 mm
11:33 PM 39.5°F4.2°C 43.1°F6.2°C 88% 4.0 mph W6.4 kmh W 4.0 mph6.4 kmh 29.57 in1001.4 mb 0.00 in0.0 mm 0.00 in0.0 mm 0.10 in2.5 mm
11:36 PM 39.5°F4.2°C 42.9°F6.1°C 88% 2.0 mph WSW3.2 kmh WSW 2.0 mph3.2 kmh 29.57 in1001.4 mb 0.00 in0.0 mm 0.00 in0.0 mm 0.10 in2.5 mm
11:37 PM 39.5°F4.2°C 42.9°F6.1°C 88% 2.3 mph W3.7 kmh W 2.5 mph4.0 kmh 29.57 in1001.4 mb 0.00 in0.0 mm 0.00 in0.0 mm 0.10 in2.5 mm
11:39 PM 39.7°F4.3°C 42.9°F6.1°C 88% 2.4 mph SW3.9 kmh SW 2.4 mph3.9 kmh 29.57 in1001.4 mb 0.00 in0.0 mm 0.00 in0.0 mm 0.10 in2.5 mm
11:40 PM 39.7°F4.3°C 42.9°F6.1°C 88% 2.6 mph WSW4.2 kmh WSW 2.6 mph4.2 kmh 29.57 in1001.4 mb 0.00 in0.0 mm 0.00 in0.0 mm 0.10 in2.5 mm
11:42 PM 39.5°F4.2°C 42.9°F6.1°C 88% 2.0 mph W3.2 kmh W 2.0 mph3.2 kmh 29.57 in1001.4 mb 0.00 in0.0 mm 0.00 in0.0 mm 0.10 in2.5 mm
11:43 PM 39.5°F4.2°C 42.7°F5.9°C 88% 2.3 mph SW3.7 kmh SW 2.3 mph3.7 kmh 29.57 in1001.4 mb 0.00 in0.0 mm 0.00 in0.0 mm 0.10 in2.5 mm
11:45 PM 39.5°F4.2°C 42.9°F6.1°C 89% 6.1 mph W9.8 kmh W 6.1 mph9.8 kmh 29.57 in1001.4 mb 0.00 in0.0 mm 0.00 in0.0 mm 0.10 in2.5 mm
11:46 PM 39.5°F4.2°C 42.9°F6.1°C 89% 4.5 mph SW7.2 kmh SW 4.5 mph7.2 kmh 29.57 in1001.4 mb 0.00 in0.0 mm 0.00 in0.0 mm 0.10 in2.5 mm
11:48 PM 39.5°F4.2°C 42.9°F6.1°C 88% 2.4 mph W3.9 kmh W 2.5 mph4.0 kmh 29.57 in1001.4 mb 0.00 in0.0 mm 0.00 in0.0 mm 0.10 in2.5 mm
11:49 PM 39.5°F4.2°C 43.1°F6.2°C 89% 3.7 mph WSW6.0 kmh WSW 3.7 mph6.0 kmh 29.57 in1001.4 mb 0.00 in0.0 mm 0.00 in0.0 mm 0.10 in2.5 mm
11:51 PM 39.4°F4.1°C 43.1°F6.2°C 89% 2.0 mph W3.2 kmh W 2.0 mph3.2 kmh 29.57 in1001.4 mb 0.00 in0.0 mm 0.00 in0.0 mm 0.12 in3.0 mm
11:52 PM 39.5°F4.2°C 43.0°F6.1°C 88% 1.8 mph W2.9 kmh W 2.0 mph3.2 kmh 29.57 in1001.4 mb 0.00 in0.0 mm 0.00 in0.0 mm 0.12 in3.0 mm
11:54 PM 39.4°F4.1°C 43.1°F6.2°C 88% 2.4 mph WNW3.9 kmh WNW 2.4 mph3.9 kmh 29.57 in1001.4 mb 0.00 in0.0 mm 0.00 in0.0 mm 0.12 in3.0 mm
11:55 PM 39.5°F4.2°C 43.0°F6.1°C 88% 1.9 mph W3.1 kmh W 1.9 mph3.1 kmh 29.57 in1001.4 mb 0.00 in0.0 mm 0.00 in0.0 mm 0.12 in3.0 mm
11:57 PM 39.4°F4.1°C 43.1°F6.2°C 88% 2.8 mph WSW4.5 kmh WSW 2.8 mph4.5 kmh 29.57 in1001.4 mb 0.00 in0.0 mm 0.00 in0.0 mm 0.12 in3.0 mm
11:58 PM 39.4°F4.1°C 43.1°F6.2°C 88% 2.4 mph WSW3.9 kmh WSW 2.4 mph3.9 kmh 29.57 in1001.4 mb 0.00 in0.0 mm 0.00 in0.0 mm 0.12 in3.0 mm